<?xml version="1.0" encoding="UTF-8" standalone="no" ?>
<gpx xmlns="http://www.topografix.com/GPX/1/1" xmlns:xsi="http://www.w3.org/2001/XMLSchema-instance" xsi:schemaLocation="http://www.topografix.com/GPX/1/1 http://www.topografix.com/GPX/1/1/gpx.xsd" version="1.1" creator="VisuGPX - https://www.visugpx.com">
  <metadata>
    <name>Traversée du Puy de Sancy</name>
    <desc><![CDATA[Grosse boucle sur les crêtes du Puy de Sancy]]></desc>
  </metadata>
  <trk>
    <name><![CDATA[2015-05-14 08:08]]></name>
    <desc><![CDATA[<h1>OruxMaps</h1><br /><hr align="center" width="480" style="height: 2px; width: 517px"/><h2>Nom: 2015-05-14 08:08</h2><br /><p>Temps de départ: 05/14/2015 08:08</p><p>Temps d'arrivée: 05/14/2015 16:54</p><p>Distance: 26,8km (08:46)</p><p>Temps déplacement: 07:01</p><p>Vitesse moyenne: 3,1km/h</p><p>Vitesse moyenne: 3,8km/h</p><p>Vitess Max.: 8,2km/h</p><p>Altitude minimale: 995m</p><p>Altitude maximale: 1877m</p><p>Vitesse d'élévation: 337m/h</p><p>Vitesse de descente: -450,6m/h</p><p>Gain Altitude: 1565m</p><p>Perte Altitude: -1590m</p><p>Temps d'élévation: 04:38</p><p>Temps de descente: 03:31</p><hr align="center" width="480" style="height: 2px; width: 517px"/>]]></desc>
    <trkseg>
      <trkpt lat="45.57012" lon="2.81164">
        <ele>1060.83</ele>
        <time>2015-05-14T06:08:09Z</time>
      </trkpt>
      <trkpt lat="45.57031" lon="2.81147">
        <ele>1047.64</ele>
        <time>2015-05-14T06:08:29Z</time>
      </trkpt>
      <trkpt lat="45.57032" lon="2.8112">
        <ele>1055.01</ele>
        <time>2015-05-14T06:08:45Z</time>
      </trkpt>
      <trkpt lat="45.57051" lon="2.81122">
        <ele>1051.31</ele>
        <time>2015-05-14T06:09:03Z</time>
      </trkpt>
      <trkpt lat="45.57069" lon="2.81117">
        <ele>1049.73</ele>
        <time>2015-05-14T06:09:15Z</time>
      </trkpt>
      <trkpt lat="45.57086" lon="2.81109">
        <ele>1048.66</ele>
        <time>2015-05-14T06:09:27Z</time>
      </trkpt>
      <trkpt lat="45.57104" lon="2.81101">
        <ele>1048.11</ele>
        <time>2015-05-14T06:09:38Z</time>
      </trkpt>
      <trkpt lat="45.57122" lon="2.81093">
        <ele>1047.75</ele>
        <time>2015-05-14T06:09:51Z</time>
      </trkpt>
      <trkpt lat="45.5714" lon="2.81084">
        <ele>1049.13</ele>
        <time>2015-05-14T06:10:04Z</time>
      </trkpt>
      <trkpt lat="45.57157" lon="2.81074">
        <ele>1050.52</ele>
        <time>2015-05-14T06:10:19Z</time>
      </trkpt>
      <trkpt lat="45.57175" lon="2.8107">
        <ele>1049.57</ele>
        <time>2015-05-14T06:10:31Z</time>
      </trkpt>
      <trkpt lat="45.57193" lon="2.81062">
        <ele>1048.49</ele>
        <time>2015-05-14T06:10:47Z</time>
      </trkpt>
      <trkpt lat="45.57209" lon="2.81047">
        <ele>1048.71</ele>
        <time>2015-05-14T06:11:05Z</time>
      </trkpt>
      <trkpt lat="45.57204" lon="2.81021">
        <ele>1049.3</ele>
        <time>2015-05-14T06:11:19Z</time>
      </trkpt>
      <trkpt lat="45.57198" lon="2.80996">
        <ele>1048.92</ele>
        <time>2015-05-14T06:11:31Z</time>
      </trkpt>
      <trkpt lat="45.57199" lon="2.8097">
        <ele>1048.87</ele>
        <time>2015-05-14T06:11:48Z</time>
      </trkpt>
      <trkpt lat="45.57193" lon="2.80944">
        <ele>1048.27</ele>
        <time>2015-05-14T06:12:12Z</time>
      </trkpt>
      <trkpt lat="45.57179" lon="2.80927">
        <ele>1046.07</ele>
        <time>2015-05-14T06:12:39Z</time>
      </trkpt>
      <trkpt lat="45.57176" lon="2.809">
        <ele>1041.47</ele>
        <time>2015-05-14T06:13:07Z</time>
      </trkpt>
      <trkpt lat="45.57166" lon="2.80874">
        <ele>1041.91</ele>
        <time>2015-05-14T06:13:18Z</time>
      </trkpt>
      <trkpt lat="45.57161" lon="2.80848">
        <ele>1043.31</ele>
        <time>2015-05-14T06:13:33Z</time>
      </trkpt>
      <trkpt lat="45.57153" lon="2.80825">
        <ele>1046.29</ele>
        <time>2015-05-14T06:14:04Z</time>
      </trkpt>
      <trkpt lat="45.57159" lon="2.808">
        <ele>1049.53</ele>
        <time>2015-05-14T06:14:35Z</time>
      </trkpt>
      <trkpt lat="45.57155" lon="2.80773">
        <ele>1054.82</ele>
        <time>2015-05-14T06:15:56Z</time>
      </trkpt>
      <trkpt lat="45.57139" lon="2.80755">
        <ele>1055.8</ele>
        <time>2015-05-14T06:16:17Z</time>
      </trkpt>
      <trkpt lat="45.57132" lon="2.8073">
        <ele>1057.07</ele>
        <time>2015-05-14T06:16:36Z</time>
      </trkpt>
      <trkpt lat="45.57136" lon="2.80704">
        <ele>1061.77</ele>
        <time>2015-05-14T06:17:10Z</time>
      </trkpt>
      <trkpt lat="45.57136" lon="2.80678">
        <ele>1067.27</ele>
        <time>2015-05-14T06:17:23Z</time>
      </trkpt>
      <trkpt lat="45.57139" lon="2.80653">
        <ele>1073.6</ele>
        <time>2015-05-14T06:17:45Z</time>
      </trkpt>
      <trkpt lat="45.57149" lon="2.80629">
        <ele>1077.16</ele>
        <time>2015-05-14T06:18:04Z</time>
      </trkpt>
      <trkpt lat="45.57156" lon="2.80605">
        <ele>1084.85</ele>
        <time>2015-05-14T06:18:39Z</time>
      </trkpt>
      <trkpt lat="45.57163" lon="2.80581">
        <ele>1088.51</ele>
        <time>2015-05-14T06:19:11Z</time>
      </trkpt>
      <trkpt lat="45.57177" lon="2.80563">
        <ele>1087.78</ele>
        <time>2015-05-14T06:19:37Z</time>
      </trkpt>
      <trkpt lat="45.57191" lon="2.80546">
        <ele>1084.62</ele>
        <time>2015-05-14T06:20:12Z</time>
      </trkpt>
      <trkpt lat="45.57196" lon="2.80521">
        <ele>1083.58</ele>
        <time>2015-05-14T06:20:34Z</time>
      </trkpt>
      <trkpt lat="45.57213" lon="2.80507">
        <ele>1081.42</ele>
        <time>2015-05-14T06:21:26Z</time>
      </trkpt>
      <trkpt lat="45.57231" lon="2.80504">
        <ele>1085.42</ele>
        <time>2015-05-14T06:21:50Z</time>
      </trkpt>
      <trkpt lat="45.57248" lon="2.80493">
        <ele>1092.91</ele>
        <time>2015-05-14T06:22:44Z</time>
      </trkpt>
      <trkpt lat="45.57233" lon="2.80473">
        <ele>1093.23</ele>
        <time>2015-05-14T06:23:38Z</time>
      </trkpt>
      <trkpt lat="45.57217" lon="2.80458">
        <ele>1092.87</ele>
        <time>2015-05-14T06:23:55Z</time>
      </trkpt>
      <trkpt lat="45.57198" lon="2.80456">
        <ele>1092.18</ele>
        <time>2015-05-14T06:24:22Z</time>
      </trkpt>
      <trkpt lat="45.57179" lon="2.80459">
        <ele>1097.35</ele>
        <time>2015-05-14T06:25:07Z</time>
      </trkpt>
      <trkpt lat="45.57161" lon="2.80449">
        <ele>1100.17</ele>
        <time>2015-05-14T06:25:18Z</time>
      </trkpt>
      <trkpt lat="45.57143" lon="2.80456">
        <ele>1108.68</ele>
        <time>2015-05-14T06:25:43Z</time>
      </trkpt>
      <trkpt lat="45.57125" lon="2.80463">
        <ele>1110.65</ele>
        <time>2015-05-14T06:26:05Z</time>
      </trkpt>
      <trkpt lat="45.5711" lon="2.80477">
        <ele>1112.62</ele>
        <time>2015-05-14T06:26:25Z</time>
      </trkpt>
      <trkpt lat="45.57104" lon="2.80451">
        <ele>1110.48</ele>
        <time>2015-05-14T06:27:52Z</time>
      </trkpt>
      <trkpt lat="45.57106" lon="2.80425">
        <ele>1115.56</ele>
        <time>2015-05-14T06:28:09Z</time>
      </trkpt>
      <trkpt lat="45.57118" lon="2.80407">
        <ele>1119.8</ele>
        <time>2015-05-14T06:28:30Z</time>
      </trkpt>
      <trkpt lat="45.5713" lon="2.80386">
        <ele>1119.71</ele>
        <time>2015-05-14T06:29:02Z</time>
      </trkpt>
      <trkpt lat="45.57136" lon="2.80361">
        <ele>1115.07</ele>
        <time>2015-05-14T06:29:59Z</time>
      </trkpt>
      <trkpt lat="45.57122" lon="2.80376">
        <ele>1139.7</ele>
        <time>2015-05-14T06:30:45Z</time>
      </trkpt>
      <trkpt lat="45.57104" lon="2.80383">
        <ele>1155.71</ele>
        <time>2015-05-14T06:31:17Z</time>
      </trkpt>
      <trkpt lat="45.57092" lon="2.80402">
        <ele>1164.77</ele>
        <time>2015-05-14T06:31:38Z</time>
      </trkpt>
      <trkpt lat="45.57075" lon="2.80413">
        <ele>1171.33</ele>
        <time>2015-05-14T06:31:56Z</time>
      </trkpt>
      <trkpt lat="45.57057" lon="2.80411">
        <ele>1176.95</ele>
        <time>2015-05-14T06:32:18Z</time>
      </trkpt>
      <trkpt lat="45.57041" lon="2.80397">
        <ele>1184.78</ele>
        <time>2015-05-14T06:32:52Z</time>
      </trkpt>
      <trkpt lat="45.57023" lon="2.8039">
        <ele>1188.11</ele>
        <time>2015-05-14T06:33:28Z</time>
      </trkpt>
      <trkpt lat="45.57005" lon="2.80393">
        <ele>1189.48</ele>
        <time>2015-05-14T06:33:45Z</time>
      </trkpt>
      <trkpt lat="45.5699" lon="2.80406">
        <ele>1191.98</ele>
        <time>2015-05-14T06:34:00Z</time>
      </trkpt>
      <trkpt lat="45.5698" lon="2.80429">
        <ele>1196.15</ele>
        <time>2015-05-14T06:34:24Z</time>
      </trkpt>
      <trkpt lat="45.56965" lon="2.80442">
        <ele>1200.55</ele>
        <time>2015-05-14T06:34:43Z</time>
      </trkpt>
      <trkpt lat="45.56955" lon="2.80464">
        <ele>1202.3</ele>
        <time>2015-05-14T06:35:07Z</time>
      </trkpt>
      <trkpt lat="45.56941" lon="2.80482">
        <ele>1204.95</ele>
        <time>2015-05-14T06:35:36Z</time>
      </trkpt>
      <trkpt lat="45.56922" lon="2.80485">
        <ele>1205.43</ele>
        <time>2015-05-14T06:35:55Z</time>
      </trkpt>
      <trkpt lat="45.56905" lon="2.80496">
        <ele>1207.53</ele>
        <time>2015-05-14T06:36:12Z</time>
      </trkpt>
      <trkpt lat="45.5689" lon="2.8051">
        <ele>1211.37</ele>
        <time>2015-05-14T06:36:25Z</time>
      </trkpt>
      <trkpt lat="45.56878" lon="2.80492">
        <ele>1214.88</ele>
        <time>2015-05-14T06:37:11Z</time>
      </trkpt>
      <trkpt lat="45.56863" lon="2.80475">
        <ele>1217.76</ele>
        <time>2015-05-14T06:37:34Z</time>
      </trkpt>
      <trkpt lat="45.56849" lon="2.80458">
        <ele>1220.87</ele>
        <time>2015-05-14T06:37:51Z</time>
      </trkpt>
      <trkpt lat="45.56832" lon="2.80448">
        <ele>1225.05</ele>
        <time>2015-05-14T06:38:32Z</time>
      </trkpt>
      <trkpt lat="45.56821" lon="2.80469">
        <ele>1227.4</ele>
        <time>2015-05-14T06:38:55Z</time>
      </trkpt>
      <trkpt lat="45.56804" lon="2.8048">
        <ele>1232.25</ele>
        <time>2015-05-14T06:39:11Z</time>
      </trkpt>
      <trkpt lat="45.56786" lon="2.80476">
        <ele>1239.16</ele>
        <time>2015-05-14T06:39:32Z</time>
      </trkpt>
      <trkpt lat="45.56772" lon="2.80459">
        <ele>1245.12</ele>
        <time>2015-05-14T06:39:58Z</time>
      </trkpt>
      <trkpt lat="45.56755" lon="2.80449">
        <ele>1247.15</ele>
        <time>2015-05-14T06:40:31Z</time>
      </trkpt>
      <trkpt lat="45.56736" lon="2.80448">
        <ele>1246.46</ele>
        <time>2015-05-14T06:40:55Z</time>
      </trkpt>
      <trkpt lat="45.56718" lon="2.80446">
        <ele>1247.45</ele>
        <time>2015-05-14T06:41:18Z</time>
      </trkpt>
      <trkpt lat="45.56709" lon="2.80422">
        <ele>1247.48</ele>
        <time>2015-05-14T06:41:42Z</time>
      </trkpt>
      <trkpt lat="45.56692" lon="2.80429">
        <ele>1245.58</ele>
        <time>2015-05-14T06:41:58Z</time>
      </trkpt>
      <trkpt lat="45.56675" lon="2.8044">
        <ele>1248.34</ele>
        <time>2015-05-14T06:42:17Z</time>
      </trkpt>
      <trkpt lat="45.56657" lon="2.80434">
        <ele>1251.8</ele>
        <time>2015-05-14T06:43:02Z</time>
      </trkpt>
      <trkpt lat="45.56639" lon="2.80436">
        <ele>1257.05</ele>
        <time>2015-05-14T06:43:41Z</time>
      </trkpt>
      <trkpt lat="45.56621" lon="2.80439">
        <ele>1261.89</ele>
        <time>2015-05-14T06:44:05Z</time>
      </trkpt>
      <trkpt lat="45.56603" lon="2.80445">
        <ele>1264.64</ele>
        <time>2015-05-14T06:44:34Z</time>
      </trkpt>
      <trkpt lat="45.56584" lon="2.80447">
        <ele>1266.91</ele>
        <time>2015-05-14T06:44:57Z</time>
      </trkpt>
      <trkpt lat="45.56567" lon="2.80455">
        <ele>1271.15</ele>
        <time>2015-05-14T06:45:29Z</time>
      </trkpt>
      <trkpt lat="45.56552" lon="2.80441">
        <ele>1277.57</ele>
        <time>2015-05-14T06:46:22Z</time>
      </trkpt>
      <trkpt lat="45.5654" lon="2.80421">
        <ele>1281.03</ele>
        <time>2015-05-14T06:46:51Z</time>
      </trkpt>
      <trkpt lat="45.56521" lon="2.80416">
        <ele>1284.13</ele>
        <time>2015-05-14T06:47:12Z</time>
      </trkpt>
      <trkpt lat="45.56504" lon="2.80425">
        <ele>1285.9</ele>
        <time>2015-05-14T06:47:30Z</time>
      </trkpt>
      <trkpt lat="45.56487" lon="2.80413">
        <ele>1288.52</ele>
        <time>2015-05-14T06:47:49Z</time>
      </trkpt>
      <trkpt lat="45.5648" lon="2.80389">
        <ele>1289.72</ele>
        <time>2015-05-14T06:48:07Z</time>
      </trkpt>
      <trkpt lat="45.56475" lon="2.80364">
        <ele>1291.85</ele>
        <time>2015-05-14T06:48:30Z</time>
      </trkpt>
      <trkpt lat="45.56474" lon="2.80339">
        <ele>1294.57</ele>
        <time>2015-05-14T06:49:01Z</time>
      </trkpt>
      <trkpt lat="45.56459" lon="2.80324">
        <ele>1296.65</ele>
        <time>2015-05-14T06:49:24Z</time>
      </trkpt>
      <trkpt lat="45.56446" lon="2.80307">
        <ele>1299.48</ele>
        <time>2015-05-14T06:49:52Z</time>
      </trkpt>
      <trkpt lat="45.56434" lon="2.80286">
        <ele>1302.23</ele>
        <time>2015-05-14T06:50:18Z</time>
      </trkpt>
      <trkpt lat="45.56422" lon="2.80267">
        <ele>1303</ele>
        <time>2015-05-14T06:50:38Z</time>
      </trkpt>
      <trkpt lat="45.56409" lon="2.80246">
        <ele>1304.77</ele>
        <time>2015-05-14T06:51:02Z</time>
      </trkpt>
      <trkpt lat="45.56394" lon="2.8023">
        <ele>1305.92</ele>
        <time>2015-05-14T06:51:29Z</time>
      </trkpt>
      <trkpt lat="45.5638" lon="2.80215">
        <ele>1307.54</ele>
        <time>2015-05-14T06:51:46Z</time>
      </trkpt>
      <trkpt lat="45.56364" lon="2.80202">
        <ele>1309.37</ele>
        <time>2015-05-14T06:52:00Z</time>
      </trkpt>
      <trkpt lat="45.56351" lon="2.80183">
        <ele>1311.43</ele>
        <time>2015-05-14T06:52:22Z</time>
      </trkpt>
      <trkpt lat="45.56345" lon="2.80158">
        <ele>1311.92</ele>
        <time>2015-05-14T06:52:42Z</time>
      </trkpt>
      <trkpt lat="45.56328" lon="2.80145">
        <ele>1313.23</ele>
        <time>2015-05-14T06:52:58Z</time>
      </trkpt>
      <trkpt lat="45.56312" lon="2.80132">
        <ele>1315.99</ele>
        <time>2015-05-14T06:53:12Z</time>
      </trkpt>
      <trkpt lat="45.56294" lon="2.80143">
        <ele>1320.47</ele>
        <time>2015-05-14T06:53:32Z</time>
      </trkpt>
      <trkpt lat="45.5628" lon="2.80124">
        <ele>1323.61</ele>
        <time>2015-05-14T06:53:55Z</time>
      </trkpt>
      <trkpt lat="45.56266" lon="2.80107">
        <ele>1323.48</ele>
        <time>2015-05-14T06:54:12Z</time>
      </trkpt>
      <trkpt lat="45.56248" lon="2.80107">
        <ele>1322.87</ele>
        <time>2015-05-14T06:54:26Z</time>
      </trkpt>
      <trkpt lat="45.56231" lon="2.8012">
        <ele>1324.38</ele>
        <time>2015-05-14T06:54:41Z</time>
      </trkpt>
      <trkpt lat="45.56213" lon="2.80114">
        <ele>1327.75</ele>
        <time>2015-05-14T06:54:58Z</time>
      </trkpt>
      <trkpt lat="45.56195" lon="2.80112">
        <ele>1331.02</ele>
        <time>2015-05-14T06:55:25Z</time>
      </trkpt>
      <trkpt lat="45.56178" lon="2.80124">
        <ele>1336.28</ele>
        <time>2015-05-14T06:55:46Z</time>
      </trkpt>
      <trkpt lat="45.56159" lon="2.80122">
        <ele>1334.57</ele>
        <time>2015-05-14T06:56:11Z</time>
      </trkpt>
      <trkpt lat="45.56141" lon="2.80117">
        <ele>1332.44</ele>
        <time>2015-05-14T06:56:36Z</time>
      </trkpt>
      <trkpt lat="45.56123" lon="2.80112">
        <ele>1332.81</ele>
        <time>2015-05-14T06:56:51Z</time>
      </trkpt>
      <trkpt lat="45.56104" lon="2.80113">
        <ele>1333.33</ele>
        <time>2015-05-14T06:57:12Z</time>
      </trkpt>
      <trkpt lat="45.56086" lon="2.80107">
        <ele>1335.59</ele>
        <time>2015-05-14T06:57:31Z</time>
      </trkpt>
      <trkpt lat="45.56069" lon="2.80115">
        <ele>1337.04</ele>
        <time>2015-05-14T06:57:54Z</time>
      </trkpt>
      <trkpt lat="45.56051" lon="2.80107">
        <ele>1337.05</ele>
        <time>2015-05-14T06:58:15Z</time>
      </trkpt>
      <trkpt lat="45.56032" lon="2.80107">
        <ele>1336.51</ele>
        <time>2015-05-14T06:58:35Z</time>
      </trkpt>
      <trkpt lat="45.56013" lon="2.80104">
        <ele>1335.8</ele>
        <time>2015-05-14T06:59:01Z</time>
      </trkpt>
      <trkpt lat="45.55995" lon="2.80111">
        <ele>1333.15</ele>
        <time>2015-05-14T06:59:32Z</time>
      </trkpt>
      <trkpt lat="45.55977" lon="2.80116">
        <ele>1341.39</ele>
        <time>2015-05-14T07:00:28Z</time>
      </trkpt>
      <trkpt lat="45.55961" lon="2.80104">
        <ele>1346.22</ele>
        <time>2015-05-14T07:00:45Z</time>
      </trkpt>
      <trkpt lat="45.55943" lon="2.80101">
        <ele>1356.23</ele>
        <time>2015-05-14T07:01:14Z</time>
      </trkpt>
      <trkpt lat="45.55927" lon="2.80113">
        <ele>1365.04</ele>
        <time>2015-05-14T07:01:41Z</time>
      </trkpt>
      <trkpt lat="45.55908" lon="2.80113">
        <ele>1376.48</ele>
        <time>2015-05-14T07:03:38Z</time>
      </trkpt>
      <trkpt lat="45.55891" lon="2.80124">
        <ele>1382.71</ele>
        <time>2015-05-14T07:06:19Z</time>
      </trkpt>
      <trkpt lat="45.55874" lon="2.80133">
        <ele>1383.3</ele>
        <time>2015-05-14T07:06:41Z</time>
      </trkpt>
      <trkpt lat="45.55856" lon="2.80142">
        <ele>1384.55</ele>
        <time>2015-05-14T07:07:03Z</time>
      </trkpt>
      <trkpt lat="45.55839" lon="2.8015">
        <ele>1388.1</ele>
        <time>2015-05-14T07:07:26Z</time>
      </trkpt>
      <trkpt lat="45.55821" lon="2.80159">
        <ele>1391.52</ele>
        <time>2015-05-14T07:07:49Z</time>
      </trkpt>
      <trkpt lat="45.55805" lon="2.80169">
        <ele>1393.68</ele>
        <time>2015-05-14T07:08:15Z</time>
      </trkpt>
      <trkpt lat="45.55788" lon="2.8018">
        <ele>1394.89</ele>
        <time>2015-05-14T07:08:35Z</time>
      </trkpt>
      <trkpt lat="45.55772" lon="2.80193">
        <ele>1396.84</ele>
        <time>2015-05-14T07:08:56Z</time>
      </trkpt>
      <trkpt lat="45.55754" lon="2.80199">
        <ele>1399.61</ele>
        <time>2015-05-14T07:09:16Z</time>
      </trkpt>
      <trkpt lat="45.55736" lon="2.80203">
        <ele>1401.9</ele>
        <time>2015-05-14T07:09:37Z</time>
      </trkpt>
      <trkpt lat="45.55718" lon="2.8021">
        <ele>1404.22</ele>
        <time>2015-05-14T07:10:02Z</time>
      </trkpt>
      <trkpt lat="45.55701" lon="2.80221">
        <ele>1405.66</ele>
        <time>2015-05-14T07:10:21Z</time>
      </trkpt>
      <trkpt lat="45.55684" lon="2.80232">
        <ele>1407.96</ele>
        <time>2015-05-14T07:10:43Z</time>
      </trkpt>
      <trkpt lat="45.55666" lon="2.80238">
        <ele>1410.18</ele>
        <time>2015-05-14T07:11:06Z</time>
      </trkpt>
      <trkpt lat="45.55648" lon="2.80243">
        <ele>1412.91</ele>
        <time>2015-05-14T07:11:27Z</time>
      </trkpt>
      <trkpt lat="45.5563" lon="2.80238">
        <ele>1415.29</ele>
        <time>2015-05-14T07:11:46Z</time>
      </trkpt>
      <trkpt lat="45.55611" lon="2.80237">
        <ele>1418.58</ele>
        <time>2015-05-14T07:12:07Z</time>
      </trkpt>
      <trkpt lat="45.55593" lon="2.80235">
        <ele>1422.67</ele>
        <time>2015-05-14T07:12:32Z</time>
      </trkpt>
      <trkpt lat="45.55575" lon="2.80228">
        <ele>1425.89</ele>
        <time>2015-05-14T07:12:55Z</time>
      </trkpt>
      <trkpt lat="45.55558" lon="2.80219">
        <ele>1426.89</ele>
        <time>2015-05-14T07:13:15Z</time>
      </trkpt>
      <trkpt lat="45.55541" lon="2.80208">
        <ele>1430.36</ele>
        <time>2015-05-14T07:13:39Z</time>
      </trkpt>
      <trkpt lat="45.55526" lon="2.80194">
        <ele>1432.9</ele>
        <time>2015-05-14T07:13:58Z</time>
      </trkpt>
      <trkpt lat="45.55509" lon="2.80184">
        <ele>1434.35</ele>
        <time>2015-05-14T07:14:17Z</time>
      </trkpt>
      <trkpt lat="45.55493" lon="2.80171">
        <ele>1436.41</ele>
        <time>2015-05-14T07:14:37Z</time>
      </trkpt>
      <trkpt lat="45.55478" lon="2.80156">
        <ele>1437.49</ele>
        <time>2015-05-14T07:15:06Z</time>
      </trkpt>
      <trkpt lat="45.5546" lon="2.80147">
        <ele>1440.27</ele>
        <time>2015-05-14T07:15:31Z</time>
      </trkpt>
      <trkpt lat="45.55442" lon="2.80143">
        <ele>1441.98</ele>
        <time>2015-05-14T07:15:58Z</time>
      </trkpt>
      <trkpt lat="45.55424" lon="2.80138">
        <ele>1444.64</ele>
        <time>2015-05-14T07:16:22Z</time>
      </trkpt>
      <trkpt lat="45.55408" lon="2.80127">
        <ele>1448.3</ele>
        <time>2015-05-14T07:16:58Z</time>
      </trkpt>
      <trkpt lat="45.55392" lon="2.80114">
        <ele>1449.54</ele>
        <time>2015-05-14T07:17:29Z</time>
      </trkpt>
      <trkpt lat="45.55376" lon="2.80101">
        <ele>1453.48</ele>
        <time>2015-05-14T07:18:04Z</time>
      </trkpt>
      <trkpt lat="45.55364" lon="2.80081">
        <ele>1455.89</ele>
        <time>2015-05-14T07:18:38Z</time>
      </trkpt>
      <trkpt lat="45.55355" lon="2.80059">
        <ele>1458.91</ele>
        <time>2015-05-14T07:18:57Z</time>
      </trkpt>
      <trkpt lat="45.55343" lon="2.80038">
        <ele>1460.61</ele>
        <time>2015-05-14T07:19:17Z</time>
      </trkpt>
      <trkpt lat="45.55333" lon="2.80015">
        <ele>1462.13</ele>
        <time>2015-05-14T07:19:34Z</time>
      </trkpt>
      <trkpt lat="45.55326" lon="2.79992">
        <ele>1463.08</ele>
        <time>2015-05-14T07:19:57Z</time>
      </trkpt>
      <trkpt lat="45.55312" lon="2.79975">
        <ele>1463.43</ele>
        <time>2015-05-14T07:20:23Z</time>
      </trkpt>
      <trkpt lat="45.55297" lon="2.79959">
        <ele>1464.52</ele>
        <time>2015-05-14T07:20:55Z</time>
      </trkpt>
      <trkpt lat="45.55281" lon="2.79947">
        <ele>1466.56</ele>
        <time>2015-05-14T07:21:22Z</time>
      </trkpt>
      <trkpt lat="45.55265" lon="2.79958">
        <ele>1470.6</ele>
        <time>2015-05-14T07:21:46Z</time>
      </trkpt>
      <trkpt lat="45.55247" lon="2.79965">
        <ele>1474.6</ele>
        <time>2015-05-14T07:22:14Z</time>
      </trkpt>
      <trkpt lat="45.55236" lon="2.79986">
        <ele>1475.81</ele>
        <time>2015-05-14T07:22:42Z</time>
      </trkpt>
      <trkpt lat="45.55222" lon="2.80003">
        <ele>1481.11</ele>
        <time>2015-05-14T07:23:18Z</time>
      </trkpt>
      <trkpt lat="45.55204" lon="2.80008">
        <ele>1484.56</ele>
        <time>2015-05-14T07:23:40Z</time>
      </trkpt>
      <trkpt lat="45.55187" lon="2.80019">
        <ele>1487.88</ele>
        <time>2015-05-14T07:24:08Z</time>
      </trkpt>
      <trkpt lat="45.55175" lon="2.80039">
        <ele>1494.64</ele>
        <time>2015-05-14T07:25:11Z</time>
      </trkpt>
      <trkpt lat="45.55168" lon="2.80016">
        <ele>1496.51</ele>
        <time>2015-05-14T07:25:55Z</time>
      </trkpt>
      <trkpt lat="45.5515" lon="2.8001">
        <ele>1500.42</ele>
        <time>2015-05-14T07:26:34Z</time>
      </trkpt>
      <trkpt lat="45.55131" lon="2.8001">
        <ele>1502.88</ele>
        <time>2015-05-14T07:26:58Z</time>
      </trkpt>
      <trkpt lat="45.55113" lon="2.80015">
        <ele>1505.34</ele>
        <time>2015-05-14T07:27:19Z</time>
      </trkpt>
      <trkpt lat="45.55097" lon="2.80003">
        <ele>1507.22</ele>
        <time>2015-05-14T07:27:39Z</time>
      </trkpt>
      <trkpt lat="45.5508" lon="2.79991">
        <ele>1509.3</ele>
        <time>2015-05-14T07:27:57Z</time>
      </trkpt>
      <trkpt lat="45.55062" lon="2.79986">
        <ele>1510.87</ele>
        <time>2015-05-14T07:28:24Z</time>
      </trkpt>
      <trkpt lat="45.55047" lon="2.79999">
        <ele>1513.85</ele>
        <time>2015-05-14T07:29:07Z</time>
      </trkpt>
      <trkpt lat="45.55035" lon="2.80021">
        <ele>1516.82</ele>
        <time>2015-05-14T07:29:33Z</time>
      </trkpt>
      <trkpt lat="45.55024" lon="2.80041">
        <ele>1520.22</ele>
        <time>2015-05-14T07:29:57Z</time>
      </trkpt>
      <trkpt lat="45.55006" lon="2.80042">
        <ele>1521.77</ele>
        <time>2015-05-14T07:30:11Z</time>
      </trkpt>
      <trkpt lat="45.54989" lon="2.80031">
        <ele>1523.28</ele>
        <time>2015-05-14T07:30:32Z</time>
      </trkpt>
      <trkpt lat="45.54975" lon="2.80014">
        <ele>1524.82</ele>
        <time>2015-05-14T07:30:56Z</time>
      </trkpt>
      <trkpt lat="45.54961" lon="2.79999">
        <ele>1526.91</ele>
        <time>2015-05-14T07:31:14Z</time>
      </trkpt>
      <trkpt lat="45.54949" lon="2.79978">
        <ele>1527.89</ele>
        <time>2015-05-14T07:31:33Z</time>
      </trkpt>
      <trkpt lat="45.54935" lon="2.79959">
        <ele>1530.67</ele>
        <time>2015-05-14T07:31:53Z</time>
      </trkpt>
      <trkpt lat="45.54924" lon="2.79938">
        <ele>1531.88</ele>
        <time>2015-05-14T07:32:09Z</time>
      </trkpt>
      <trkpt lat="45.54908" lon="2.79926">
        <ele>1532.87</ele>
        <time>2015-05-14T07:32:24Z</time>
      </trkpt>
      <trkpt lat="45.54892" lon="2.79914">
        <ele>1533.63</ele>
        <time>2015-05-14T07:32:43Z</time>
      </trkpt>
      <trkpt lat="45.54874" lon="2.79919">
        <ele>1534.46</ele>
        <time>2015-05-14T07:33:08Z</time>
      </trkpt>
      <trkpt lat="45.54858" lon="2.79931">
        <ele>1537.22</ele>
        <time>2015-05-14T07:33:42Z</time>
      </trkpt>
      <trkpt lat="45.54847" lon="2.79953">
        <ele>1542.24</ele>
        <time>2015-05-14T07:34:14Z</time>
      </trkpt>
      <trkpt lat="45.54834" lon="2.79971">
        <ele>1546.33</ele>
        <time>2015-05-14T07:34:42Z</time>
      </trkpt>
      <trkpt lat="45.5482" lon="2.79988">
        <ele>1551.03</ele>
        <time>2015-05-14T07:35:13Z</time>
      </trkpt>
      <trkpt lat="45.54804" lon="2.80003">
        <ele>1554.16</ele>
        <time>2015-05-14T07:35:35Z</time>
      </trkpt>
      <trkpt lat="45.54792" lon="2.79984">
        <ele>1559.07</ele>
        <time>2015-05-14T07:36:10Z</time>
      </trkpt>
      <trkpt lat="45.5478" lon="2.79964">
        <ele>1563.63</ele>
        <time>2015-05-14T07:36:38Z</time>
      </trkpt>
      <trkpt lat="45.54766" lon="2.79948">
        <ele>1566.84</ele>
        <time>2015-05-14T07:36:59Z</time>
      </trkpt>
      <trkpt lat="45.54752" lon="2.79931">
        <ele>1569.42</ele>
        <time>2015-05-14T07:37:19Z</time>
      </trkpt>
      <trkpt lat="45.54741" lon="2.79909">
        <ele>1574.9</ele>
        <time>2015-05-14T07:37:44Z</time>
      </trkpt>
      <trkpt lat="45.54729" lon="2.79928">
        <ele>1579.97</ele>
        <time>2015-05-14T07:38:11Z</time>
      </trkpt>
      <trkpt lat="45.54721" lon="2.79953">
        <ele>1584.89</ele>
        <time>2015-05-14T07:38:36Z</time>
      </trkpt>
      <trkpt lat="45.54715" lon="2.79978">
        <ele>1589.38</ele>
        <time>2015-05-14T07:39:01Z</time>
      </trkpt>
      <trkpt lat="45.54705" lon="2.8">
        <ele>1592.53</ele>
        <time>2015-05-14T07:39:24Z</time>
      </trkpt>
      <trkpt lat="45.54691" lon="2.80017">
        <ele>1596.57</ele>
        <time>2015-05-14T07:39:51Z</time>
      </trkpt>
      <trkpt lat="45.54683" lon="2.79993">
        <ele>1602.17</ele>
        <time>2015-05-14T07:40:22Z</time>
      </trkpt>
      <trkpt lat="45.54673" lon="2.79972">
        <ele>1606.4</ele>
        <time>2015-05-14T07:40:45Z</time>
      </trkpt>
      <trkpt lat="45.54665" lon="2.79948">
        <ele>1611.31</ele>
        <time>2015-05-14T07:41:13Z</time>
      </trkpt>
      <trkpt lat="45.54647" lon="2.79949">
        <ele>1617.38</ele>
        <time>2015-05-14T07:41:47Z</time>
      </trkpt>
      <trkpt lat="45.54638" lon="2.79971">
        <ele>1619.21</ele>
        <time>2015-05-14T07:42:10Z</time>
      </trkpt>
      <trkpt lat="45.54628" lon="2.79993">
        <ele>1622.72</ele>
        <time>2015-05-14T07:42:33Z</time>
      </trkpt>
      <trkpt lat="45.54622" lon="2.80018">
        <ele>1627.25</ele>
        <time>2015-05-14T07:43:03Z</time>
      </trkpt>
      <trkpt lat="45.54621" lon="2.80044">
        <ele>1633.14</ele>
        <time>2015-05-14T07:43:48Z</time>
      </trkpt>
      <trkpt lat="45.54602" lon="2.80047">
        <ele>1639.69</ele>
        <time>2015-05-14T07:44:27Z</time>
      </trkpt>
      <trkpt lat="45.54585" lon="2.80054">
        <ele>1644.63</ele>
        <time>2015-05-14T07:44:58Z</time>
      </trkpt>
      <trkpt lat="45.54573" lon="2.80074">
        <ele>1645.9</ele>
        <time>2015-05-14T07:45:19Z</time>
      </trkpt>
      <trkpt lat="45.54562" lon="2.80095">
        <ele>1648.96</ele>
        <time>2015-05-14T07:45:41Z</time>
      </trkpt>
      <trkpt lat="45.54549" lon="2.80113">
        <ele>1653.98</ele>
        <time>2015-05-14T07:47:06Z</time>
      </trkpt>
      <trkpt lat="45.54533" lon="2.80128">
        <ele>1656.42</ele>
        <time>2015-05-14T07:47:27Z</time>
      </trkpt>
      <trkpt lat="45.54517" lon="2.80141">
        <ele>1658.39</ele>
        <time>2015-05-14T07:47:51Z</time>
      </trkpt>
      <trkpt lat="45.54503" lon="2.80158">
        <ele>1661.11</ele>
        <time>2015-05-14T07:48:16Z</time>
      </trkpt>
      <trkpt lat="45.54485" lon="2.80161">
        <ele>1665.22</ele>
        <time>2015-05-14T07:48:47Z</time>
      </trkpt>
      <trkpt lat="45.54466" lon="2.80159">
        <ele>1668.94</ele>
        <time>2015-05-14T07:49:40Z</time>
      </trkpt>
      <trkpt lat="45.54448" lon="2.80153">
        <ele>1670.46</ele>
        <time>2015-05-14T07:50:09Z</time>
      </trkpt>
      <trkpt lat="45.54433" lon="2.80136">
        <ele>1670.71</ele>
        <time>2015-05-14T07:50:32Z</time>
      </trkpt>
      <trkpt lat="45.54419" lon="2.80152">
        <ele>1672.1</ele>
        <time>2015-05-14T07:51:30Z</time>
      </trkpt>
      <trkpt lat="45.54402" lon="2.80163">
        <ele>1676.9</ele>
        <time>2015-05-14T07:52:00Z</time>
      </trkpt>
      <trkpt lat="45.54384" lon="2.8017">
        <ele>1679.14</ele>
        <time>2015-05-14T07:52:24Z</time>
      </trkpt>
      <trkpt lat="45.54366" lon="2.80172">
        <ele>1680.07</ele>
        <time>2015-05-14T07:52:45Z</time>
      </trkpt>
      <trkpt lat="45.54347" lon="2.80176">
        <ele>1680.64</ele>
        <time>2015-05-14T07:53:01Z</time>
      </trkpt>
      <trkpt lat="45.54329" lon="2.80179">
        <ele>1682.02</ele>
        <time>2015-05-14T07:53:17Z</time>
      </trkpt>
      <trkpt lat="45.54311" lon="2.80187">
        <ele>1683.73</ele>
        <time>2015-05-14T07:53:38Z</time>
      </trkpt>
      <trkpt lat="45.54293" lon="2.80185">
        <ele>1689.07</ele>
        <time>2015-05-14T07:55:17Z</time>
      </trkpt>
      <trkpt lat="45.54274" lon="2.80183">
        <ele>1688.98</ele>
        <time>2015-05-14T07:55:33Z</time>
      </trkpt>
      <trkpt lat="45.54258" lon="2.80171">
        <ele>1688.89</ele>
        <time>2015-05-14T07:55:49Z</time>
      </trkpt>
      <trkpt lat="45.54241" lon="2.80161">
        <ele>1685.64</ele>
        <time>2015-05-14T07:56:10Z</time>
      </trkpt>
      <trkpt lat="45.54223" lon="2.80155">
        <ele>1684.11</ele>
        <time>2015-05-14T07:56:32Z</time>
      </trkpt>
      <trkpt lat="45.54205" lon="2.80145">
        <ele>1682.39</ele>
        <time>2015-05-14T07:56:47Z</time>
      </trkpt>
      <trkpt lat="45.54187" lon="2.80138">
        <ele>1680.88</ele>
        <time>2015-05-14T07:57:04Z</time>
      </trkpt>
      <trkpt lat="45.54169" lon="2.80128">
        <ele>1678.16</ele>
        <time>2015-05-14T07:57:22Z</time>
      </trkpt>
      <trkpt lat="45.54152" lon="2.80118">
        <ele>1674.57</ele>
        <time>2015-05-14T07:57:46Z</time>
      </trkpt>
      <trkpt lat="45.54136" lon="2.80106">
        <ele>1670.91</ele>
        <time>2015-05-14T07:58:13Z</time>
      </trkpt>
      <trkpt lat="45.54119" lon="2.80097">
        <ele>1667.76</ele>
        <time>2015-05-14T07:58:29Z</time>
      </trkpt>
      <trkpt lat="45.541" lon="2.80098">
        <ele>1663.78</ele>
        <time>2015-05-14T07:58:48Z</time>
      </trkpt>
      <trkpt lat="45.54083" lon="2.80104">
        <ele>1661.42</ele>
        <time>2015-05-14T07:59:01Z</time>
      </trkpt>
      <trkpt lat="45.54067" lon="2.80117">
        <ele>1658.42</ele>
        <time>2015-05-14T07:59:17Z</time>
      </trkpt>
      <trkpt lat="45.5405" lon="2.80129">
        <ele>1656.43</ele>
        <time>2015-05-14T07:59:32Z</time>
      </trkpt>
      <trkpt lat="45.54031" lon="2.80133">
        <ele>1655.64</ele>
        <time>2015-05-14T07:59:45Z</time>
      </trkpt>
      <trkpt lat="45.54013" lon="2.80135">
        <ele>1655.02</ele>
        <time>2015-05-14T08:00:00Z</time>
      </trkpt>
      <trkpt lat="45.53995" lon="2.80135">
        <ele>1653.46</ele>
        <time>2015-05-14T08:00:19Z</time>
      </trkpt>
      <trkpt lat="45.53976" lon="2.80135">
        <ele>1652.89</ele>
        <time>2015-05-14T08:00:36Z</time>
      </trkpt>
      <trkpt lat="45.53958" lon="2.80131">
        <ele>1653.79</ele>
        <time>2015-05-14T08:00:57Z</time>
      </trkpt>
      <trkpt lat="45.5394" lon="2.80129">
        <ele>1656.38</ele>
        <time>2015-05-14T08:01:18Z</time>
      </trkpt>
      <trkpt lat="45.53923" lon="2.80117">
        <ele>1659.68</ele>
        <time>2015-05-14T08:01:41Z</time>
      </trkpt>
      <trkpt lat="45.53904" lon="2.80113">
        <ele>1661.36</ele>
        <time>2015-05-14T08:02:00Z</time>
      </trkpt>
      <trkpt lat="45.53885" lon="2.80112">
        <ele>1662.2</ele>
        <time>2015-05-14T08:02:22Z</time>
      </trkpt>
      <trkpt lat="45.53868" lon="2.80103">
        <ele>1662.79</ele>
        <time>2015-05-14T08:02:41Z</time>
      </trkpt>
      <trkpt lat="45.53849" lon="2.801">
        <ele>1664.19</ele>
        <time>2015-05-14T08:02:58Z</time>
      </trkpt>
      <trkpt lat="45.53831" lon="2.80099">
        <ele>1664.88</ele>
        <time>2015-05-14T08:03:17Z</time>
      </trkpt>
      <trkpt lat="45.53812" lon="2.80099">
        <ele>1665.58</ele>
        <time>2015-05-14T08:03:37Z</time>
      </trkpt>
      <trkpt lat="45.53794" lon="2.80096">
        <ele>1666.75</ele>
        <time>2015-05-14T08:03:57Z</time>
      </trkpt>
      <trkpt lat="45.53775" lon="2.80092">
        <ele>1669.14</ele>
        <time>2015-05-14T08:04:16Z</time>
      </trkpt>
      <trkpt lat="45.53757" lon="2.80087">
        <ele>1672.14</ele>
        <time>2015-05-14T08:04:38Z</time>
      </trkpt>
      <trkpt lat="45.53738" lon="2.80087">
        <ele>1674.81</ele>
        <time>2015-05-14T08:05:02Z</time>
      </trkpt>
      <trkpt lat="45.53723" lon="2.80071">
        <ele>1675.86</ele>
        <time>2015-05-14T08:05:22Z</time>
      </trkpt>
      <trkpt lat="45.53707" lon="2.8006">
        <ele>1676.35</ele>
        <time>2015-05-14T08:05:41Z</time>
      </trkpt>
      <trkpt lat="45.53689" lon="2.80052">
        <ele>1677.46</ele>
        <time>2015-05-14T08:06:00Z</time>
      </trkpt>
      <trkpt lat="45.53672" lon="2.8004">
        <ele>1679.26</ele>
        <time>2015-05-14T08:06:14Z</time>
      </trkpt>
      <trkpt lat="45.53655" lon="2.80034">
        <ele>1680.75</ele>
        <time>2015-05-14T08:06:27Z</time>
      </trkpt>
      <trkpt lat="45.53636" lon="2.80026">
        <ele>1682.01</ele>
        <time>2015-05-14T08:06:46Z</time>
      </trkpt>
      <trkpt lat="45.53618" lon="2.8002">
        <ele>1683.7</ele>
        <time>2015-05-14T08:07:05Z</time>
      </trkpt>
      <trkpt lat="45.536" lon="2.80013">
        <ele>1684.53</ele>
        <time>2015-05-14T08:07:19Z</time>
      </trkpt>
      <trkpt lat="45.53583" lon="2.80006">
        <ele>1684.36</ele>
        <time>2015-05-14T08:07:36Z</time>
      </trkpt>
      <trkpt lat="45.53564" lon="2.79999">
        <ele>1684.52</ele>
        <time>2015-05-14T08:08:08Z</time>
      </trkpt>
      <trkpt lat="45.53547" lon="2.79993">
        <ele>1683.16</ele>
        <time>2015-05-14T08:08:20Z</time>
      </trkpt>
      <trkpt lat="45.5353" lon="2.79981">
        <ele>1683.06</ele>
        <time>2015-05-14T08:08:36Z</time>
      </trkpt>
      <trkpt lat="45.53514" lon="2.79968">
        <ele>1685.46</ele>
        <time>2015-05-14T08:09:03Z</time>
      </trkpt>
      <trkpt lat="45.53495" lon="2.79976">
        <ele>1686.55</ele>
        <time>2015-05-14T08:09:18Z</time>
      </trkpt>
      <trkpt lat="45.53476" lon="2.79981">
        <ele>1686.92</ele>
        <time>2015-05-14T08:09:31Z</time>
      </trkpt>
      <trkpt lat="45.5346" lon="2.7997">
        <ele>1686.54</ele>
        <time>2015-05-14T08:09:56Z</time>
      </trkpt>
      <trkpt lat="45.53443" lon="2.7996">
        <ele>1686.65</ele>
        <time>2015-05-14T08:10:18Z</time>
      </trkpt>
      <trkpt lat="45.53426" lon="2.79954">
        <ele>1689.65</ele>
        <time>2015-05-14T08:10:50Z</time>
      </trkpt>
      <trkpt lat="45.53408" lon="2.79953">
        <ele>1694.89</ele>
        <time>2015-05-14T08:11:42Z</time>
      </trkpt>
      <trkpt lat="45.53391" lon="2.79963">
        <ele>1699.9</ele>
        <time>2015-05-14T08:12:24Z</time>
      </trkpt>
      <trkpt lat="45.53373" lon="2.79969">
        <ele>1703.42</ele>
        <time>2015-05-14T08:13:00Z</time>
      </trkpt>
      <trkpt lat="45.53355" lon="2.79977">
        <ele>1706.76</ele>
        <time>2015-05-14T08:13:21Z</time>
      </trkpt>
      <trkpt lat="45.53337" lon="2.79981">
        <ele>1718.45</ele>
        <time>2015-05-14T08:14:15Z</time>
      </trkpt>
      <trkpt lat="45.53319" lon="2.79989">
        <ele>1728.1</ele>
        <time>2015-05-14T08:15:12Z</time>
      </trkpt>
      <trkpt lat="45.53313" lon="2.80014">
        <ele>1732.35</ele>
        <time>2015-05-14T08:16:36Z</time>
      </trkpt>
      <trkpt lat="45.53304" lon="2.80037">
        <ele>1732.86</ele>
        <time>2015-05-14T08:16:49Z</time>
      </trkpt>
      <trkpt lat="45.53298" lon="2.80062">
        <ele>1731.72</ele>
        <time>2015-05-14T08:17:05Z</time>
      </trkpt>
      <trkpt lat="45.53292" lon="2.80086">
        <ele>1728.6</ele>
        <time>2015-05-14T08:17:23Z</time>
      </trkpt>
      <trkpt lat="45.53287" lon="2.80111">
        <ele>1724.74</ele>
        <time>2015-05-14T08:17:53Z</time>
      </trkpt>
      <trkpt lat="45.53282" lon="2.80136">
        <ele>1720.85</ele>
        <time>2015-05-14T08:18:13Z</time>
      </trkpt>
      <trkpt lat="45.53279" lon="2.80162">
        <ele>1719.6</ele>
        <time>2015-05-14T08:18:35Z</time>
      </trkpt>
      <trkpt lat="45.53271" lon="2.80185">
        <ele>1719.41</ele>
        <time>2015-05-14T08:18:54Z</time>
      </trkpt>
      <trkpt lat="45.53261" lon="2.80208">
        <ele>1718.94</ele>
        <time>2015-05-14T08:19:04Z</time>
      </trkpt>
      <trkpt lat="45.53253" lon="2.80231">
        <ele>1716.66</ele>
        <time>2015-05-14T08:19:19Z</time>
      </trkpt>
      <trkpt lat="45.53241" lon="2.80251">
        <ele>1713.52</ele>
        <time>2015-05-14T08:19:52Z</time>
      </trkpt>
      <trkpt lat="45.53234" lon="2.80275">
        <ele>1712.75</ele>
        <time>2015-05-14T08:20:06Z</time>
      </trkpt>
      <trkpt lat="45.53223" lon="2.80299">
        <ele>1712.61</ele>
        <time>2015-05-14T08:20:25Z</time>
      </trkpt>
      <trkpt lat="45.53213" lon="2.80322">
        <ele>1711.72</ele>
        <time>2015-05-14T08:20:38Z</time>
      </trkpt>
      <trkpt lat="45.53208" lon="2.80348">
        <ele>1711.56</ele>
        <time>2015-05-14T08:20:54Z</time>
      </trkpt>
      <trkpt lat="45.53202" lon="2.80372">
        <ele>1710.68</ele>
        <time>2015-05-14T08:21:07Z</time>
      </trkpt>
      <trkpt lat="45.53191" lon="2.80394">
        <ele>1709.29</ele>
        <time>2015-05-14T08:21:23Z</time>
      </trkpt>
      <trkpt lat="45.53189" lon="2.80419">
        <ele>1706.96</ele>
        <time>2015-05-14T08:22:00Z</time>
      </trkpt>
      <trkpt lat="45.53183" lon="2.80444">
        <ele>1705.49</ele>
        <time>2015-05-14T08:22:24Z</time>
      </trkpt>
      <trkpt lat="45.53175" lon="2.80469">
        <ele>1705.14</ele>
        <time>2015-05-14T08:22:40Z</time>
      </trkpt>
      <trkpt lat="45.53169" lon="2.80494">
        <ele>1706.65</ele>
        <time>2015-05-14T08:22:57Z</time>
      </trkpt>
      <trkpt lat="45.5316" lon="2.80516">
        <ele>1707.83</ele>
        <time>2015-05-14T08:23:14Z</time>
      </trkpt>
      <trkpt lat="45.53156" lon="2.80543">
        <ele>1707.43</ele>
        <time>2015-05-14T08:23:28Z</time>
      </trkpt>
      <trkpt lat="45.53154" lon="2.80569">
        <ele>1708.15</ele>
        <time>2015-05-14T08:23:44Z</time>
      </trkpt>
      <trkpt lat="45.53152" lon="2.80595">
        <ele>1708.59</ele>
        <time>2015-05-14T08:24:07Z</time>
      </trkpt>
      <trkpt lat="45.53151" lon="2.80621">
        <ele>1710.02</ele>
        <time>2015-05-14T08:24:31Z</time>
      </trkpt>
      <trkpt lat="45.53151" lon="2.80647">
        <ele>1711.84</ele>
        <time>2015-05-14T08:24:54Z</time>
      </trkpt>
      <trkpt lat="45.53149" lon="2.80673">
        <ele>1713.82</ele>
        <time>2015-05-14T08:25:18Z</time>
      </trkpt>
      <trkpt lat="45.5315" lon="2.807">
        <ele>1719.48</ele>
        <time>2015-05-14T08:25:53Z</time>
      </trkpt>
      <trkpt lat="45.53143" lon="2.80724">
        <ele>1725.79</ele>
        <time>2015-05-14T08:26:39Z</time>
      </trkpt>
      <trkpt lat="45.53137" lon="2.80748">
        <ele>1732.51</ele>
        <time>2015-05-14T08:27:37Z</time>
      </trkpt>
      <trkpt lat="45.53119" lon="2.80754">
        <ele>1740.08</ele>
        <time>2015-05-14T08:28:23Z</time>
      </trkpt>
      <trkpt lat="45.53102" lon="2.8076">
        <ele>1747.61</ele>
        <time>2015-05-14T08:29:22Z</time>
      </trkpt>
      <trkpt lat="45.53099" lon="2.80786">
        <ele>1756.35</ele>
        <time>2015-05-14T08:30:18Z</time>
      </trkpt>
      <trkpt lat="45.53093" lon="2.80811">
        <ele>1759.61</ele>
        <time>2015-05-14T08:30:43Z</time>
      </trkpt>
      <trkpt lat="45.5309" lon="2.80837">
        <ele>1761</ele>
        <time>2015-05-14T08:31:14Z</time>
      </trkpt>
      <trkpt lat="45.53088" lon="2.80862">
        <ele>1762.97</ele>
        <time>2015-05-14T08:32:11Z</time>
      </trkpt>
      <trkpt lat="45.53078" lon="2.80884">
        <ele>1768.64</ele>
        <time>2015-05-14T08:32:44Z</time>
      </trkpt>
      <trkpt lat="45.53066" lon="2.80905">
        <ele>1774.76</ele>
        <time>2015-05-14T08:33:20Z</time>
      </trkpt>
      <trkpt lat="45.53055" lon="2.80926">
        <ele>1778.1</ele>
        <time>2015-05-14T08:33:50Z</time>
      </trkpt>
      <trkpt lat="45.53051" lon="2.80951">
        <ele>1785.02</ele>
        <time>2015-05-14T08:34:25Z</time>
      </trkpt>
      <trkpt lat="45.53036" lon="2.80967">
        <ele>1788.77</ele>
        <time>2015-05-14T08:35:00Z</time>
      </trkpt>
      <trkpt lat="45.53023" lon="2.80984">
        <ele>1791.87</ele>
        <time>2015-05-14T08:35:28Z</time>
      </trkpt>
      <trkpt lat="45.53028" lon="2.8101">
        <ele>1795.45</ele>
        <time>2015-05-14T08:35:51Z</time>
      </trkpt>
      <trkpt lat="45.53037" lon="2.81032">
        <ele>1795.72</ele>
        <time>2015-05-14T08:36:18Z</time>
      </trkpt>
      <trkpt lat="45.53044" lon="2.81056">
        <ele>1796.4</ele>
        <time>2015-05-14T08:36:43Z</time>
      </trkpt>
      <trkpt lat="45.53047" lon="2.81082">
        <ele>1798.62</ele>
        <time>2015-05-14T08:36:59Z</time>
      </trkpt>
      <trkpt lat="45.53041" lon="2.81106">
        <ele>1801.53</ele>
        <time>2015-05-14T08:37:15Z</time>
      </trkpt>
      <trkpt lat="45.53038" lon="2.81132">
        <ele>1804.22</ele>
        <time>2015-05-14T08:37:34Z</time>
      </trkpt>
      <trkpt lat="45.53028" lon="2.81153">
        <ele>1807.48</ele>
        <time>2015-05-14T08:38:05Z</time>
      </trkpt>
      <trkpt lat="45.53011" lon="2.81162">
        <ele>1809.23</ele>
        <time>2015-05-14T08:38:21Z</time>
      </trkpt>
      <trkpt lat="45.52995" lon="2.81176">
        <ele>1812.23</ele>
        <time>2015-05-14T08:41:16Z</time>
      </trkpt>
      <trkpt lat="45.52983" lon="2.81195">
        <ele>1811.95</ele>
        <time>2015-05-14T08:41:28Z</time>
      </trkpt>
      <trkpt lat="45.52967" lon="2.81211">
        <ele>1811.72</ele>
        <time>2015-05-14T08:41:43Z</time>
      </trkpt>
      <trkpt lat="45.52955" lon="2.8123">
        <ele>1811.13</ele>
        <time>2015-05-14T08:42:00Z</time>
      </trkpt>
      <trkpt lat="45.52941" lon="2.81249">
        <ele>1812.14</ele>
        <time>2015-05-14T08:42:20Z</time>
      </trkpt>
      <trkpt lat="45.52931" lon="2.81271">
        <ele>1814.98</ele>
        <time>2015-05-14T08:42:49Z</time>
      </trkpt>
      <trkpt lat="45.5292" lon="2.81292">
        <ele>1819.68</ele>
        <time>2015-05-14T08:43:23Z</time>
      </trkpt>
      <trkpt lat="45.52902" lon="2.813">
        <ele>1823.96</ele>
        <time>2015-05-14T08:44:23Z</time>
      </trkpt>
      <trkpt lat="45.52887" lon="2.81315">
        <ele>1830.94</ele>
        <time>2015-05-14T08:44:57Z</time>
      </trkpt>
      <trkpt lat="45.52873" lon="2.81331">
        <ele>1835.91</ele>
        <time>2015-05-14T08:45:24Z</time>
      </trkpt>
      <trkpt lat="45.52859" lon="2.81348">
        <ele>1846.16</ele>
        <time>2015-05-14T08:46:11Z</time>
      </trkpt>
      <trkpt lat="45.52847" lon="2.81366">
        <ele>1853.44</ele>
        <time>2015-05-14T08:46:55Z</time>
      </trkpt>
      <trkpt lat="45.52831" lon="2.81379">
        <ele>1856.46</ele>
        <time>2015-05-14T08:48:12Z</time>
      </trkpt>
      <trkpt lat="45.5282" lon="2.814">
        <ele>1868.96</ele>
        <time>2015-05-14T08:50:18Z</time>
      </trkpt>
      <trkpt lat="45.52803" lon="2.81411">
        <ele>1877.14</ele>
        <time>2015-05-14T09:00:02Z</time>
      </trkpt>
      <trkpt lat="45.52799" lon="2.81437">
        <ele>1873.83</ele>
        <time>2015-05-14T09:00:31Z</time>
      </trkpt>
      <trkpt lat="45.52794" lon="2.81462">
        <ele>1864.79</ele>
        <time>2015-05-14T09:01:21Z</time>
      </trkpt>
      <trkpt lat="45.52776" lon="2.8146">
        <ele>1857.67</ele>
        <time>2015-05-14T09:01:46Z</time>
      </trkpt>
      <trkpt lat="45.52775" lon="2.81487">
        <ele>1850.03</ele>
        <time>2015-05-14T09:02:12Z</time>
      </trkpt>
      <trkpt lat="45.52756" lon="2.81492">
        <ele>1839.49</ele>
        <time>2015-05-14T09:03:04Z</time>
      </trkpt>
      <trkpt lat="45.52754" lon="2.81517">
        <ele>1833.27</ele>
        <time>2015-05-14T09:03:57Z</time>
      </trkpt>
      <trkpt lat="45.52763" lon="2.81541">
        <ele>1826.2</ele>
        <time>2015-05-14T09:04:27Z</time>
      </trkpt>
      <trkpt lat="45.5277" lon="2.81564">
        <ele>1822.81</ele>
        <time>2015-05-14T09:04:43Z</time>
      </trkpt>
      <trkpt lat="45.52775" lon="2.81589">
        <ele>1813.93</ele>
        <time>2015-05-14T09:05:40Z</time>
      </trkpt>
      <trkpt lat="45.52764" lon="2.8161">
        <ele>1807.96</ele>
        <time>2015-05-14T09:06:13Z</time>
      </trkpt>
      <trkpt lat="45.52749" lon="2.81625">
        <ele>1803.98</ele>
        <time>2015-05-14T09:06:36Z</time>
      </trkpt>
      <trkpt lat="45.52744" lon="2.81651">
        <ele>1800.73</ele>
        <time>2015-05-14T09:06:51Z</time>
      </trkpt>
      <trkpt lat="45.52743" lon="2.81678">
        <ele>1797.17</ele>
        <time>2015-05-14T09:07:07Z</time>
      </trkpt>
      <trkpt lat="45.52742" lon="2.81705">
        <ele>1794.75</ele>
        <time>2015-05-14T09:07:20Z</time>
      </trkpt>
      <trkpt lat="45.5273" lon="2.81725">
        <ele>1793.02</ele>
        <time>2015-05-14T09:07:33Z</time>
      </trkpt>
      <trkpt lat="45.52731" lon="2.81752">
        <ele>1791.45</ele>
        <time>2015-05-14T09:07:49Z</time>
      </trkpt>
      <trkpt lat="45.5273" lon="2.81778">
        <ele>1789.3</ele>
        <time>2015-05-14T09:08:03Z</time>
      </trkpt>
      <trkpt lat="45.52741" lon="2.81798">
        <ele>1784.27</ele>
        <time>2015-05-14T09:08:54Z</time>
      </trkpt>
      <trkpt lat="45.52744" lon="2.81826">
        <ele>1782.81</ele>
        <time>2015-05-14T09:09:07Z</time>
      </trkpt>
      <trkpt lat="45.52744" lon="2.81854">
        <ele>1781.21</ele>
        <time>2015-05-14T09:09:21Z</time>
      </trkpt>
      <trkpt lat="45.52749" lon="2.81879">
        <ele>1779.21</ele>
        <time>2015-05-14T09:09:33Z</time>
      </trkpt>
      <trkpt lat="45.52748" lon="2.81907">
        <ele>1776.73</ele>
        <time>2015-05-14T09:09:46Z</time>
      </trkpt>
      <trkpt lat="45.52743" lon="2.81932">
        <ele>1775.18</ele>
        <time>2015-05-14T09:10:00Z</time>
      </trkpt>
      <trkpt lat="45.52743" lon="2.81958">
        <ele>1772.61</ele>
        <time>2015-05-14T09:10:16Z</time>
      </trkpt>
      <trkpt lat="45.52758" lon="2.81942">
        <ele>1770.08</ele>
        <time>2015-05-14T09:10:30Z</time>
      </trkpt>
      <trkpt lat="45.52773" lon="2.81925">
        <ele>1762.46</ele>
        <time>2015-05-14T09:11:43Z</time>
      </trkpt>
      <trkpt lat="45.52787" lon="2.81943">
        <ele>1758.45</ele>
        <time>2015-05-14T09:11:59Z</time>
      </trkpt>
      <trkpt lat="45.52784" lon="2.81969">
        <ele>1754.71</ele>
        <time>2015-05-14T09:12:20Z</time>
      </trkpt>
      <trkpt lat="45.52788" lon="2.81995">
        <ele>1751.59</ele>
        <time>2015-05-14T09:12:36Z</time>
      </trkpt>
      <trkpt lat="45.52793" lon="2.82021">
        <ele>1748.89</ele>
        <time>2015-05-14T09:12:51Z</time>
      </trkpt>
      <trkpt lat="45.52794" lon="2.82047">
        <ele>1745.23</ele>
        <time>2015-05-14T09:13:06Z</time>
      </trkpt>
      <trkpt lat="45.528" lon="2.82073">
        <ele>1741.57</ele>
        <time>2015-05-14T09:13:25Z</time>
      </trkpt>
      <trkpt lat="45.52804" lon="2.82099">
        <ele>1738.99</ele>
        <time>2015-05-14T09:13:43Z</time>
      </trkpt>
      <trkpt lat="45.52817" lon="2.82118">
        <ele>1736.69</ele>
        <time>2015-05-14T09:13:55Z</time>
      </trkpt>
      <trkpt lat="45.5283" lon="2.82137">
        <ele>1734.06</ele>
        <time>2015-05-14T09:14:09Z</time>
      </trkpt>
      <trkpt lat="45.52845" lon="2.82152">
        <ele>1731.48</ele>
        <time>2015-05-14T09:14:23Z</time>
      </trkpt>
      <trkpt lat="45.52856" lon="2.82173">
        <ele>1728.53</ele>
        <time>2015-05-14T09:14:40Z</time>
      </trkpt>
      <trkpt lat="45.52855" lon="2.822">
        <ele>1725.11</ele>
        <time>2015-05-14T09:14:56Z</time>
      </trkpt>
      <trkpt lat="45.52853" lon="2.82227">
        <ele>1721.98</ele>
        <time>2015-05-14T09:15:13Z</time>
      </trkpt>
      <trkpt lat="45.52856" lon="2.82254">
        <ele>1718.87</ele>
        <time>2015-05-14T09:15:31Z</time>
      </trkpt>
      <trkpt lat="45.52867" lon="2.82275">
        <ele>1717.03</ele>
        <time>2015-05-14T09:15:47Z</time>
      </trkpt>
      <trkpt lat="45.52877" lon="2.82296">
        <ele>1714.21</ele>
        <time>2015-05-14T09:16:16Z</time>
      </trkpt>
      <trkpt lat="45.5289" lon="2.82316">
        <ele>1714.44</ele>
        <time>2015-05-14T09:16:43Z</time>
      </trkpt>
      <trkpt lat="45.52896" lon="2.82341">
        <ele>1716.41</ele>
        <time>2015-05-14T09:17:09Z</time>
      </trkpt>
      <trkpt lat="45.52903" lon="2.82365">
        <ele>1718.29</ele>
        <time>2015-05-14T09:17:39Z</time>
      </trkpt>
      <trkpt lat="45.52903" lon="2.82392">
        <ele>1718.86</ele>
        <time>2015-05-14T09:17:56Z</time>
      </trkpt>
      <trkpt lat="45.52898" lon="2.82417">
        <ele>1718.89</ele>
        <time>2015-05-14T09:18:11Z</time>
      </trkpt>
      <trkpt lat="45.52916" lon="2.82418">
        <ele>1719.86</ele>
        <time>2015-05-14T09:20:04Z</time>
      </trkpt>
      <trkpt lat="45.52933" lon="2.8241">
        <ele>1719.94</ele>
        <time>2015-05-14T09:20:23Z</time>
      </trkpt>
      <trkpt lat="45.52952" lon="2.82409">
        <ele>1719.71</ele>
        <time>2015-05-14T09:20:43Z</time>
      </trkpt>
      <trkpt lat="45.5297" lon="2.82416">
        <ele>1719.24</ele>
        <time>2015-05-14T09:20:59Z</time>
      </trkpt>
      <trkpt lat="45.52986" lon="2.8243">
        <ele>1718.57</ele>
        <time>2015-05-14T09:21:13Z</time>
      </trkpt>
      <trkpt lat="45.53003" lon="2.8244">
        <ele>1718.21</ele>
        <time>2015-05-14T09:21:28Z</time>
      </trkpt>
      <trkpt lat="45.53016" lon="2.82459">
        <ele>1717.41</ele>
        <time>2015-05-14T09:21:42Z</time>
      </trkpt>
      <trkpt lat="45.5302" lon="2.82485">
        <ele>1716.15</ele>
        <time>2015-05-14T09:21:57Z</time>
      </trkpt>
      <trkpt lat="45.53028" lon="2.82509">
        <ele>1714.99</ele>
        <time>2015-05-14T09:22:12Z</time>
      </trkpt>
      <trkpt lat="45.5304" lon="2.8253">
        <ele>1712.75</ele>
        <time>2015-05-14T09:22:29Z</time>
      </trkpt>
      <trkpt lat="45.53059" lon="2.82527">
        <ele>1712.19</ele>
        <time>2015-05-14T09:22:53Z</time>
      </trkpt>
      <trkpt lat="45.53077" lon="2.8252">
        <ele>1711.59</ele>
        <time>2015-05-14T09:23:07Z</time>
      </trkpt>
      <trkpt lat="45.53095" lon="2.82516">
        <ele>1711.32</ele>
        <time>2015-05-14T09:23:22Z</time>
      </trkpt>
      <trkpt lat="45.53114" lon="2.82511">
        <ele>1710.12</ele>
        <time>2015-05-14T09:23:36Z</time>
      </trkpt>
      <trkpt lat="45.53133" lon="2.82511">
        <ele>1709.19</ele>
        <time>2015-05-14T09:23:52Z</time>
      </trkpt>
      <trkpt lat="45.53151" lon="2.82506">
        <ele>1708.86</ele>
        <time>2015-05-14T09:24:07Z</time>
      </trkpt>
      <trkpt lat="45.53168" lon="2.82518">
        <ele>1709.39</ele>
        <time>2015-05-14T09:24:23Z</time>
      </trkpt>
      <trkpt lat="45.53182" lon="2.82535">
        <ele>1709.9</ele>
        <time>2015-05-14T09:24:54Z</time>
      </trkpt>
      <trkpt lat="45.532" lon="2.82533">
        <ele>1713.29</ele>
        <time>2015-05-14T09:25:36Z</time>
      </trkpt>
      <trkpt lat="45.53213" lon="2.82552">
        <ele>1715.21</ele>
        <time>2015-05-14T09:26:12Z</time>
      </trkpt>
      <trkpt lat="45.53228" lon="2.82567">
        <ele>1715.92</ele>
        <time>2015-05-14T09:26:28Z</time>
      </trkpt>
      <trkpt lat="45.53245" lon="2.82578">
        <ele>1716.22</ele>
        <time>2015-05-14T09:26:43Z</time>
      </trkpt>
      <trkpt lat="45.53261" lon="2.8259">
        <ele>1716.24</ele>
        <time>2015-05-14T09:27:04Z</time>
      </trkpt>
      <trkpt lat="45.53276" lon="2.82605">
        <ele>1717.78</ele>
        <time>2015-05-14T09:27:21Z</time>
      </trkpt>
      <trkpt lat="45.53294" lon="2.82613">
        <ele>1718.58</ele>
        <time>2015-05-14T09:27:36Z</time>
      </trkpt>
      <trkpt lat="45.53312" lon="2.82617">
        <ele>1718.5</ele>
        <time>2015-05-14T09:27:51Z</time>
      </trkpt>
      <trkpt lat="45.5333" lon="2.82621">
        <ele>1718.59</ele>
        <time>2015-05-14T09:28:21Z</time>
      </trkpt>
      <trkpt lat="45.53348" lon="2.82626">
        <ele>1717.98</ele>
        <time>2015-05-14T09:29:06Z</time>
      </trkpt>
      <trkpt lat="45.53364" lon="2.82641">
        <ele>1717.97</ele>
        <time>2015-05-14T09:29:23Z</time>
      </trkpt>
      <trkpt lat="45.53373" lon="2.82664">
        <ele>1717.48</ele>
        <time>2015-05-14T09:29:37Z</time>
      </trkpt>
      <trkpt lat="45.53382" lon="2.82687">
        <ele>1716.65</ele>
        <time>2015-05-14T09:29:54Z</time>
      </trkpt>
      <trkpt lat="45.53391" lon="2.82711">
        <ele>1715.15</ele>
        <time>2015-05-14T09:30:07Z</time>
      </trkpt>
      <trkpt lat="45.53406" lon="2.82727">
        <ele>1712.44</ele>
        <time>2015-05-14T09:30:24Z</time>
      </trkpt>
      <trkpt lat="45.53421" lon="2.82745">
        <ele>1710.24</ele>
        <time>2015-05-14T09:30:40Z</time>
      </trkpt>
      <trkpt lat="45.53438" lon="2.82757">
        <ele>1708.25</ele>
        <time>2015-05-14T09:30:57Z</time>
      </trkpt>
      <trkpt lat="45.53456" lon="2.82757">
        <ele>1707.73</ele>
        <time>2015-05-14T09:31:16Z</time>
      </trkpt>
      <trkpt lat="45.53475" lon="2.82759">
        <ele>1708.22</ele>
        <time>2015-05-14T09:31:38Z</time>
      </trkpt>
      <trkpt lat="45.53493" lon="2.82763">
        <ele>1709.65</ele>
        <time>2015-05-14T09:32:09Z</time>
      </trkpt>
      <trkpt lat="45.53513" lon="2.8276">
        <ele>1712.82</ele>
        <time>2015-05-14T09:32:34Z</time>
      </trkpt>
      <trkpt lat="45.53531" lon="2.82755">
        <ele>1717.16</ele>
        <time>2015-05-14T09:33:00Z</time>
      </trkpt>
      <trkpt lat="45.53549" lon="2.82753">
        <ele>1721.91</ele>
        <time>2015-05-14T09:33:37Z</time>
      </trkpt>
      <trkpt lat="45.53568" lon="2.82756">
        <ele>1724.95</ele>
        <time>2015-05-14T09:34:14Z</time>
      </trkpt>
      <trkpt lat="45.53586" lon="2.82759">
        <ele>1729.82</ele>
        <time>2015-05-14T09:34:48Z</time>
      </trkpt>
      <trkpt lat="45.53604" lon="2.82754">
        <ele>1733.17</ele>
        <time>2015-05-14T09:35:25Z</time>
      </trkpt>
      <trkpt lat="45.53622" lon="2.82756">
        <ele>1736.56</ele>
        <time>2015-05-14T09:36:02Z</time>
      </trkpt>
      <trkpt lat="45.5364" lon="2.82761">
        <ele>1743.04</ele>
        <time>2015-05-14T09:36:45Z</time>
      </trkpt>
      <trkpt lat="45.53657" lon="2.82755">
        <ele>1750.07</ele>
        <time>2015-05-14T09:37:35Z</time>
      </trkpt>
      <trkpt lat="45.53674" lon="2.82766">
        <ele>1752.05</ele>
        <time>2015-05-14T09:37:50Z</time>
      </trkpt>
      <trkpt lat="45.53687" lon="2.82785">
        <ele>1753.48</ele>
        <time>2015-05-14T09:38:07Z</time>
      </trkpt>
      <trkpt lat="45.53703" lon="2.82797">
        <ele>1753.24</ele>
        <time>2015-05-14T09:38:25Z</time>
      </trkpt>
      <trkpt lat="45.53718" lon="2.82812">
        <ele>1752.8</ele>
        <time>2015-05-14T09:38:37Z</time>
      </trkpt>
      <trkpt lat="45.53732" lon="2.82831">
        <ele>1752.42</ele>
        <time>2015-05-14T09:38:51Z</time>
      </trkpt>
      <trkpt lat="45.53742" lon="2.82852">
        <ele>1751.75</ele>
        <time>2015-05-14T09:39:06Z</time>
      </trkpt>
      <trkpt lat="45.53747" lon="2.82878">
        <ele>1750.65</ele>
        <time>2015-05-14T09:39:21Z</time>
      </trkpt>
      <trkpt lat="45.53758" lon="2.829">
        <ele>1749.37</ele>
        <time>2015-05-14T09:39:35Z</time>
      </trkpt>
      <trkpt lat="45.53764" lon="2.82925">
        <ele>1747.11</ele>
        <time>2015-05-14T09:39:53Z</time>
      </trkpt>
      <trkpt lat="45.53769" lon="2.82951">
        <ele>1744.4</ele>
        <time>2015-05-14T09:40:10Z</time>
      </trkpt>
      <trkpt lat="45.53778" lon="2.82976">
        <ele>1742.07</ele>
        <time>2015-05-14T09:40:25Z</time>
      </trkpt>
      <trkpt lat="45.53792" lon="2.82994">
        <ele>1739.19</ele>
        <time>2015-05-14T09:40:42Z</time>
      </trkpt>
      <trkpt lat="45.53805" lon="2.83015">
        <ele>1736.89</ele>
        <time>2015-05-14T09:40:57Z</time>
      </trkpt>
      <trkpt lat="45.5382" lon="2.8303">
        <ele>1735.04</ele>
        <time>2015-05-14T09:41:15Z</time>
      </trkpt>
      <trkpt lat="45.53838" lon="2.83041">
        <ele>1733.54</ele>
        <time>2015-05-14T09:41:30Z</time>
      </trkpt>
      <trkpt lat="45.5385" lon="2.8306">
        <ele>1732.29</ele>
        <time>2015-05-14T09:41:44Z</time>
      </trkpt>
      <trkpt lat="45.5386" lon="2.83082">
        <ele>1730.89</ele>
        <time>2015-05-14T09:42:04Z</time>
      </trkpt>
      <trkpt lat="45.53875" lon="2.83097">
        <ele>1729.5</ele>
        <time>2015-05-14T09:42:22Z</time>
      </trkpt>
      <trkpt lat="45.53892" lon="2.83108">
        <ele>1728.66</ele>
        <time>2015-05-14T09:43:26Z</time>
      </trkpt>
      <trkpt lat="45.53908" lon="2.8312">
        <ele>1729.49</ele>
        <time>2015-05-14T09:43:48Z</time>
      </trkpt>
      <trkpt lat="45.53925" lon="2.83131">
        <ele>1732.11</ele>
        <time>2015-05-14T09:44:12Z</time>
      </trkpt>
      <trkpt lat="45.53942" lon="2.83142">
        <ele>1734.51</ele>
        <time>2015-05-14T09:44:35Z</time>
      </trkpt>
      <trkpt lat="45.5396" lon="2.83147">
        <ele>1735.76</ele>
        <time>2015-05-14T09:44:55Z</time>
      </trkpt>
      <trkpt lat="45.53978" lon="2.83152">
        <ele>1739.56</ele>
        <time>2015-05-14T09:45:23Z</time>
      </trkpt>
      <trkpt lat="45.53995" lon="2.83161">
        <ele>1742.85</ele>
        <time>2015-05-14T09:45:47Z</time>
      </trkpt>
      <trkpt lat="45.54005" lon="2.83183">
        <ele>1746.44</ele>
        <time>2015-05-14T09:47:58Z</time>
      </trkpt>
      <trkpt lat="45.54022" lon="2.83195">
        <ele>1746.64</ele>
        <time>2015-05-14T09:48:20Z</time>
      </trkpt>
      <trkpt lat="45.54032" lon="2.83218">
        <ele>1746</ele>
        <time>2015-05-14T09:48:37Z</time>
      </trkpt>
      <trkpt lat="45.54044" lon="2.83237">
        <ele>1745.9</ele>
        <time>2015-05-14T09:48:55Z</time>
      </trkpt>
      <trkpt lat="45.54062" lon="2.83229">
        <ele>1745.19</ele>
        <time>2015-05-14T09:49:09Z</time>
      </trkpt>
      <trkpt lat="45.54081" lon="2.83224">
        <ele>1744.06</ele>
        <time>2015-05-14T09:49:23Z</time>
      </trkpt>
      <trkpt lat="45.541" lon="2.8322">
        <ele>1742.43</ele>
        <time>2015-05-14T09:49:37Z</time>
      </trkpt>
      <trkpt lat="45.54119" lon="2.8322">
        <ele>1740.02</ele>
        <time>2015-05-14T09:49:53Z</time>
      </trkpt>
      <trkpt lat="45.54137" lon="2.83222">
        <ele>1737.6</ele>
        <time>2015-05-14T09:50:07Z</time>
      </trkpt>
      <trkpt lat="45.54155" lon="2.83222">
        <ele>1735.44</ele>
        <time>2015-05-14T09:50:20Z</time>
      </trkpt>
      <trkpt lat="45.54174" lon="2.83226">
        <ele>1732.38</ele>
        <time>2015-05-14T09:50:32Z</time>
      </trkpt>
      <trkpt lat="45.54194" lon="2.83229">
        <ele>1729.68</ele>
        <time>2015-05-14T09:50:47Z</time>
      </trkpt>
      <trkpt lat="45.54212" lon="2.83229">
        <ele>1727.42</ele>
        <time>2015-05-14T09:51:00Z</time>
      </trkpt>
      <trkpt lat="45.5423" lon="2.83229">
        <ele>1724.26</ele>
        <time>2015-05-14T09:51:17Z</time>
      </trkpt>
      <trkpt lat="45.54248" lon="2.83222">
        <ele>1721.85</ele>
        <time>2015-05-14T09:51:31Z</time>
      </trkpt>
      <trkpt lat="45.54266" lon="2.83218">
        <ele>1719.51</ele>
        <time>2015-05-14T09:51:45Z</time>
      </trkpt>
      <trkpt lat="45.54284" lon="2.83225">
        <ele>1717.16</ele>
        <time>2015-05-14T09:51:57Z</time>
      </trkpt>
      <trkpt lat="45.54302" lon="2.83231">
        <ele>1715.02</ele>
        <time>2015-05-14T09:52:09Z</time>
      </trkpt>
      <trkpt lat="45.5432" lon="2.8324">
        <ele>1713.35</ele>
        <time>2015-05-14T09:52:22Z</time>
      </trkpt>
      <trkpt lat="45.54338" lon="2.83251">
        <ele>1710.63</ele>
        <time>2015-05-14T09:52:38Z</time>
      </trkpt>
      <trkpt lat="45.54356" lon="2.83256">
        <ele>1707.27</ele>
        <time>2015-05-14T09:52:54Z</time>
      </trkpt>
      <trkpt lat="45.54374" lon="2.83261">
        <ele>1705.69</ele>
        <time>2015-05-14T09:53:07Z</time>
      </trkpt>
      <trkpt lat="45.54393" lon="2.83262">
        <ele>1704.56</ele>
        <time>2015-05-14T09:53:21Z</time>
      </trkpt>
      <trkpt lat="45.54411" lon="2.83262">
        <ele>1703.32</ele>
        <time>2015-05-14T09:53:35Z</time>
      </trkpt>
      <trkpt lat="45.54422" lon="2.83283">
        <ele>1702.23</ele>
        <time>2015-05-14T09:53:49Z</time>
      </trkpt>
      <trkpt lat="45.54437" lon="2.833">
        <ele>1699.98</ele>
        <time>2015-05-14T09:54:06Z</time>
      </trkpt>
      <trkpt lat="45.54455" lon="2.83296">
        <ele>1698.16</ele>
        <time>2015-05-14T09:54:18Z</time>
      </trkpt>
      <trkpt lat="45.54452" lon="2.83323">
        <ele>1693.72</ele>
        <time>2015-05-14T09:54:42Z</time>
      </trkpt>
      <trkpt lat="45.54437" lon="2.83339">
        <ele>1690.52</ele>
        <time>2015-05-14T09:55:03Z</time>
      </trkpt>
      <trkpt lat="45.54454" lon="2.83349">
        <ele>1685.05</ele>
        <time>2015-05-14T09:55:25Z</time>
      </trkpt>
      <trkpt lat="45.54472" lon="2.8335">
        <ele>1680.97</ele>
        <time>2015-05-14T09:55:40Z</time>
      </trkpt>
      <trkpt lat="45.54491" lon="2.83352">
        <ele>1675.24</ele>
        <time>2015-05-14T09:56:00Z</time>
      </trkpt>
      <trkpt lat="45.54509" lon="2.83344">
        <ele>1670.28</ele>
        <time>2015-05-14T09:56:17Z</time>
      </trkpt>
      <trkpt lat="45.54526" lon="2.83329">
        <ele>1667.58</ele>
        <time>2015-05-14T09:56:30Z</time>
      </trkpt>
      <trkpt lat="45.54538" lon="2.8331">
        <ele>1664.5</ele>
        <time>2015-05-14T09:56:44Z</time>
      </trkpt>
      <trkpt lat="45.54553" lon="2.83293">
        <ele>1661.4</ele>
        <time>2015-05-14T09:57:01Z</time>
      </trkpt>
      <trkpt lat="45.54571" lon="2.8329">
        <ele>1659.12</ele>
        <time>2015-05-14T09:57:12Z</time>
      </trkpt>
      <trkpt lat="45.54589" lon="2.83281">
        <ele>1655.41</ele>
        <time>2015-05-14T09:57:27Z</time>
      </trkpt>
      <trkpt lat="45.54602" lon="2.83264">
        <ele>1651.49</ele>
        <time>2015-05-14T09:57:43Z</time>
      </trkpt>
      <trkpt lat="45.54607" lon="2.83239">
        <ele>1647.59</ele>
        <time>2015-05-14T09:58:03Z</time>
      </trkpt>
      <trkpt lat="45.54623" lon="2.8325">
        <ele>1643.1</ele>
        <time>2015-05-14T09:59:09Z</time>
      </trkpt>
      <trkpt lat="45.54641" lon="2.83249">
        <ele>1645.45</ele>
        <time>2015-05-14T09:59:41Z</time>
      </trkpt>
      <trkpt lat="45.5465" lon="2.83226">
        <ele>1650.56</ele>
        <time>2015-05-14T10:00:14Z</time>
      </trkpt>
      <trkpt lat="45.54664" lon="2.8321">
        <ele>1655.79</ele>
        <time>2015-05-14T10:00:46Z</time>
      </trkpt>
      <trkpt lat="45.54681" lon="2.832">
        <ele>1665.17</ele>
        <time>2015-05-14T10:01:23Z</time>
      </trkpt>
      <trkpt lat="45.54699" lon="2.83201">
        <ele>1670.25</ele>
        <time>2015-05-14T10:01:48Z</time>
      </trkpt>
      <trkpt lat="45.54717" lon="2.83196">
        <ele>1675.73</ele>
        <time>2015-05-14T10:02:14Z</time>
      </trkpt>
      <trkpt lat="45.54735" lon="2.83192">
        <ele>1679.62</ele>
        <time>2015-05-14T10:02:35Z</time>
      </trkpt>
      <trkpt lat="45.54754" lon="2.83188">
        <ele>1682.62</ele>
        <time>2015-05-14T10:02:56Z</time>
      </trkpt>
      <trkpt lat="45.54772" lon="2.83184">
        <ele>1685.9</ele>
        <time>2015-05-14T10:03:22Z</time>
      </trkpt>
      <trkpt lat="45.54789" lon="2.83174">
        <ele>1689.06</ele>
        <time>2015-05-14T10:03:44Z</time>
      </trkpt>
      <trkpt lat="45.54804" lon="2.8316">
        <ele>1692.57</ele>
        <time>2015-05-14T10:04:15Z</time>
      </trkpt>
      <trkpt lat="45.54818" lon="2.83143">
        <ele>1698.79</ele>
        <time>2015-05-14T10:04:55Z</time>
      </trkpt>
      <trkpt lat="45.54837" lon="2.8314">
        <ele>1702.68</ele>
        <time>2015-05-14T10:05:30Z</time>
      </trkpt>
      <trkpt lat="45.54854" lon="2.8313">
        <ele>1704.7</ele>
        <time>2015-05-14T10:05:48Z</time>
      </trkpt>
      <trkpt lat="45.54871" lon="2.8312">
        <ele>1706.68</ele>
        <time>2015-05-14T10:06:04Z</time>
      </trkpt>
      <trkpt lat="45.54889" lon="2.83115">
        <ele>1710.29</ele>
        <time>2015-05-14T10:06:30Z</time>
      </trkpt>
      <trkpt lat="45.54907" lon="2.83105">
        <ele>1714.31</ele>
        <time>2015-05-14T10:07:03Z</time>
      </trkpt>
      <trkpt lat="45.54922" lon="2.8309">
        <ele>1719.53</ele>
        <time>2015-05-14T10:07:40Z</time>
      </trkpt>
      <trkpt lat="45.54932" lon="2.83069">
        <ele>1723.67</ele>
        <time>2015-05-14T10:08:04Z</time>
      </trkpt>
      <trkpt lat="45.5494" lon="2.83045">
        <ele>1731.99</ele>
        <time>2015-05-14T10:11:30Z</time>
      </trkpt>
      <trkpt lat="45.54946" lon="2.83071">
        <ele>1731.54</ele>
        <time>2015-05-14T10:11:52Z</time>
      </trkpt>
      <trkpt lat="45.54942" lon="2.83096">
        <ele>1729.97</ele>
        <time>2015-05-14T10:12:06Z</time>
      </trkpt>
      <trkpt lat="45.54931" lon="2.83118">
        <ele>1727.62</ele>
        <time>2015-05-14T10:12:23Z</time>
      </trkpt>
      <trkpt lat="45.54918" lon="2.83135">
        <ele>1725.4</ele>
        <time>2015-05-14T10:12:39Z</time>
      </trkpt>
      <trkpt lat="45.54936" lon="2.83142">
        <ele>1722.29</ele>
        <time>2015-05-14T10:12:59Z</time>
      </trkpt>
      <trkpt lat="45.54955" lon="2.83144">
        <ele>1720.41</ele>
        <time>2015-05-14T10:13:14Z</time>
      </trkpt>
      <trkpt lat="45.54973" lon="2.83146">
        <ele>1717.64</ele>
        <time>2015-05-14T10:13:27Z</time>
      </trkpt>
      <trkpt lat="45.5499" lon="2.83138">
        <ele>1713</ele>
        <time>2015-05-14T10:13:44Z</time>
      </trkpt>
      <trkpt lat="45.55004" lon="2.8312">
        <ele>1708.59</ele>
        <time>2015-05-14T10:14:00Z</time>
      </trkpt>
      <trkpt lat="45.55014" lon="2.83097">
        <ele>1703.62</ele>
        <time>2015-05-14T10:14:16Z</time>
      </trkpt>
      <trkpt lat="45.55025" lon="2.83076">
        <ele>1697.45</ele>
        <time>2015-05-14T10:14:35Z</time>
      </trkpt>
      <trkpt lat="45.55033" lon="2.83052">
        <ele>1692.38</ele>
        <time>2015-05-14T10:14:50Z</time>
      </trkpt>
      <trkpt lat="45.55039" lon="2.83077">
        <ele>1689.29</ele>
        <time>2015-05-14T10:15:05Z</time>
      </trkpt>
      <trkpt lat="45.55041" lon="2.83103">
        <ele>1685.91</ele>
        <time>2015-05-14T10:15:19Z</time>
      </trkpt>
      <trkpt lat="45.55046" lon="2.83128">
        <ele>1682.41</ele>
        <time>2015-05-14T10:15:42Z</time>
      </trkpt>
      <trkpt lat="45.55049" lon="2.83156">
        <ele>1680.09</ele>
        <time>2015-05-14T10:15:54Z</time>
      </trkpt>
      <trkpt lat="45.55053" lon="2.83181">
        <ele>1678</ele>
        <time>2015-05-14T10:16:06Z</time>
      </trkpt>
      <trkpt lat="45.55053" lon="2.83209">
        <ele>1675.16</ele>
        <time>2015-05-14T10:16:19Z</time>
      </trkpt>
      <trkpt lat="45.5505" lon="2.83235">
        <ele>1672.14</ele>
        <time>2015-05-14T10:16:33Z</time>
      </trkpt>
      <trkpt lat="45.55051" lon="2.83262">
        <ele>1669.28</ele>
        <time>2015-05-14T10:16:46Z</time>
      </trkpt>
      <trkpt lat="45.55065" lon="2.83279">
        <ele>1666.39</ele>
        <time>2015-05-14T10:16:59Z</time>
      </trkpt>
      <trkpt lat="45.55078" lon="2.83299">
        <ele>1662.53</ele>
        <time>2015-05-14T10:17:14Z</time>
      </trkpt>
      <trkpt lat="45.55093" lon="2.83282">
        <ele>1652.25</ele>
        <time>2015-05-14T10:18:18Z</time>
      </trkpt>
      <trkpt lat="45.55098" lon="2.83256">
        <ele>1650.97</ele>
        <time>2015-05-14T10:18:32Z</time>
      </trkpt>
      <trkpt lat="45.55101" lon="2.8323">
        <ele>1649.9</ele>
        <time>2015-05-14T10:18:45Z</time>
      </trkpt>
      <trkpt lat="45.55106" lon="2.83204">
        <ele>1648.04</ele>
        <time>2015-05-14T10:19:00Z</time>
      </trkpt>
      <trkpt lat="45.55109" lon="2.83178">
        <ele>1645.57</ele>
        <time>2015-05-14T10:19:16Z</time>
      </trkpt>
      <trkpt lat="45.55108" lon="2.83151">
        <ele>1644.04</ele>
        <time>2015-05-14T10:19:28Z</time>
      </trkpt>
      <trkpt lat="45.55114" lon="2.83126">
        <ele>1643.14</ele>
        <time>2015-05-14T10:19:41Z</time>
      </trkpt>
      <trkpt lat="45.55119" lon="2.831">
        <ele>1641.9</ele>
        <time>2015-05-14T10:19:56Z</time>
      </trkpt>
      <trkpt lat="45.55125" lon="2.83076">
        <ele>1640.67</ele>
        <time>2015-05-14T10:20:09Z</time>
      </trkpt>
      <trkpt lat="45.55132" lon="2.83051">
        <ele>1638.92</ele>
        <time>2015-05-14T10:20:23Z</time>
      </trkpt>
      <trkpt lat="45.55137" lon="2.83024">
        <ele>1638.12</ele>
        <time>2015-05-14T10:20:35Z</time>
      </trkpt>
      <trkpt lat="45.5514" lon="2.82998">
        <ele>1636.93</ele>
        <time>2015-05-14T10:20:48Z</time>
      </trkpt>
      <trkpt lat="45.55148" lon="2.82973">
        <ele>1635.75</ele>
        <time>2015-05-14T10:21:01Z</time>
      </trkpt>
      <trkpt lat="45.55156" lon="2.82949">
        <ele>1635.02</ele>
        <time>2015-05-14T10:21:13Z</time>
      </trkpt>
      <trkpt lat="45.55164" lon="2.82925">
        <ele>1633.73</ele>
        <time>2015-05-14T10:21:27Z</time>
      </trkpt>
      <trkpt lat="45.5517" lon="2.829">
        <ele>1632.02</ele>
        <time>2015-05-14T10:21:39Z</time>
      </trkpt>
      <trkpt lat="45.55177" lon="2.82874">
        <ele>1629.16</ele>
        <time>2015-05-14T10:21:54Z</time>
      </trkpt>
      <trkpt lat="45.55183" lon="2.82849">
        <ele>1627.19</ele>
        <time>2015-05-14T10:22:06Z</time>
      </trkpt>
      <trkpt lat="45.55187" lon="2.82823">
        <ele>1624.94</ele>
        <time>2015-05-14T10:22:20Z</time>
      </trkpt>
      <trkpt lat="45.55193" lon="2.82797">
        <ele>1622.29</ele>
        <time>2015-05-14T10:22:35Z</time>
      </trkpt>
      <trkpt lat="45.55197" lon="2.8277">
        <ele>1620.37</ele>
        <time>2015-05-14T10:22:48Z</time>
      </trkpt>
      <trkpt lat="45.55206" lon="2.82746">
        <ele>1617.11</ele>
        <time>2015-05-14T10:23:04Z</time>
      </trkpt>
      <trkpt lat="45.55206" lon="2.8272">
        <ele>1613.68</ele>
        <time>2015-05-14T10:23:31Z</time>
      </trkpt>
      <trkpt lat="45.55209" lon="2.82694">
        <ele>1611.64</ele>
        <time>2015-05-14T10:23:43Z</time>
      </trkpt>
      <trkpt lat="45.55212" lon="2.82667">
        <ele>1609.64</ele>
        <time>2015-05-14T10:23:56Z</time>
      </trkpt>
      <trkpt lat="45.55216" lon="2.82642">
        <ele>1607.51</ele>
        <time>2015-05-14T10:24:09Z</time>
      </trkpt>
      <trkpt lat="45.55228" lon="2.82622">
        <ele>1605.13</ele>
        <time>2015-05-14T10:24:23Z</time>
      </trkpt>
      <trkpt lat="45.55246" lon="2.82612">
        <ele>1602.25</ele>
        <time>2015-05-14T10:24:36Z</time>
      </trkpt>
      <trkpt lat="45.55262" lon="2.82601">
        <ele>1598.7</ele>
        <time>2015-05-14T10:24:50Z</time>
      </trkpt>
      <trkpt lat="45.55279" lon="2.82591">
        <ele>1595.78</ele>
        <time>2015-05-14T10:25:04Z</time>
      </trkpt>
      <trkpt lat="45.55297" lon="2.8258">
        <ele>1591.84</ele>
        <time>2015-05-14T10:25:19Z</time>
      </trkpt>
      <trkpt lat="45.55314" lon="2.82568">
        <ele>1588.38</ele>
        <time>2015-05-14T10:25:31Z</time>
      </trkpt>
      <trkpt lat="45.55331" lon="2.82561">
        <ele>1584.73</ele>
        <time>2015-05-14T10:25:44Z</time>
      </trkpt>
      <trkpt lat="45.55349" lon="2.82552">
        <ele>1580.54</ele>
        <time>2015-05-14T10:25:57Z</time>
      </trkpt>
      <trkpt lat="45.55367" lon="2.82547">
        <ele>1575.81</ele>
        <time>2015-05-14T10:26:12Z</time>
      </trkpt>
      <trkpt lat="45.55386" lon="2.82544">
        <ele>1571.92</ele>
        <time>2015-05-14T10:26:25Z</time>
      </trkpt>
      <trkpt lat="45.55403" lon="2.82533">
        <ele>1566.96</ele>
        <time>2015-05-14T10:26:41Z</time>
      </trkpt>
      <trkpt lat="45.55421" lon="2.82521">
        <ele>1562.46</ele>
        <time>2015-05-14T10:26:55Z</time>
      </trkpt>
      <trkpt lat="45.55437" lon="2.82506">
        <ele>1558.36</ele>
        <time>2015-05-14T10:27:08Z</time>
      </trkpt>
      <trkpt lat="45.55454" lon="2.82499">
        <ele>1553.76</ele>
        <time>2015-05-14T10:27:23Z</time>
      </trkpt>
      <trkpt lat="45.55473" lon="2.82499">
        <ele>1548.9</ele>
        <time>2015-05-14T10:27:39Z</time>
      </trkpt>
      <trkpt lat="45.55492" lon="2.825">
        <ele>1544.8</ele>
        <time>2015-05-14T10:27:53Z</time>
      </trkpt>
      <trkpt lat="45.55511" lon="2.82499">
        <ele>1541.56</ele>
        <time>2015-05-14T10:28:06Z</time>
      </trkpt>
      <trkpt lat="45.55529" lon="2.82504">
        <ele>1538.76</ele>
        <time>2015-05-14T10:28:20Z</time>
      </trkpt>
      <trkpt lat="45.55547" lon="2.82504">
        <ele>1535.67</ele>
        <time>2015-05-14T10:28:34Z</time>
      </trkpt>
      <trkpt lat="45.55565" lon="2.82509">
        <ele>1532</ele>
        <time>2015-05-14T10:28:49Z</time>
      </trkpt>
      <trkpt lat="45.55584" lon="2.82514">
        <ele>1528.81</ele>
        <time>2015-05-14T10:29:02Z</time>
      </trkpt>
      <trkpt lat="45.556" lon="2.82526">
        <ele>1523.22</ele>
        <time>2015-05-14T10:29:37Z</time>
      </trkpt>
      <trkpt lat="45.55613" lon="2.82545">
        <ele>1521.59</ele>
        <time>2015-05-14T10:29:50Z</time>
      </trkpt>
      <trkpt lat="45.55623" lon="2.82568">
        <ele>1517.99</ele>
        <time>2015-05-14T10:30:03Z</time>
      </trkpt>
      <trkpt lat="45.55636" lon="2.82588">
        <ele>1513.6</ele>
        <time>2015-05-14T10:30:16Z</time>
      </trkpt>
      <trkpt lat="45.55649" lon="2.82608">
        <ele>1510.5</ele>
        <time>2015-05-14T10:30:29Z</time>
      </trkpt>
      <trkpt lat="45.55662" lon="2.82628">
        <ele>1506.94</ele>
        <time>2015-05-14T10:30:43Z</time>
      </trkpt>
      <trkpt lat="45.55676" lon="2.82646">
        <ele>1503.89</ele>
        <time>2015-05-14T10:30:55Z</time>
      </trkpt>
      <trkpt lat="45.55687" lon="2.82667">
        <ele>1501.86</ele>
        <time>2015-05-14T10:31:08Z</time>
      </trkpt>
      <trkpt lat="45.55701" lon="2.82686">
        <ele>1498.17</ele>
        <time>2015-05-14T10:31:22Z</time>
      </trkpt>
      <trkpt lat="45.55712" lon="2.82707">
        <ele>1494.81</ele>
        <time>2015-05-14T10:31:36Z</time>
      </trkpt>
      <trkpt lat="45.55725" lon="2.82727">
        <ele>1493.2</ele>
        <time>2015-05-14T10:31:52Z</time>
      </trkpt>
      <trkpt lat="45.55738" lon="2.82745">
        <ele>1491.59</ele>
        <time>2015-05-14T10:32:05Z</time>
      </trkpt>
      <trkpt lat="45.55749" lon="2.82767">
        <ele>1489.09</ele>
        <time>2015-05-14T10:32:20Z</time>
      </trkpt>
      <trkpt lat="45.55762" lon="2.82787">
        <ele>1486.65</ele>
        <time>2015-05-14T10:32:34Z</time>
      </trkpt>
      <trkpt lat="45.55774" lon="2.82807">
        <ele>1483.04</ele>
        <time>2015-05-14T10:32:53Z</time>
      </trkpt>
      <trkpt lat="45.55784" lon="2.82829">
        <ele>1481.05</ele>
        <time>2015-05-14T10:33:16Z</time>
      </trkpt>
      <trkpt lat="45.55786" lon="2.82857">
        <ele>1479.42</ele>
        <time>2015-05-14T10:33:43Z</time>
      </trkpt>
      <trkpt lat="45.55788" lon="2.82884">
        <ele>1478.53</ele>
        <time>2015-05-14T10:33:57Z</time>
      </trkpt>
      <trkpt lat="45.5579" lon="2.82909">
        <ele>1476.72</ele>
        <time>2015-05-14T10:34:09Z</time>
      </trkpt>
      <trkpt lat="45.55792" lon="2.82936">
        <ele>1474.83</ele>
        <time>2015-05-14T10:34:22Z</time>
      </trkpt>
      <trkpt lat="45.55806" lon="2.82954">
        <ele>1473.7</ele>
        <time>2015-05-14T10:34:40Z</time>
      </trkpt>
      <trkpt lat="45.55825" lon="2.82949">
        <ele>1473.06</ele>
        <time>2015-05-14T10:34:52Z</time>
      </trkpt>
      <trkpt lat="45.55844" lon="2.82947">
        <ele>1472.12</ele>
        <time>2015-05-14T10:35:03Z</time>
      </trkpt>
      <trkpt lat="45.55863" lon="2.82944">
        <ele>1471.84</ele>
        <time>2015-05-14T10:35:15Z</time>
      </trkpt>
      <trkpt lat="45.55881" lon="2.82943">
        <ele>1471.03</ele>
        <time>2015-05-14T10:35:26Z</time>
      </trkpt>
      <trkpt lat="45.55895" lon="2.8296">
        <ele>1468.96</ele>
        <time>2015-05-14T10:35:50Z</time>
      </trkpt>
      <trkpt lat="45.55909" lon="2.82979">
        <ele>1466.83</ele>
        <time>2015-05-14T10:36:03Z</time>
      </trkpt>
      <trkpt lat="45.55919" lon="2.83">
        <ele>1465.38</ele>
        <time>2015-05-14T10:36:16Z</time>
      </trkpt>
      <trkpt lat="45.55934" lon="2.83015">
        <ele>1463.38</ele>
        <time>2015-05-14T10:36:31Z</time>
      </trkpt>
      <trkpt lat="45.55946" lon="2.83035">
        <ele>1462.24</ele>
        <time>2015-05-14T10:36:47Z</time>
      </trkpt>
      <trkpt lat="45.55957" lon="2.83058">
        <ele>1461.59</ele>
        <time>2015-05-14T10:37:02Z</time>
      </trkpt>
      <trkpt lat="45.55971" lon="2.83074">
        <ele>1461.37</ele>
        <time>2015-05-14T10:37:17Z</time>
      </trkpt>
      <trkpt lat="45.55982" lon="2.83095">
        <ele>1460.67</ele>
        <time>2015-05-14T10:37:32Z</time>
      </trkpt>
      <trkpt lat="45.55993" lon="2.83116">
        <ele>1458.22</ele>
        <time>2015-05-14T10:37:48Z</time>
      </trkpt>
      <trkpt lat="45.56004" lon="2.83137">
        <ele>1457.55</ele>
        <time>2015-05-14T10:38:03Z</time>
      </trkpt>
      <trkpt lat="45.56017" lon="2.83156">
        <ele>1456.79</ele>
        <time>2015-05-14T10:38:17Z</time>
      </trkpt>
      <trkpt lat="45.56035" lon="2.83166">
        <ele>1456.71</ele>
        <time>2015-05-14T10:38:32Z</time>
      </trkpt>
      <trkpt lat="45.56053" lon="2.83173">
        <ele>1457.28</ele>
        <time>2015-05-14T10:38:45Z</time>
      </trkpt>
      <trkpt lat="45.56071" lon="2.83174">
        <ele>1458.2</ele>
        <time>2015-05-14T10:39:15Z</time>
      </trkpt>
      <trkpt lat="45.56089" lon="2.83166">
        <ele>1458.22</ele>
        <time>2015-05-14T10:39:28Z</time>
      </trkpt>
      <trkpt lat="45.56106" lon="2.83153">
        <ele>1458.27</ele>
        <time>2015-05-14T10:39:45Z</time>
      </trkpt>
      <trkpt lat="45.56124" lon="2.83148">
        <ele>1457.77</ele>
        <time>2015-05-14T10:39:58Z</time>
      </trkpt>
      <trkpt lat="45.56143" lon="2.83148">
        <ele>1457.32</ele>
        <time>2015-05-14T10:40:10Z</time>
      </trkpt>
      <trkpt lat="45.56162" lon="2.83144">
        <ele>1456.96</ele>
        <time>2015-05-14T10:40:23Z</time>
      </trkpt>
      <trkpt lat="45.5618" lon="2.83139">
        <ele>1455.17</ele>
        <time>2015-05-14T10:40:52Z</time>
      </trkpt>
      <trkpt lat="45.56198" lon="2.83133">
        <ele>1453.8</ele>
        <time>2015-05-14T10:41:06Z</time>
      </trkpt>
      <trkpt lat="45.56217" lon="2.8313">
        <ele>1452.62</ele>
        <time>2015-05-14T10:41:21Z</time>
      </trkpt>
      <trkpt lat="45.56235" lon="2.83125">
        <ele>1451.36</ele>
        <time>2015-05-14T10:41:34Z</time>
      </trkpt>
      <trkpt lat="45.56253" lon="2.83121">
        <ele>1449.71</ele>
        <time>2015-05-14T10:41:48Z</time>
      </trkpt>
      <trkpt lat="45.56271" lon="2.83115">
        <ele>1448.88</ele>
        <time>2015-05-14T10:42:02Z</time>
      </trkpt>
      <trkpt lat="45.5629" lon="2.83109">
        <ele>1447.44</ele>
        <time>2015-05-14T10:42:15Z</time>
      </trkpt>
      <trkpt lat="45.56379" lon="2.83083">
        <ele>1445.93</ele>
        <time>2015-05-14T10:43:19Z</time>
      </trkpt>
      <trkpt lat="45.56399" lon="2.83082">
        <ele>1426.01</ele>
        <time>2015-05-14T10:44:18Z</time>
      </trkpt>
      <trkpt lat="45.56408" lon="2.83106">
        <ele>1428.36</ele>
        <time>2015-05-14T10:44:35Z</time>
      </trkpt>
      <trkpt lat="45.56425" lon="2.83118">
        <ele>1429.49</ele>
        <time>2015-05-14T10:44:49Z</time>
      </trkpt>
      <trkpt lat="45.56442" lon="2.83128">
        <ele>1431.05</ele>
        <time>2015-05-14T10:45:19Z</time>
      </trkpt>
      <trkpt lat="45.56459" lon="2.83137">
        <ele>1432.22</ele>
        <time>2015-05-14T10:45:36Z</time>
      </trkpt>
      <trkpt lat="45.56476" lon="2.83147">
        <ele>1433.61</ele>
        <time>2015-05-14T10:45:53Z</time>
      </trkpt>
      <trkpt lat="45.56493" lon="2.83157">
        <ele>1435.39</ele>
        <time>2015-05-14T10:46:13Z</time>
      </trkpt>
      <trkpt lat="45.5651" lon="2.83168">
        <ele>1436.31</ele>
        <time>2015-05-14T10:46:28Z</time>
      </trkpt>
      <trkpt lat="45.56526" lon="2.83178">
        <ele>1437.08</ele>
        <time>2015-05-14T10:46:44Z</time>
      </trkpt>
      <trkpt lat="45.56543" lon="2.83191">
        <ele>1438.2</ele>
        <time>2015-05-14T10:47:09Z</time>
      </trkpt>
      <trkpt lat="45.5656" lon="2.83202">
        <ele>1439.85</ele>
        <time>2015-05-14T10:47:28Z</time>
      </trkpt>
      <trkpt lat="45.56577" lon="2.8321">
        <ele>1441.29</ele>
        <time>2015-05-14T10:47:47Z</time>
      </trkpt>
      <trkpt lat="45.56594" lon="2.8322">
        <ele>1443.1</ele>
        <time>2015-05-14T10:48:04Z</time>
      </trkpt>
      <trkpt lat="45.56612" lon="2.83229">
        <ele>1446.56</ele>
        <time>2015-05-14T10:48:26Z</time>
      </trkpt>
      <trkpt lat="45.56629" lon="2.83237">
        <ele>1448.02</ele>
        <time>2015-05-14T10:48:45Z</time>
      </trkpt>
      <trkpt lat="45.56646" lon="2.83248">
        <ele>1451.08</ele>
        <time>2015-05-14T10:49:08Z</time>
      </trkpt>
      <trkpt lat="45.56663" lon="2.8326">
        <ele>1454.06</ele>
        <time>2015-05-14T10:49:30Z</time>
      </trkpt>
      <trkpt lat="45.5668" lon="2.83269">
        <ele>1458.9</ele>
        <time>2015-05-14T10:49:54Z</time>
      </trkpt>
      <trkpt lat="45.56696" lon="2.8328">
        <ele>1460.64</ele>
        <time>2015-05-14T10:50:16Z</time>
      </trkpt>
      <trkpt lat="45.5671" lon="2.83296">
        <ele>1461.78</ele>
        <time>2015-05-14T10:50:39Z</time>
      </trkpt>
      <trkpt lat="45.56725" lon="2.83311">
        <ele>1463.45</ele>
        <time>2015-05-14T10:51:05Z</time>
      </trkpt>
      <trkpt lat="45.56741" lon="2.83325">
        <ele>1466.4</ele>
        <time>2015-05-14T10:51:23Z</time>
      </trkpt>
      <trkpt lat="45.56756" lon="2.8334">
        <ele>1470.53</ele>
        <time>2015-05-14T10:51:48Z</time>
      </trkpt>
      <trkpt lat="45.56774" lon="2.83346">
        <ele>1480.98</ele>
        <time>2015-05-14T10:52:53Z</time>
      </trkpt>
      <trkpt lat="45.56792" lon="2.83341">
        <ele>1484.08</ele>
        <time>2015-05-14T10:53:14Z</time>
      </trkpt>
      <trkpt lat="45.5681" lon="2.83336">
        <ele>1487.6</ele>
        <time>2015-05-14T10:53:37Z</time>
      </trkpt>
      <trkpt lat="45.56827" lon="2.83324">
        <ele>1491.09</ele>
        <time>2015-05-14T10:54:00Z</time>
      </trkpt>
      <trkpt lat="45.56843" lon="2.83311">
        <ele>1494.27</ele>
        <time>2015-05-14T10:54:20Z</time>
      </trkpt>
      <trkpt lat="45.56856" lon="2.83294">
        <ele>1498.92</ele>
        <time>2015-05-14T10:54:43Z</time>
      </trkpt>
      <trkpt lat="45.56871" lon="2.83277">
        <ele>1502.24</ele>
        <time>2015-05-14T10:55:10Z</time>
      </trkpt>
      <trkpt lat="45.56883" lon="2.83258">
        <ele>1505.87</ele>
        <time>2015-05-14T10:55:31Z</time>
      </trkpt>
      <trkpt lat="45.569" lon="2.83246">
        <ele>1511.69</ele>
        <time>2015-05-14T10:55:57Z</time>
      </trkpt>
      <trkpt lat="45.56917" lon="2.8324">
        <ele>1515.68</ele>
        <time>2015-05-14T10:56:24Z</time>
      </trkpt>
      <trkpt lat="45.56936" lon="2.83237">
        <ele>1519.18</ele>
        <time>2015-05-14T10:56:46Z</time>
      </trkpt>
      <trkpt lat="45.56951" lon="2.8325">
        <ele>1523.24</ele>
        <time>2015-05-14T10:57:16Z</time>
      </trkpt>
      <trkpt lat="45.56955" lon="2.83276">
        <ele>1526.12</ele>
        <time>2015-05-14T10:59:28Z</time>
      </trkpt>
      <trkpt lat="45.5696" lon="2.83301">
        <ele>1527.72</ele>
        <time>2015-05-14T10:59:52Z</time>
      </trkpt>
      <trkpt lat="45.56967" lon="2.83326">
        <ele>1530.89</ele>
        <time>2015-05-14T11:00:19Z</time>
      </trkpt>
      <trkpt lat="45.56975" lon="2.8335">
        <ele>1533.7</ele>
        <time>2015-05-14T11:00:58Z</time>
      </trkpt>
      <trkpt lat="45.56983" lon="2.83372">
        <ele>1537.07</ele>
        <time>2015-05-14T11:01:25Z</time>
      </trkpt>
      <trkpt lat="45.56998" lon="2.83387">
        <ele>1542.19</ele>
        <time>2015-05-14T11:02:00Z</time>
      </trkpt>
      <trkpt lat="45.57012" lon="2.83404">
        <ele>1547.42</ele>
        <time>2015-05-14T11:02:42Z</time>
      </trkpt>
      <trkpt lat="45.57023" lon="2.83424">
        <ele>1553.07</ele>
        <time>2015-05-14T11:03:16Z</time>
      </trkpt>
      <trkpt lat="45.57038" lon="2.83439">
        <ele>1559.51</ele>
        <time>2015-05-14T11:03:55Z</time>
      </trkpt>
      <trkpt lat="45.57048" lon="2.83461">
        <ele>1565.28</ele>
        <time>2015-05-14T11:04:27Z</time>
      </trkpt>
      <trkpt lat="45.57062" lon="2.83478">
        <ele>1570.07</ele>
        <time>2015-05-14T11:04:51Z</time>
      </trkpt>
      <trkpt lat="45.5708" lon="2.83485">
        <ele>1577.12</ele>
        <time>2015-05-14T11:05:28Z</time>
      </trkpt>
      <trkpt lat="45.57095" lon="2.83499">
        <ele>1582.54</ele>
        <time>2015-05-14T11:05:58Z</time>
      </trkpt>
      <trkpt lat="45.57113" lon="2.83506">
        <ele>1587.14</ele>
        <time>2015-05-14T11:06:22Z</time>
      </trkpt>
      <trkpt lat="45.57126" lon="2.83523">
        <ele>1592.98</ele>
        <time>2015-05-14T11:06:55Z</time>
      </trkpt>
      <trkpt lat="45.57142" lon="2.83537">
        <ele>1596.35</ele>
        <time>2015-05-14T11:07:26Z</time>
      </trkpt>
      <trkpt lat="45.57157" lon="2.8355">
        <ele>1599.6</ele>
        <time>2015-05-14T11:08:00Z</time>
      </trkpt>
      <trkpt lat="45.57174" lon="2.83558">
        <ele>1603.7</ele>
        <time>2015-05-14T11:08:26Z</time>
      </trkpt>
      <trkpt lat="45.5719" lon="2.83572">
        <ele>1607.32</ele>
        <time>2015-05-14T11:08:49Z</time>
      </trkpt>
      <trkpt lat="45.57207" lon="2.83581">
        <ele>1611.33</ele>
        <time>2015-05-14T11:09:09Z</time>
      </trkpt>
      <trkpt lat="45.57196" lon="2.83602">
        <ele>1619.59</ele>
        <time>2015-05-14T11:10:27Z</time>
      </trkpt>
      <trkpt lat="45.57179" lon="2.83612">
        <ele>1624.58</ele>
        <time>2015-05-14T11:10:53Z</time>
      </trkpt>
      <trkpt lat="45.57163" lon="2.83625">
        <ele>1629.31</ele>
        <time>2015-05-14T11:11:19Z</time>
      </trkpt>
      <trkpt lat="45.57154" lon="2.83649">
        <ele>1634.84</ele>
        <time>2015-05-14T11:11:51Z</time>
      </trkpt>
      <trkpt lat="45.5715" lon="2.83674">
        <ele>1640.41</ele>
        <time>2015-05-14T11:12:24Z</time>
      </trkpt>
      <trkpt lat="45.57148" lon="2.83701">
        <ele>1642.68</ele>
        <time>2015-05-14T11:13:02Z</time>
      </trkpt>
      <trkpt lat="45.57152" lon="2.83726">
        <ele>1648.71</ele>
        <time>2015-05-14T11:13:40Z</time>
      </trkpt>
      <trkpt lat="45.57153" lon="2.83753">
        <ele>1652</ele>
        <time>2015-05-14T11:14:14Z</time>
      </trkpt>
      <trkpt lat="45.57154" lon="2.83779">
        <ele>1656.25</ele>
        <time>2015-05-14T11:14:44Z</time>
      </trkpt>
      <trkpt lat="45.5716" lon="2.83804">
        <ele>1661.42</ele>
        <time>2015-05-14T11:15:15Z</time>
      </trkpt>
      <trkpt lat="45.57165" lon="2.83828">
        <ele>1666.01</ele>
        <time>2015-05-14T11:15:50Z</time>
      </trkpt>
      <trkpt lat="45.57175" lon="2.83851">
        <ele>1673.03</ele>
        <time>2015-05-14T11:16:22Z</time>
      </trkpt>
      <trkpt lat="45.57179" lon="2.83876">
        <ele>1679.41</ele>
        <time>2015-05-14T11:16:52Z</time>
      </trkpt>
      <trkpt lat="45.57194" lon="2.83859">
        <ele>1685.26</ele>
        <time>2015-05-14T11:17:51Z</time>
      </trkpt>
      <trkpt lat="45.572" lon="2.83834">
        <ele>1687.67</ele>
        <time>2015-05-14T11:18:18Z</time>
      </trkpt>
      <trkpt lat="45.57208" lon="2.83811">
        <ele>1689.7</ele>
        <time>2015-05-14T11:18:43Z</time>
      </trkpt>
      <trkpt lat="45.57219" lon="2.8379">
        <ele>1692.27</ele>
        <time>2015-05-14T11:19:11Z</time>
      </trkpt>
      <trkpt lat="45.57236" lon="2.83798">
        <ele>1698.97</ele>
        <time>2015-05-14T11:20:04Z</time>
      </trkpt>
      <trkpt lat="45.57242" lon="2.83823">
        <ele>1703.23</ele>
        <time>2015-05-14T11:20:55Z</time>
      </trkpt>
      <trkpt lat="45.57247" lon="2.83848">
        <ele>1707.51</ele>
        <time>2015-05-14T11:21:20Z</time>
      </trkpt>
      <trkpt lat="45.57248" lon="2.83874">
        <ele>1715.75</ele>
        <time>2015-05-14T11:22:18Z</time>
      </trkpt>
      <trkpt lat="45.57252" lon="2.83899">
        <ele>1723.29</ele>
        <time>2015-05-14T11:23:58Z</time>
      </trkpt>
      <trkpt lat="45.57243" lon="2.83924">
        <ele>1726.89</ele>
        <time>2015-05-14T11:28:42Z</time>
      </trkpt>
      <trkpt lat="45.57258" lon="2.83909">
        <ele>1723.31</ele>
        <time>2015-05-14T11:35:15Z</time>
      </trkpt>
      <trkpt lat="45.57271" lon="2.83928">
        <ele>1725.18</ele>
        <time>2015-05-14T11:48:36Z</time>
      </trkpt>
      <trkpt lat="45.57276" lon="2.83954">
        <ele>1725.57</ele>
        <time>2015-05-14T11:49:05Z</time>
      </trkpt>
      <trkpt lat="45.57285" lon="2.83975">
        <ele>1725.93</ele>
        <time>2015-05-14T11:49:22Z</time>
      </trkpt>
      <trkpt lat="45.57296" lon="2.83997">
        <ele>1726.33</ele>
        <time>2015-05-14T11:49:39Z</time>
      </trkpt>
      <trkpt lat="45.57314" lon="2.84004">
        <ele>1726.31</ele>
        <time>2015-05-14T11:49:58Z</time>
      </trkpt>
      <trkpt lat="45.57332" lon="2.84004">
        <ele>1726.19</ele>
        <time>2015-05-14T11:50:18Z</time>
      </trkpt>
      <trkpt lat="45.5735" lon="2.84002">
        <ele>1725.89</ele>
        <time>2015-05-14T11:50:36Z</time>
      </trkpt>
      <trkpt lat="45.57369" lon="2.84">
        <ele>1725.24</ele>
        <time>2015-05-14T11:50:56Z</time>
      </trkpt>
      <trkpt lat="45.57387" lon="2.84004">
        <ele>1724.61</ele>
        <time>2015-05-14T11:51:13Z</time>
      </trkpt>
      <trkpt lat="45.57405" lon="2.84006">
        <ele>1723.72</ele>
        <time>2015-05-14T11:51:31Z</time>
      </trkpt>
      <trkpt lat="45.57423" lon="2.84">
        <ele>1721.2</ele>
        <time>2015-05-14T11:51:42Z</time>
      </trkpt>
      <trkpt lat="45.57441" lon="2.83995">
        <ele>1711.53</ele>
        <time>2015-05-14T11:51:58Z</time>
      </trkpt>
      <trkpt lat="45.57459" lon="2.83992">
        <ele>1703.85</ele>
        <time>2015-05-14T11:52:14Z</time>
      </trkpt>
      <trkpt lat="45.57477" lon="2.83984">
        <ele>1698.11</ele>
        <time>2015-05-14T11:52:29Z</time>
      </trkpt>
      <trkpt lat="45.57496" lon="2.8398">
        <ele>1693.6</ele>
        <time>2015-05-14T11:52:44Z</time>
      </trkpt>
      <trkpt lat="45.57514" lon="2.83977">
        <ele>1689.9</ele>
        <time>2015-05-14T11:52:59Z</time>
      </trkpt>
      <trkpt lat="45.57533" lon="2.83972">
        <ele>1684.85</ele>
        <time>2015-05-14T11:53:16Z</time>
      </trkpt>
      <trkpt lat="45.57552" lon="2.83968">
        <ele>1682</ele>
        <time>2015-05-14T11:53:31Z</time>
      </trkpt>
      <trkpt lat="45.57571" lon="2.83962">
        <ele>1679.06</ele>
        <time>2015-05-14T11:53:45Z</time>
      </trkpt>
      <trkpt lat="45.57589" lon="2.83958">
        <ele>1676.47</ele>
        <time>2015-05-14T11:54:01Z</time>
      </trkpt>
      <trkpt lat="45.57606" lon="2.83952">
        <ele>1674.93</ele>
        <time>2015-05-14T11:54:16Z</time>
      </trkpt>
      <trkpt lat="45.57625" lon="2.83945">
        <ele>1674.16</ele>
        <time>2015-05-14T11:54:30Z</time>
      </trkpt>
      <trkpt lat="45.57643" lon="2.83938">
        <ele>1674.66</ele>
        <time>2015-05-14T11:54:45Z</time>
      </trkpt>
      <trkpt lat="45.57661" lon="2.83934">
        <ele>1673.81</ele>
        <time>2015-05-14T11:55:01Z</time>
      </trkpt>
      <trkpt lat="45.5768" lon="2.83932">
        <ele>1672.71</ele>
        <time>2015-05-14T11:55:24Z</time>
      </trkpt>
      <trkpt lat="45.57698" lon="2.83927">
        <ele>1673.62</ele>
        <time>2015-05-14T11:55:47Z</time>
      </trkpt>
      <trkpt lat="45.57716" lon="2.83922">
        <ele>1674.47</ele>
        <time>2015-05-14T11:56:11Z</time>
      </trkpt>
      <trkpt lat="45.57734" lon="2.83918">
        <ele>1675.46</ele>
        <time>2015-05-14T11:56:33Z</time>
      </trkpt>
      <trkpt lat="45.57753" lon="2.83915">
        <ele>1678.12</ele>
        <time>2015-05-14T11:56:58Z</time>
      </trkpt>
      <trkpt lat="45.57771" lon="2.83916">
        <ele>1680.38</ele>
        <time>2015-05-14T11:57:19Z</time>
      </trkpt>
      <trkpt lat="45.57787" lon="2.8393">
        <ele>1684.37</ele>
        <time>2015-05-14T11:57:46Z</time>
      </trkpt>
      <trkpt lat="45.57803" lon="2.83945">
        <ele>1685.59</ele>
        <time>2015-05-14T11:58:02Z</time>
      </trkpt>
      <trkpt lat="45.57817" lon="2.83962">
        <ele>1690.24</ele>
        <time>2015-05-14T11:58:37Z</time>
      </trkpt>
      <trkpt lat="45.57831" lon="2.83979">
        <ele>1692.87</ele>
        <time>2015-05-14T11:58:57Z</time>
      </trkpt>
      <trkpt lat="45.57847" lon="2.83993">
        <ele>1693.49</ele>
        <time>2015-05-14T11:59:10Z</time>
      </trkpt>
      <trkpt lat="45.57862" lon="2.84008">
        <ele>1692.27</ele>
        <time>2015-05-14T11:59:26Z</time>
      </trkpt>
      <trkpt lat="45.57877" lon="2.84022">
        <ele>1688.93</ele>
        <time>2015-05-14T11:59:44Z</time>
      </trkpt>
      <trkpt lat="45.57893" lon="2.84035">
        <ele>1685.61</ele>
        <time>2015-05-14T12:00:01Z</time>
      </trkpt>
      <trkpt lat="45.57908" lon="2.84051">
        <ele>1683.18</ele>
        <time>2015-05-14T12:00:14Z</time>
      </trkpt>
      <trkpt lat="45.57926" lon="2.84062">
        <ele>1680.84</ele>
        <time>2015-05-14T12:00:36Z</time>
      </trkpt>
      <trkpt lat="45.57942" lon="2.84077">
        <ele>1679.05</ele>
        <time>2015-05-14T12:00:49Z</time>
      </trkpt>
      <trkpt lat="45.57958" lon="2.84089">
        <ele>1675.73</ele>
        <time>2015-05-14T12:01:12Z</time>
      </trkpt>
      <trkpt lat="45.57974" lon="2.84102">
        <ele>1673.04</ele>
        <time>2015-05-14T12:01:27Z</time>
      </trkpt>
      <trkpt lat="45.57992" lon="2.8411">
        <ele>1671.19</ele>
        <time>2015-05-14T12:01:41Z</time>
      </trkpt>
      <trkpt lat="45.5801" lon="2.84115">
        <ele>1667.87</ele>
        <time>2015-05-14T12:01:57Z</time>
      </trkpt>
      <trkpt lat="45.58026" lon="2.84129">
        <ele>1664.83</ele>
        <time>2015-05-14T12:02:11Z</time>
      </trkpt>
      <trkpt lat="45.5804" lon="2.84146">
        <ele>1661.77</ele>
        <time>2015-05-14T12:02:26Z</time>
      </trkpt>
      <trkpt lat="45.58052" lon="2.84166">
        <ele>1659</ele>
        <time>2015-05-14T12:02:41Z</time>
      </trkpt>
      <trkpt lat="45.58061" lon="2.84189">
        <ele>1656.16</ele>
        <time>2015-05-14T12:02:56Z</time>
      </trkpt>
      <trkpt lat="45.5807" lon="2.84214">
        <ele>1652.92</ele>
        <time>2015-05-14T12:03:11Z</time>
      </trkpt>
      <trkpt lat="45.58075" lon="2.84239">
        <ele>1649.94</ele>
        <time>2015-05-14T12:03:29Z</time>
      </trkpt>
      <trkpt lat="45.58084" lon="2.84261">
        <ele>1648.02</ele>
        <time>2015-05-14T12:03:43Z</time>
      </trkpt>
      <trkpt lat="45.58088" lon="2.84287">
        <ele>1646.36</ele>
        <time>2015-05-14T12:03:59Z</time>
      </trkpt>
      <trkpt lat="45.58093" lon="2.84312">
        <ele>1644.92</ele>
        <time>2015-05-14T12:04:14Z</time>
      </trkpt>
      <trkpt lat="45.58106" lon="2.84331">
        <ele>1642.88</ele>
        <time>2015-05-14T12:04:29Z</time>
      </trkpt>
      <trkpt lat="45.58117" lon="2.84353">
        <ele>1642.1</ele>
        <time>2015-05-14T12:04:49Z</time>
      </trkpt>
      <trkpt lat="45.58127" lon="2.84374">
        <ele>1641.41</ele>
        <time>2015-05-14T12:05:10Z</time>
      </trkpt>
      <trkpt lat="45.58136" lon="2.84397">
        <ele>1643.74</ele>
        <time>2015-05-14T12:05:31Z</time>
      </trkpt>
      <trkpt lat="45.58149" lon="2.84415">
        <ele>1645.78</ele>
        <time>2015-05-14T12:05:47Z</time>
      </trkpt>
      <trkpt lat="45.58166" lon="2.84426">
        <ele>1648.09</ele>
        <time>2015-05-14T12:06:04Z</time>
      </trkpt>
      <trkpt lat="45.58182" lon="2.84437">
        <ele>1651.19</ele>
        <time>2015-05-14T12:06:38Z</time>
      </trkpt>
      <trkpt lat="45.582" lon="2.84445">
        <ele>1652.6</ele>
        <time>2015-05-14T12:06:53Z</time>
      </trkpt>
      <trkpt lat="45.58218" lon="2.84452">
        <ele>1655.87</ele>
        <time>2015-05-14T12:07:13Z</time>
      </trkpt>
      <trkpt lat="45.58235" lon="2.84463">
        <ele>1655.79</ele>
        <time>2015-05-14T12:07:31Z</time>
      </trkpt>
      <trkpt lat="45.58246" lon="2.84485">
        <ele>1655.76</ele>
        <time>2015-05-14T12:08:09Z</time>
      </trkpt>
      <trkpt lat="45.58263" lon="2.84497">
        <ele>1659.59</ele>
        <time>2015-05-14T12:08:27Z</time>
      </trkpt>
      <trkpt lat="45.58281" lon="2.84508">
        <ele>1659.71</ele>
        <time>2015-05-14T12:08:39Z</time>
      </trkpt>
      <trkpt lat="45.58295" lon="2.84525">
        <ele>1659.53</ele>
        <time>2015-05-14T12:08:57Z</time>
      </trkpt>
      <trkpt lat="45.58312" lon="2.84537">
        <ele>1660.66</ele>
        <time>2015-05-14T12:09:20Z</time>
      </trkpt>
      <trkpt lat="45.58328" lon="2.84555">
        <ele>1659.96</ele>
        <time>2015-05-14T12:09:32Z</time>
      </trkpt>
      <trkpt lat="45.58344" lon="2.84567">
        <ele>1658.08</ele>
        <time>2015-05-14T12:09:45Z</time>
      </trkpt>
      <trkpt lat="45.58363" lon="2.84573">
        <ele>1656.64</ele>
        <time>2015-05-14T12:10:00Z</time>
      </trkpt>
      <trkpt lat="45.5838" lon="2.84566">
        <ele>1654.44</ele>
        <time>2015-05-14T12:10:18Z</time>
      </trkpt>
      <trkpt lat="45.58399" lon="2.84559">
        <ele>1653.08</ele>
        <time>2015-05-14T12:10:35Z</time>
      </trkpt>
      <trkpt lat="45.58417" lon="2.84551">
        <ele>1651.54</ele>
        <time>2015-05-14T12:10:49Z</time>
      </trkpt>
      <trkpt lat="45.58436" lon="2.84551">
        <ele>1649.44</ele>
        <time>2015-05-14T12:11:03Z</time>
      </trkpt>
      <trkpt lat="45.58454" lon="2.84559">
        <ele>1647.9</ele>
        <time>2015-05-14T12:11:18Z</time>
      </trkpt>
      <trkpt lat="45.58472" lon="2.84565">
        <ele>1646.19</ele>
        <time>2015-05-14T12:11:38Z</time>
      </trkpt>
      <trkpt lat="45.5849" lon="2.84569">
        <ele>1644.64</ele>
        <time>2015-05-14T12:11:57Z</time>
      </trkpt>
      <trkpt lat="45.58508" lon="2.84574">
        <ele>1641.51</ele>
        <time>2015-05-14T12:12:16Z</time>
      </trkpt>
      <trkpt lat="45.58526" lon="2.84579">
        <ele>1637.97</ele>
        <time>2015-05-14T12:12:42Z</time>
      </trkpt>
      <trkpt lat="45.58529" lon="2.84553">
        <ele>1632.03</ele>
        <time>2015-05-14T12:13:06Z</time>
      </trkpt>
      <trkpt lat="45.58524" lon="2.84527">
        <ele>1624.42</ele>
        <time>2015-05-14T12:14:02Z</time>
      </trkpt>
      <trkpt lat="45.58542" lon="2.84529">
        <ele>1620.09</ele>
        <time>2015-05-14T12:14:25Z</time>
      </trkpt>
      <trkpt lat="45.58544" lon="2.84503">
        <ele>1618.88</ele>
        <time>2015-05-14T12:14:55Z</time>
      </trkpt>
      <trkpt lat="45.58533" lon="2.8448">
        <ele>1614.74</ele>
        <time>2015-05-14T12:15:13Z</time>
      </trkpt>
      <trkpt lat="45.58553" lon="2.84478">
        <ele>1607.51</ele>
        <time>2015-05-14T12:15:41Z</time>
      </trkpt>
      <trkpt lat="45.58571" lon="2.84485">
        <ele>1603.67</ele>
        <time>2015-05-14T12:16:00Z</time>
      </trkpt>
      <trkpt lat="45.58589" lon="2.8449">
        <ele>1601.25</ele>
        <time>2015-05-14T12:16:13Z</time>
      </trkpt>
      <trkpt lat="45.58609" lon="2.84494">
        <ele>1597.7</ele>
        <time>2015-05-14T12:16:27Z</time>
      </trkpt>
      <trkpt lat="45.58626" lon="2.84501">
        <ele>1594.57</ele>
        <time>2015-05-14T12:16:42Z</time>
      </trkpt>
      <trkpt lat="45.58646" lon="2.84507">
        <ele>1593.68</ele>
        <time>2015-05-14T12:16:55Z</time>
      </trkpt>
      <trkpt lat="45.58665" lon="2.84513">
        <ele>1591.57</ele>
        <time>2015-05-14T12:17:06Z</time>
      </trkpt>
      <trkpt lat="45.58683" lon="2.84513">
        <ele>1587.29</ele>
        <time>2015-05-14T12:17:20Z</time>
      </trkpt>
      <trkpt lat="45.58702" lon="2.84513">
        <ele>1583.33</ele>
        <time>2015-05-14T12:17:35Z</time>
      </trkpt>
      <trkpt lat="45.58721" lon="2.84515">
        <ele>1578.26</ele>
        <time>2015-05-14T12:17:51Z</time>
      </trkpt>
      <trkpt lat="45.5874" lon="2.84513">
        <ele>1573.6</ele>
        <time>2015-05-14T12:18:06Z</time>
      </trkpt>
      <trkpt lat="45.58758" lon="2.84509">
        <ele>1568.99</ele>
        <time>2015-05-14T12:18:23Z</time>
      </trkpt>
      <trkpt lat="45.58776" lon="2.84506">
        <ele>1565.66</ele>
        <time>2015-05-14T12:18:38Z</time>
      </trkpt>
      <trkpt lat="45.58794" lon="2.84502">
        <ele>1562.4</ele>
        <time>2015-05-14T12:19:03Z</time>
      </trkpt>
      <trkpt lat="45.58812" lon="2.84495">
        <ele>1562.89</ele>
        <time>2015-05-14T12:19:31Z</time>
      </trkpt>
      <trkpt lat="45.58829" lon="2.84488">
        <ele>1566.35</ele>
        <time>2015-05-14T12:20:11Z</time>
      </trkpt>
      <trkpt lat="45.58848" lon="2.84487">
        <ele>1571.23</ele>
        <time>2015-05-14T12:20:39Z</time>
      </trkpt>
      <trkpt lat="45.58866" lon="2.84489">
        <ele>1574.73</ele>
        <time>2015-05-14T12:21:03Z</time>
      </trkpt>
      <trkpt lat="45.58884" lon="2.84485">
        <ele>1577.14</ele>
        <time>2015-05-14T12:21:28Z</time>
      </trkpt>
      <trkpt lat="45.58902" lon="2.84482">
        <ele>1581.07</ele>
        <time>2015-05-14T12:21:55Z</time>
      </trkpt>
      <trkpt lat="45.5892" lon="2.84487">
        <ele>1584.17</ele>
        <time>2015-05-14T12:22:25Z</time>
      </trkpt>
      <trkpt lat="45.58938" lon="2.84492">
        <ele>1587.05</ele>
        <time>2015-05-14T12:23:15Z</time>
      </trkpt>
      <trkpt lat="45.58956" lon="2.84496">
        <ele>1589.19</ele>
        <time>2015-05-14T12:23:34Z</time>
      </trkpt>
      <trkpt lat="45.58971" lon="2.84512">
        <ele>1591.46</ele>
        <time>2015-05-14T12:23:54Z</time>
      </trkpt>
      <trkpt lat="45.58983" lon="2.84533">
        <ele>1593.69</ele>
        <time>2015-05-14T12:24:19Z</time>
      </trkpt>
      <trkpt lat="45.58998" lon="2.84547">
        <ele>1597.57</ele>
        <time>2015-05-14T12:24:40Z</time>
      </trkpt>
      <trkpt lat="45.59013" lon="2.84564">
        <ele>1599.81</ele>
        <time>2015-05-14T12:24:59Z</time>
      </trkpt>
      <trkpt lat="45.59026" lon="2.84581">
        <ele>1602.08</ele>
        <time>2015-05-14T12:25:14Z</time>
      </trkpt>
      <trkpt lat="45.59041" lon="2.84596">
        <ele>1604.45</ele>
        <time>2015-05-14T12:25:32Z</time>
      </trkpt>
      <trkpt lat="45.59059" lon="2.84601">
        <ele>1604.91</ele>
        <time>2015-05-14T12:25:45Z</time>
      </trkpt>
      <trkpt lat="45.59077" lon="2.846">
        <ele>1604.88</ele>
        <time>2015-05-14T12:26:04Z</time>
      </trkpt>
      <trkpt lat="45.59096" lon="2.84601">
        <ele>1605.05</ele>
        <time>2015-05-14T12:26:23Z</time>
      </trkpt>
      <trkpt lat="45.59114" lon="2.84599">
        <ele>1606.87</ele>
        <time>2015-05-14T12:26:51Z</time>
      </trkpt>
      <trkpt lat="45.59132" lon="2.84594">
        <ele>1607.26</ele>
        <time>2015-05-14T12:27:10Z</time>
      </trkpt>
      <trkpt lat="45.5915" lon="2.84589">
        <ele>1608.2</ele>
        <time>2015-05-14T12:27:30Z</time>
      </trkpt>
      <trkpt lat="45.59168" lon="2.84586">
        <ele>1609.54</ele>
        <time>2015-05-14T12:27:45Z</time>
      </trkpt>
      <trkpt lat="45.59183" lon="2.84572">
        <ele>1612.17</ele>
        <time>2015-05-14T12:28:10Z</time>
      </trkpt>
      <trkpt lat="45.59193" lon="2.8455">
        <ele>1616.41</ele>
        <time>2015-05-14T12:28:37Z</time>
      </trkpt>
      <trkpt lat="45.59191" lon="2.84544">
        <ele>1623.89</ele>
        <time>2015-05-14T12:33:23Z</time>
      </trkpt>
      <trkpt lat="45.5919" lon="2.84545">
        <ele>1603.7</ele>
        <time>2015-05-14T12:34:43Z</time>
      </trkpt>
      <trkpt lat="45.59193" lon="2.84537">
        <ele>1615.8</ele>
        <time>2015-05-14T12:35:50Z</time>
      </trkpt>
      <trkpt lat="45.59202" lon="2.84515">
        <ele>1626.34</ele>
        <time>2015-05-14T12:40:03Z</time>
      </trkpt>
      <trkpt lat="45.59212" lon="2.84494">
        <ele>1625.23</ele>
        <time>2015-05-14T12:40:26Z</time>
      </trkpt>
      <trkpt lat="45.59222" lon="2.84472">
        <ele>1624.09</ele>
        <time>2015-05-14T12:40:55Z</time>
      </trkpt>
      <trkpt lat="45.59233" lon="2.84452">
        <ele>1623.61</ele>
        <time>2015-05-14T12:41:10Z</time>
      </trkpt>
      <trkpt lat="45.59247" lon="2.84433">
        <ele>1622.71</ele>
        <time>2015-05-14T12:41:25Z</time>
      </trkpt>
      <trkpt lat="45.59261" lon="2.84418">
        <ele>1621.62</ele>
        <time>2015-05-14T12:41:41Z</time>
      </trkpt>
      <trkpt lat="45.59271" lon="2.84395">
        <ele>1618.7</ele>
        <time>2015-05-14T12:42:00Z</time>
      </trkpt>
      <trkpt lat="45.59287" lon="2.84384">
        <ele>1611.92</ele>
        <time>2015-05-14T12:42:34Z</time>
      </trkpt>
      <trkpt lat="45.59303" lon="2.84367">
        <ele>1604.7</ele>
        <time>2015-05-14T12:43:10Z</time>
      </trkpt>
      <trkpt lat="45.59308" lon="2.84342">
        <ele>1598.75</ele>
        <time>2015-05-14T12:43:35Z</time>
      </trkpt>
      <trkpt lat="45.59314" lon="2.84317">
        <ele>1596.27</ele>
        <time>2015-05-14T12:43:45Z</time>
      </trkpt>
      <trkpt lat="45.59327" lon="2.84297">
        <ele>1592.43</ele>
        <time>2015-05-14T12:44:00Z</time>
      </trkpt>
      <trkpt lat="45.59344" lon="2.84287">
        <ele>1584.01</ele>
        <time>2015-05-14T12:44:26Z</time>
      </trkpt>
      <trkpt lat="45.59347" lon="2.84261">
        <ele>1578.11</ele>
        <time>2015-05-14T12:44:43Z</time>
      </trkpt>
      <trkpt lat="45.59365" lon="2.84269">
        <ele>1572.53</ele>
        <time>2015-05-14T12:45:04Z</time>
      </trkpt>
      <trkpt lat="45.59378" lon="2.84289">
        <ele>1566.96</ele>
        <time>2015-05-14T12:45:23Z</time>
      </trkpt>
      <trkpt lat="45.59382" lon="2.84316">
        <ele>1563.4</ele>
        <time>2015-05-14T12:45:39Z</time>
      </trkpt>
      <trkpt lat="45.59388" lon="2.8434">
        <ele>1560.28</ele>
        <time>2015-05-14T12:46:00Z</time>
      </trkpt>
      <trkpt lat="45.59388" lon="2.84366">
        <ele>1557.36</ele>
        <time>2015-05-14T12:46:46Z</time>
      </trkpt>
      <trkpt lat="45.5939" lon="2.84392">
        <ele>1554.92</ele>
        <time>2015-05-14T12:47:02Z</time>
      </trkpt>
      <trkpt lat="45.59386" lon="2.84419">
        <ele>1551.58</ele>
        <time>2015-05-14T12:47:24Z</time>
      </trkpt>
      <trkpt lat="45.59386" lon="2.84445">
        <ele>1547.02</ele>
        <time>2015-05-14T12:48:57Z</time>
      </trkpt>
      <trkpt lat="45.59386" lon="2.84472">
        <ele>1544.85</ele>
        <time>2015-05-14T12:49:12Z</time>
      </trkpt>
      <trkpt lat="45.59404" lon="2.84463">
        <ele>1536.21</ele>
        <time>2015-05-14T12:50:12Z</time>
      </trkpt>
      <trkpt lat="45.59415" lon="2.84441">
        <ele>1533.4</ele>
        <time>2015-05-14T12:50:29Z</time>
      </trkpt>
      <trkpt lat="45.59426" lon="2.84421">
        <ele>1530.33</ele>
        <time>2015-05-14T12:50:44Z</time>
      </trkpt>
      <trkpt lat="45.59433" lon="2.84397">
        <ele>1527.51</ele>
        <time>2015-05-14T12:51:05Z</time>
      </trkpt>
      <trkpt lat="45.59444" lon="2.84376">
        <ele>1525.62</ele>
        <time>2015-05-14T12:51:16Z</time>
      </trkpt>
      <trkpt lat="45.59457" lon="2.84396">
        <ele>1521.6</ele>
        <time>2015-05-14T12:51:39Z</time>
      </trkpt>
      <trkpt lat="45.59458" lon="2.84422">
        <ele>1518.89</ele>
        <time>2015-05-14T12:51:51Z</time>
      </trkpt>
      <trkpt lat="45.59457" lon="2.84448">
        <ele>1516.32</ele>
        <time>2015-05-14T12:52:03Z</time>
      </trkpt>
      <trkpt lat="45.59456" lon="2.84475">
        <ele>1512.39</ele>
        <time>2015-05-14T12:52:17Z</time>
      </trkpt>
      <trkpt lat="45.59458" lon="2.84502">
        <ele>1509.14</ele>
        <time>2015-05-14T12:52:33Z</time>
      </trkpt>
      <trkpt lat="45.59461" lon="2.84529">
        <ele>1506.32</ele>
        <time>2015-05-14T12:52:45Z</time>
      </trkpt>
      <trkpt lat="45.59463" lon="2.84555">
        <ele>1503.46</ele>
        <time>2015-05-14T12:52:58Z</time>
      </trkpt>
      <trkpt lat="45.59457" lon="2.8458">
        <ele>1500.62</ele>
        <time>2015-05-14T12:53:11Z</time>
      </trkpt>
      <trkpt lat="45.59453" lon="2.84605">
        <ele>1496.71</ele>
        <time>2015-05-14T12:53:24Z</time>
      </trkpt>
      <trkpt lat="45.59453" lon="2.84631">
        <ele>1493.44</ele>
        <time>2015-05-14T12:53:37Z</time>
      </trkpt>
      <trkpt lat="45.59454" lon="2.84659">
        <ele>1489.97</ele>
        <time>2015-05-14T12:53:52Z</time>
      </trkpt>
      <trkpt lat="45.59453" lon="2.84684">
        <ele>1486.74</ele>
        <time>2015-05-14T12:54:05Z</time>
      </trkpt>
      <trkpt lat="45.59457" lon="2.84711">
        <ele>1484.14</ele>
        <time>2015-05-14T12:54:19Z</time>
      </trkpt>
      <trkpt lat="45.59474" lon="2.84719">
        <ele>1477.1</ele>
        <time>2015-05-14T12:54:47Z</time>
      </trkpt>
      <trkpt lat="45.5949" lon="2.84708">
        <ele>1469.86</ele>
        <time>2015-05-14T12:55:12Z</time>
      </trkpt>
      <trkpt lat="45.59507" lon="2.84695">
        <ele>1463.45</ele>
        <time>2015-05-14T12:55:32Z</time>
      </trkpt>
      <trkpt lat="45.59519" lon="2.84714">
        <ele>1458.94</ele>
        <time>2015-05-14T12:55:51Z</time>
      </trkpt>
      <trkpt lat="45.59523" lon="2.8474">
        <ele>1453.97</ele>
        <time>2015-05-14T12:56:08Z</time>
      </trkpt>
      <trkpt lat="45.59531" lon="2.84764">
        <ele>1449.74</ele>
        <time>2015-05-14T12:56:21Z</time>
      </trkpt>
      <trkpt lat="45.59541" lon="2.84786">
        <ele>1446.35</ele>
        <time>2015-05-14T12:56:34Z</time>
      </trkpt>
      <trkpt lat="45.59551" lon="2.84809">
        <ele>1441.49</ele>
        <time>2015-05-14T12:56:50Z</time>
      </trkpt>
      <trkpt lat="45.59556" lon="2.84834">
        <ele>1437.95</ele>
        <time>2015-05-14T12:57:04Z</time>
      </trkpt>
      <trkpt lat="45.59564" lon="2.84859">
        <ele>1432.19</ele>
        <time>2015-05-14T12:57:24Z</time>
      </trkpt>
      <trkpt lat="45.59577" lon="2.84879">
        <ele>1425.46</ele>
        <time>2015-05-14T12:57:45Z</time>
      </trkpt>
      <trkpt lat="45.59587" lon="2.84901">
        <ele>1421.53</ele>
        <time>2015-05-14T12:57:59Z</time>
      </trkpt>
      <trkpt lat="45.59599" lon="2.84921">
        <ele>1416.11</ele>
        <time>2015-05-14T12:58:16Z</time>
      </trkpt>
      <trkpt lat="45.59614" lon="2.84937">
        <ele>1411.98</ele>
        <time>2015-05-14T12:58:31Z</time>
      </trkpt>
      <trkpt lat="45.59627" lon="2.84955">
        <ele>1408.24</ele>
        <time>2015-05-14T12:58:46Z</time>
      </trkpt>
      <trkpt lat="45.59639" lon="2.84975">
        <ele>1405.53</ele>
        <time>2015-05-14T12:59:00Z</time>
      </trkpt>
      <trkpt lat="45.59651" lon="2.84995">
        <ele>1403.07</ele>
        <time>2015-05-14T12:59:18Z</time>
      </trkpt>
      <trkpt lat="45.59661" lon="2.85018">
        <ele>1401.91</ele>
        <time>2015-05-14T12:59:34Z</time>
      </trkpt>
      <trkpt lat="45.59675" lon="2.85035">
        <ele>1400.61</ele>
        <time>2015-05-14T13:00:09Z</time>
      </trkpt>
      <trkpt lat="45.59687" lon="2.85055">
        <ele>1400.23</ele>
        <time>2015-05-14T13:00:27Z</time>
      </trkpt>
      <trkpt lat="45.59685" lon="2.8508">
        <ele>1399.97</ele>
        <time>2015-05-14T13:00:42Z</time>
      </trkpt>
      <trkpt lat="45.59688" lon="2.85107">
        <ele>1400.2</ele>
        <time>2015-05-14T13:00:56Z</time>
      </trkpt>
      <trkpt lat="45.59688" lon="2.85134">
        <ele>1400.2</ele>
        <time>2015-05-14T13:01:12Z</time>
      </trkpt>
      <trkpt lat="45.59675" lon="2.85153">
        <ele>1399.8</ele>
        <time>2015-05-14T13:01:27Z</time>
      </trkpt>
      <trkpt lat="45.59689" lon="2.85136">
        <ele>1398.69</ele>
        <time>2015-05-14T13:16:26Z</time>
      </trkpt>
      <trkpt lat="45.59698" lon="2.85113">
        <ele>1398.84</ele>
        <time>2015-05-14T13:16:40Z</time>
      </trkpt>
      <trkpt lat="45.5971" lon="2.85093">
        <ele>1399.24</ele>
        <time>2015-05-14T13:16:56Z</time>
      </trkpt>
      <trkpt lat="45.5972" lon="2.85071">
        <ele>1400.07</ele>
        <time>2015-05-14T13:17:11Z</time>
      </trkpt>
      <trkpt lat="45.5973" lon="2.85049">
        <ele>1399.87</ele>
        <time>2015-05-14T13:17:23Z</time>
      </trkpt>
      <trkpt lat="45.59739" lon="2.85027">
        <ele>1399.62</ele>
        <time>2015-05-14T13:17:37Z</time>
      </trkpt>
      <trkpt lat="45.59748" lon="2.85003">
        <ele>1398.94</ele>
        <time>2015-05-14T13:17:54Z</time>
      </trkpt>
      <trkpt lat="45.59757" lon="2.8498">
        <ele>1398.27</ele>
        <time>2015-05-14T13:18:08Z</time>
      </trkpt>
      <trkpt lat="45.59765" lon="2.84955">
        <ele>1396.13</ele>
        <time>2015-05-14T13:18:43Z</time>
      </trkpt>
      <trkpt lat="45.59771" lon="2.8493">
        <ele>1395.01</ele>
        <time>2015-05-14T13:19:01Z</time>
      </trkpt>
      <trkpt lat="45.59782" lon="2.84907">
        <ele>1393.6</ele>
        <time>2015-05-14T13:19:11Z</time>
      </trkpt>
      <trkpt lat="45.59789" lon="2.84883">
        <ele>1391.18</ele>
        <time>2015-05-14T13:19:25Z</time>
      </trkpt>
      <trkpt lat="45.598" lon="2.84862">
        <ele>1389.13</ele>
        <time>2015-05-14T13:19:38Z</time>
      </trkpt>
      <trkpt lat="45.59811" lon="2.84841">
        <ele>1388.07</ele>
        <time>2015-05-14T13:19:53Z</time>
      </trkpt>
      <trkpt lat="45.59819" lon="2.84817">
        <ele>1387.45</ele>
        <time>2015-05-14T13:20:06Z</time>
      </trkpt>
      <trkpt lat="45.59829" lon="2.84794">
        <ele>1386.63</ele>
        <time>2015-05-14T13:20:20Z</time>
      </trkpt>
      <trkpt lat="45.59839" lon="2.8477">
        <ele>1386.03</ele>
        <time>2015-05-14T13:20:31Z</time>
      </trkpt>
      <trkpt lat="45.59849" lon="2.84748">
        <ele>1385.01</ele>
        <time>2015-05-14T13:20:42Z</time>
      </trkpt>
      <trkpt lat="45.59858" lon="2.84724">
        <ele>1384.01</ele>
        <time>2015-05-14T13:20:54Z</time>
      </trkpt>
      <trkpt lat="45.59867" lon="2.84701">
        <ele>1381.94</ele>
        <time>2015-05-14T13:21:09Z</time>
      </trkpt>
      <trkpt lat="45.59874" lon="2.84677">
        <ele>1380.28</ele>
        <time>2015-05-14T13:21:23Z</time>
      </trkpt>
      <trkpt lat="45.59883" lon="2.84652">
        <ele>1378.54</ele>
        <time>2015-05-14T13:21:38Z</time>
      </trkpt>
      <trkpt lat="45.59892" lon="2.84629">
        <ele>1376.22</ele>
        <time>2015-05-14T13:21:52Z</time>
      </trkpt>
      <trkpt lat="45.59901" lon="2.84606">
        <ele>1374.83</ele>
        <time>2015-05-14T13:22:06Z</time>
      </trkpt>
      <trkpt lat="45.59911" lon="2.84583">
        <ele>1373.72</ele>
        <time>2015-05-14T13:22:20Z</time>
      </trkpt>
      <trkpt lat="45.5992" lon="2.84557">
        <ele>1372.38</ele>
        <time>2015-05-14T13:22:35Z</time>
      </trkpt>
      <trkpt lat="45.59929" lon="2.84535">
        <ele>1370.8</ele>
        <time>2015-05-14T13:22:46Z</time>
      </trkpt>
      <trkpt lat="45.59938" lon="2.84512">
        <ele>1368.72</ele>
        <time>2015-05-14T13:23:00Z</time>
      </trkpt>
      <trkpt lat="45.59955" lon="2.8452">
        <ele>1365.44</ele>
        <time>2015-05-14T13:23:22Z</time>
      </trkpt>
      <trkpt lat="45.59972" lon="2.84528">
        <ele>1362.93</ele>
        <time>2015-05-14T13:23:59Z</time>
      </trkpt>
      <trkpt lat="45.59986" lon="2.84509">
        <ele>1361.35</ele>
        <time>2015-05-14T13:24:13Z</time>
      </trkpt>
      <trkpt lat="45.59998" lon="2.84489">
        <ele>1359.53</ele>
        <time>2015-05-14T13:24:26Z</time>
      </trkpt>
      <trkpt lat="45.60013" lon="2.8447">
        <ele>1358.41</ele>
        <time>2015-05-14T13:24:40Z</time>
      </trkpt>
      <trkpt lat="45.60024" lon="2.84448">
        <ele>1357.78</ele>
        <time>2015-05-14T13:24:53Z</time>
      </trkpt>
      <trkpt lat="45.60028" lon="2.84421">
        <ele>1355.72</ele>
        <time>2015-05-14T13:25:07Z</time>
      </trkpt>
      <trkpt lat="45.60038" lon="2.84399">
        <ele>1352.49</ele>
        <time>2015-05-14T13:25:28Z</time>
      </trkpt>
      <trkpt lat="45.60052" lon="2.84382">
        <ele>1350.97</ele>
        <time>2015-05-14T13:25:41Z</time>
      </trkpt>
      <trkpt lat="45.60053" lon="2.84355">
        <ele>1347.49</ele>
        <time>2015-05-14T13:26:02Z</time>
      </trkpt>
      <trkpt lat="45.60055" lon="2.84328">
        <ele>1345.9</ele>
        <time>2015-05-14T13:26:20Z</time>
      </trkpt>
      <trkpt lat="45.60051" lon="2.84303">
        <ele>1344.34</ele>
        <time>2015-05-14T13:26:35Z</time>
      </trkpt>
      <trkpt lat="45.60042" lon="2.84281">
        <ele>1342.12</ele>
        <time>2015-05-14T13:26:56Z</time>
      </trkpt>
      <trkpt lat="45.60057" lon="2.84266">
        <ele>1337.62</ele>
        <time>2015-05-14T13:27:16Z</time>
      </trkpt>
      <trkpt lat="45.60067" lon="2.84243">
        <ele>1334.69</ele>
        <time>2015-05-14T13:27:32Z</time>
      </trkpt>
      <trkpt lat="45.60082" lon="2.84227">
        <ele>1332.28</ele>
        <time>2015-05-14T13:27:48Z</time>
      </trkpt>
      <trkpt lat="45.60078" lon="2.84201">
        <ele>1326.32</ele>
        <time>2015-05-14T13:28:11Z</time>
      </trkpt>
      <trkpt lat="45.60074" lon="2.84175">
        <ele>1320.64</ele>
        <time>2015-05-14T13:28:29Z</time>
      </trkpt>
      <trkpt lat="45.60073" lon="2.84149">
        <ele>1320.62</ele>
        <time>2015-05-14T13:28:40Z</time>
      </trkpt>
      <trkpt lat="45.60074" lon="2.84122">
        <ele>1320.79</ele>
        <time>2015-05-14T13:28:50Z</time>
      </trkpt>
      <trkpt lat="45.6008" lon="2.84098">
        <ele>1321.06</ele>
        <time>2015-05-14T13:29:03Z</time>
      </trkpt>
      <trkpt lat="45.60087" lon="2.84071">
        <ele>1320.67</ele>
        <time>2015-05-14T13:29:21Z</time>
      </trkpt>
      <trkpt lat="45.60087" lon="2.84044">
        <ele>1317.48</ele>
        <time>2015-05-14T13:29:40Z</time>
      </trkpt>
      <trkpt lat="45.6008" lon="2.84018">
        <ele>1315.77</ele>
        <time>2015-05-14T13:29:56Z</time>
      </trkpt>
      <trkpt lat="45.60073" lon="2.83993">
        <ele>1315.66</ele>
        <time>2015-05-14T13:30:13Z</time>
      </trkpt>
      <trkpt lat="45.60065" lon="2.83969">
        <ele>1311.43</ele>
        <time>2015-05-14T13:30:36Z</time>
      </trkpt>
      <trkpt lat="45.6006" lon="2.83944">
        <ele>1307.23</ele>
        <time>2015-05-14T13:30:51Z</time>
      </trkpt>
      <trkpt lat="45.60054" lon="2.83918">
        <ele>1304.03</ele>
        <time>2015-05-14T13:31:08Z</time>
      </trkpt>
      <trkpt lat="45.6006" lon="2.83892">
        <ele>1302.18</ele>
        <time>2015-05-14T13:31:19Z</time>
      </trkpt>
      <trkpt lat="45.6006" lon="2.83865">
        <ele>1303.04</ele>
        <time>2015-05-14T13:31:31Z</time>
      </trkpt>
      <trkpt lat="45.60048" lon="2.83843">
        <ele>1306.15</ele>
        <time>2015-05-14T13:31:45Z</time>
      </trkpt>
      <trkpt lat="45.60043" lon="2.83818">
        <ele>1306.15</ele>
        <time>2015-05-14T13:32:02Z</time>
      </trkpt>
      <trkpt lat="45.60036" lon="2.83794">
        <ele>1304.6</ele>
        <time>2015-05-14T13:32:16Z</time>
      </trkpt>
      <trkpt lat="45.60031" lon="2.83769">
        <ele>1300.05</ele>
        <time>2015-05-14T13:32:32Z</time>
      </trkpt>
      <trkpt lat="45.60033" lon="2.83741">
        <ele>1296.69</ele>
        <time>2015-05-14T13:32:49Z</time>
      </trkpt>
      <trkpt lat="45.60031" lon="2.83713">
        <ele>1298.05</ele>
        <time>2015-05-14T13:32:59Z</time>
      </trkpt>
      <trkpt lat="45.6003" lon="2.83686">
        <ele>1302.4</ele>
        <time>2015-05-14T13:33:09Z</time>
      </trkpt>
      <trkpt lat="45.60022" lon="2.83662">
        <ele>1306.26</ele>
        <time>2015-05-14T13:33:20Z</time>
      </trkpt>
      <trkpt lat="45.60013" lon="2.8364">
        <ele>1309.44</ele>
        <time>2015-05-14T13:33:41Z</time>
      </trkpt>
      <trkpt lat="45.60009" lon="2.83613">
        <ele>1306.87</ele>
        <time>2015-05-14T13:34:01Z</time>
      </trkpt>
      <trkpt lat="45.6" lon="2.83588">
        <ele>1305.5</ele>
        <time>2015-05-14T13:34:15Z</time>
      </trkpt>
      <trkpt lat="45.59991" lon="2.83564">
        <ele>1302.98</ele>
        <time>2015-05-14T13:34:29Z</time>
      </trkpt>
      <trkpt lat="45.59982" lon="2.83541">
        <ele>1300.22</ele>
        <time>2015-05-14T13:34:41Z</time>
      </trkpt>
      <trkpt lat="45.59972" lon="2.8352">
        <ele>1297.97</ele>
        <time>2015-05-14T13:34:55Z</time>
      </trkpt>
      <trkpt lat="45.59962" lon="2.83497">
        <ele>1293.13</ele>
        <time>2015-05-14T13:35:10Z</time>
      </trkpt>
      <trkpt lat="45.59957" lon="2.8347">
        <ele>1291</ele>
        <time>2015-05-14T13:35:24Z</time>
      </trkpt>
      <trkpt lat="45.59952" lon="2.83444">
        <ele>1291.01</ele>
        <time>2015-05-14T13:35:39Z</time>
      </trkpt>
      <trkpt lat="45.59943" lon="2.83421">
        <ele>1290.95</ele>
        <time>2015-05-14T13:35:52Z</time>
      </trkpt>
      <trkpt lat="45.59933" lon="2.83398">
        <ele>1287.82</ele>
        <time>2015-05-14T13:36:09Z</time>
      </trkpt>
      <trkpt lat="45.59923" lon="2.83376">
        <ele>1285.98</ele>
        <time>2015-05-14T13:36:23Z</time>
      </trkpt>
      <trkpt lat="45.59915" lon="2.83352">
        <ele>1282.79</ele>
        <time>2015-05-14T13:36:40Z</time>
      </trkpt>
      <trkpt lat="45.59907" lon="2.83329">
        <ele>1279.07</ele>
        <time>2015-05-14T13:36:56Z</time>
      </trkpt>
      <trkpt lat="45.59898" lon="2.83304">
        <ele>1275.66</ele>
        <time>2015-05-14T13:37:22Z</time>
      </trkpt>
      <trkpt lat="45.5989" lon="2.8328">
        <ele>1274.24</ele>
        <time>2015-05-14T13:37:36Z</time>
      </trkpt>
      <trkpt lat="45.59882" lon="2.83256">
        <ele>1272.11</ele>
        <time>2015-05-14T13:37:50Z</time>
      </trkpt>
      <trkpt lat="45.59873" lon="2.83232">
        <ele>1269.05</ele>
        <time>2015-05-14T13:38:05Z</time>
      </trkpt>
      <trkpt lat="45.59864" lon="2.83209">
        <ele>1265.06</ele>
        <time>2015-05-14T13:38:21Z</time>
      </trkpt>
      <trkpt lat="45.59853" lon="2.83186">
        <ele>1261.81</ele>
        <time>2015-05-14T13:38:34Z</time>
      </trkpt>
      <trkpt lat="45.59845" lon="2.83161">
        <ele>1259.6</ele>
        <time>2015-05-14T13:38:49Z</time>
      </trkpt>
      <trkpt lat="45.59835" lon="2.83139">
        <ele>1258.31</ele>
        <time>2015-05-14T13:39:02Z</time>
      </trkpt>
      <trkpt lat="45.5982" lon="2.83122">
        <ele>1257.56</ele>
        <time>2015-05-14T13:39:15Z</time>
      </trkpt>
      <trkpt lat="45.59803" lon="2.8311">
        <ele>1256.13</ele>
        <time>2015-05-14T13:39:30Z</time>
      </trkpt>
      <trkpt lat="45.59784" lon="2.83107">
        <ele>1254.65</ele>
        <time>2015-05-14T13:39:45Z</time>
      </trkpt>
      <trkpt lat="45.59765" lon="2.83109">
        <ele>1253.47</ele>
        <time>2015-05-14T13:40:00Z</time>
      </trkpt>
      <trkpt lat="45.59748" lon="2.83105">
        <ele>1252.65</ele>
        <time>2015-05-14T13:40:14Z</time>
      </trkpt>
      <trkpt lat="45.59747" lon="2.83078">
        <ele>1251.37</ele>
        <time>2015-05-14T13:40:31Z</time>
      </trkpt>
      <trkpt lat="45.59757" lon="2.83055">
        <ele>1250.01</ele>
        <time>2015-05-14T13:40:44Z</time>
      </trkpt>
      <trkpt lat="45.59766" lon="2.83032">
        <ele>1247.95</ele>
        <time>2015-05-14T13:40:59Z</time>
      </trkpt>
      <trkpt lat="45.59776" lon="2.83009">
        <ele>1245.34</ele>
        <time>2015-05-14T13:41:13Z</time>
      </trkpt>
      <trkpt lat="45.59783" lon="2.82984">
        <ele>1242.31</ele>
        <time>2015-05-14T13:41:28Z</time>
      </trkpt>
      <trkpt lat="45.59784" lon="2.82958">
        <ele>1239.56</ele>
        <time>2015-05-14T13:41:47Z</time>
      </trkpt>
      <trkpt lat="45.59777" lon="2.82933">
        <ele>1237.79</ele>
        <time>2015-05-14T13:42:13Z</time>
      </trkpt>
      <trkpt lat="45.59766" lon="2.82912">
        <ele>1236.8</ele>
        <time>2015-05-14T13:42:27Z</time>
      </trkpt>
      <trkpt lat="45.59754" lon="2.82893">
        <ele>1235.46</ele>
        <time>2015-05-14T13:42:42Z</time>
      </trkpt>
      <trkpt lat="45.59741" lon="2.82875">
        <ele>1233.94</ele>
        <time>2015-05-14T13:42:55Z</time>
      </trkpt>
      <trkpt lat="45.59726" lon="2.82859">
        <ele>1232.52</ele>
        <time>2015-05-14T13:43:09Z</time>
      </trkpt>
      <trkpt lat="45.59711" lon="2.82844">
        <ele>1231.78</ele>
        <time>2015-05-14T13:43:24Z</time>
      </trkpt>
      <trkpt lat="45.59698" lon="2.82825">
        <ele>1229.84</ele>
        <time>2015-05-14T13:43:38Z</time>
      </trkpt>
      <trkpt lat="45.59686" lon="2.82804">
        <ele>1228.31</ele>
        <time>2015-05-14T13:43:52Z</time>
      </trkpt>
      <trkpt lat="45.59672" lon="2.82785">
        <ele>1227.18</ele>
        <time>2015-05-14T13:44:05Z</time>
      </trkpt>
      <trkpt lat="45.59658" lon="2.82767">
        <ele>1226.41</ele>
        <time>2015-05-14T13:44:18Z</time>
      </trkpt>
      <trkpt lat="45.59646" lon="2.82747">
        <ele>1225.82</ele>
        <time>2015-05-14T13:44:34Z</time>
      </trkpt>
      <trkpt lat="45.59635" lon="2.82726">
        <ele>1223.23</ele>
        <time>2015-05-14T13:44:51Z</time>
      </trkpt>
      <trkpt lat="45.59624" lon="2.82705">
        <ele>1219.25</ele>
        <time>2015-05-14T13:45:07Z</time>
      </trkpt>
      <trkpt lat="45.59614" lon="2.82683">
        <ele>1216.2</ele>
        <time>2015-05-14T13:45:21Z</time>
      </trkpt>
      <trkpt lat="45.59604" lon="2.82661">
        <ele>1212.36</ele>
        <time>2015-05-14T13:45:36Z</time>
      </trkpt>
      <trkpt lat="45.59593" lon="2.8264">
        <ele>1209.7</ele>
        <time>2015-05-14T13:45:49Z</time>
      </trkpt>
      <trkpt lat="45.59583" lon="2.82618">
        <ele>1207.1</ele>
        <time>2015-05-14T13:46:03Z</time>
      </trkpt>
      <trkpt lat="45.59573" lon="2.82595">
        <ele>1205.29</ele>
        <time>2015-05-14T13:46:18Z</time>
      </trkpt>
      <trkpt lat="45.5956" lon="2.82577">
        <ele>1203.3</ele>
        <time>2015-05-14T13:46:33Z</time>
      </trkpt>
      <trkpt lat="45.59548" lon="2.82555">
        <ele>1201.09</ele>
        <time>2015-05-14T13:46:47Z</time>
      </trkpt>
      <trkpt lat="45.59538" lon="2.82534">
        <ele>1198.75</ele>
        <time>2015-05-14T13:47:02Z</time>
      </trkpt>
      <trkpt lat="45.59522" lon="2.82517">
        <ele>1193.67</ele>
        <time>2015-05-14T13:47:21Z</time>
      </trkpt>
      <trkpt lat="45.59509" lon="2.82499">
        <ele>1188.99</ele>
        <time>2015-05-14T13:47:35Z</time>
      </trkpt>
      <trkpt lat="45.59494" lon="2.82484">
        <ele>1181.24</ele>
        <time>2015-05-14T13:47:55Z</time>
      </trkpt>
      <trkpt lat="45.59482" lon="2.82464">
        <ele>1177.66</ele>
        <time>2015-05-14T13:48:06Z</time>
      </trkpt>
      <trkpt lat="45.59471" lon="2.82442">
        <ele>1174.88</ele>
        <time>2015-05-14T13:48:20Z</time>
      </trkpt>
      <trkpt lat="45.59463" lon="2.82418">
        <ele>1173.98</ele>
        <time>2015-05-14T13:48:32Z</time>
      </trkpt>
      <trkpt lat="45.59446" lon="2.82424">
        <ele>1173.94</ele>
        <time>2015-05-14T13:48:45Z</time>
      </trkpt>
      <trkpt lat="45.59433" lon="2.82405">
        <ele>1175.69</ele>
        <time>2015-05-14T13:49:12Z</time>
      </trkpt>
      <trkpt lat="45.59426" lon="2.8238">
        <ele>1175.54</ele>
        <time>2015-05-14T13:49:29Z</time>
      </trkpt>
      <trkpt lat="45.59416" lon="2.82358">
        <ele>1175.89</ele>
        <time>2015-05-14T13:49:42Z</time>
      </trkpt>
      <trkpt lat="45.59403" lon="2.82339">
        <ele>1175.95</ele>
        <time>2015-05-14T13:50:03Z</time>
      </trkpt>
      <trkpt lat="45.59395" lon="2.82314">
        <ele>1173.25</ele>
        <time>2015-05-14T13:50:23Z</time>
      </trkpt>
      <trkpt lat="45.59392" lon="2.82287">
        <ele>1169.36</ele>
        <time>2015-05-14T13:50:40Z</time>
      </trkpt>
      <trkpt lat="45.59385" lon="2.82262">
        <ele>1168.61</ele>
        <time>2015-05-14T13:50:53Z</time>
      </trkpt>
      <trkpt lat="45.59378" lon="2.82236">
        <ele>1167.5</ele>
        <time>2015-05-14T13:51:05Z</time>
      </trkpt>
      <trkpt lat="45.59373" lon="2.8221">
        <ele>1166.97</ele>
        <time>2015-05-14T13:51:18Z</time>
      </trkpt>
      <trkpt lat="45.59367" lon="2.82185">
        <ele>1165.35</ele>
        <time>2015-05-14T13:51:34Z</time>
      </trkpt>
      <trkpt lat="45.59356" lon="2.82165">
        <ele>1160.38</ele>
        <time>2015-05-14T13:51:49Z</time>
      </trkpt>
      <trkpt lat="45.59348" lon="2.8214">
        <ele>1158</ele>
        <time>2015-05-14T13:52:06Z</time>
      </trkpt>
      <trkpt lat="45.59339" lon="2.82117">
        <ele>1156.28</ele>
        <time>2015-05-14T13:52:22Z</time>
      </trkpt>
      <trkpt lat="45.59332" lon="2.82091">
        <ele>1153.74</ele>
        <time>2015-05-14T13:52:36Z</time>
      </trkpt>
      <trkpt lat="45.59332" lon="2.82064">
        <ele>1152.33</ele>
        <time>2015-05-14T13:52:48Z</time>
      </trkpt>
      <trkpt lat="45.59337" lon="2.82038">
        <ele>1151.42</ele>
        <time>2015-05-14T13:53:01Z</time>
      </trkpt>
      <trkpt lat="45.59327" lon="2.82015">
        <ele>1147.34</ele>
        <time>2015-05-14T13:53:17Z</time>
      </trkpt>
      <trkpt lat="45.59319" lon="2.8199">
        <ele>1143.06</ele>
        <time>2015-05-14T13:53:32Z</time>
      </trkpt>
      <trkpt lat="45.59324" lon="2.81966">
        <ele>1140.34</ele>
        <time>2015-05-14T13:53:43Z</time>
      </trkpt>
      <trkpt lat="45.59327" lon="2.8194">
        <ele>1136.22</ele>
        <time>2015-05-14T13:53:58Z</time>
      </trkpt>
      <trkpt lat="45.59328" lon="2.81913">
        <ele>1133.98</ele>
        <time>2015-05-14T13:54:13Z</time>
      </trkpt>
      <trkpt lat="45.59311" lon="2.81922">
        <ele>1130.74</ele>
        <time>2015-05-14T13:54:33Z</time>
      </trkpt>
      <trkpt lat="45.59297" lon="2.8194">
        <ele>1128.59</ele>
        <time>2015-05-14T13:54:45Z</time>
      </trkpt>
      <trkpt lat="45.59292" lon="2.81967">
        <ele>1125.35</ele>
        <time>2015-05-14T13:54:58Z</time>
      </trkpt>
      <trkpt lat="45.59287" lon="2.81992">
        <ele>1119.85</ele>
        <time>2015-05-14T13:55:16Z</time>
      </trkpt>
      <trkpt lat="45.59285" lon="2.8202">
        <ele>1114.21</ele>
        <time>2015-05-14T13:55:32Z</time>
      </trkpt>
      <trkpt lat="45.59279" lon="2.82044">
        <ele>1112.98</ele>
        <time>2015-05-14T13:55:45Z</time>
      </trkpt>
      <trkpt lat="45.59268" lon="2.82023">
        <ele>1111.56</ele>
        <time>2015-05-14T13:56:04Z</time>
      </trkpt>
      <trkpt lat="45.5927" lon="2.81997">
        <ele>1108.71</ele>
        <time>2015-05-14T13:56:21Z</time>
      </trkpt>
      <trkpt lat="45.59263" lon="2.81971">
        <ele>1107.35</ele>
        <time>2015-05-14T13:56:34Z</time>
      </trkpt>
      <trkpt lat="45.59257" lon="2.81946">
        <ele>1106.87</ele>
        <time>2015-05-14T13:56:50Z</time>
      </trkpt>
      <trkpt lat="45.5925" lon="2.81921">
        <ele>1105.67</ele>
        <time>2015-05-14T13:57:04Z</time>
      </trkpt>
      <trkpt lat="45.59241" lon="2.81898">
        <ele>1105.1</ele>
        <time>2015-05-14T13:57:16Z</time>
      </trkpt>
      <trkpt lat="45.59235" lon="2.81873">
        <ele>1105.98</ele>
        <time>2015-05-14T13:57:32Z</time>
      </trkpt>
      <trkpt lat="45.59232" lon="2.81845">
        <ele>1103.2</ele>
        <time>2015-05-14T13:57:50Z</time>
      </trkpt>
      <trkpt lat="45.59227" lon="2.81819">
        <ele>1096.79</ele>
        <time>2015-05-14T13:58:08Z</time>
      </trkpt>
      <trkpt lat="45.59224" lon="2.81791">
        <ele>1094.35</ele>
        <time>2015-05-14T13:58:19Z</time>
      </trkpt>
      <trkpt lat="45.5922" lon="2.81766">
        <ele>1092.77</ele>
        <time>2015-05-14T13:58:34Z</time>
      </trkpt>
      <trkpt lat="45.59221" lon="2.81739">
        <ele>1090.55</ele>
        <time>2015-05-14T13:58:49Z</time>
      </trkpt>
      <trkpt lat="45.59215" lon="2.81714">
        <ele>1088.59</ele>
        <time>2015-05-14T13:59:05Z</time>
      </trkpt>
      <trkpt lat="45.59214" lon="2.81688">
        <ele>1086.5</ele>
        <time>2015-05-14T13:59:18Z</time>
      </trkpt>
      <trkpt lat="45.59203" lon="2.81666">
        <ele>1083.23</ele>
        <time>2015-05-14T13:59:33Z</time>
      </trkpt>
      <trkpt lat="45.59192" lon="2.81645">
        <ele>1079.51</ele>
        <time>2015-05-14T13:59:49Z</time>
      </trkpt>
      <trkpt lat="45.59183" lon="2.81623">
        <ele>1072.3</ele>
        <time>2015-05-14T14:00:11Z</time>
      </trkpt>
      <trkpt lat="45.5917" lon="2.81605">
        <ele>1061.6</ele>
        <time>2015-05-14T14:00:28Z</time>
      </trkpt>
      <trkpt lat="45.59161" lon="2.8158">
        <ele>1057.66</ele>
        <time>2015-05-14T14:00:40Z</time>
      </trkpt>
      <trkpt lat="45.59149" lon="2.8156">
        <ele>1053.72</ele>
        <time>2015-05-14T14:00:54Z</time>
      </trkpt>
      <trkpt lat="45.59135" lon="2.81542">
        <ele>1053.16</ele>
        <time>2015-05-14T14:01:08Z</time>
      </trkpt>
      <trkpt lat="45.59119" lon="2.81525">
        <ele>1053.99</ele>
        <time>2015-05-14T14:01:18Z</time>
      </trkpt>
      <trkpt lat="45.59103" lon="2.81512">
        <ele>1055.8</ele>
        <time>2015-05-14T14:01:32Z</time>
      </trkpt>
      <trkpt lat="45.59086" lon="2.81499">
        <ele>1057.57</ele>
        <time>2015-05-14T14:01:48Z</time>
      </trkpt>
      <trkpt lat="45.59071" lon="2.81484">
        <ele>1056.78</ele>
        <time>2015-05-14T14:02:03Z</time>
      </trkpt>
      <trkpt lat="45.59055" lon="2.8147">
        <ele>1056.26</ele>
        <time>2015-05-14T14:02:27Z</time>
      </trkpt>
      <trkpt lat="45.59049" lon="2.81445">
        <ele>1052.9</ele>
        <time>2015-05-14T14:02:40Z</time>
      </trkpt>
      <trkpt lat="45.59041" lon="2.81421">
        <ele>1046.87</ele>
        <time>2015-05-14T14:02:56Z</time>
      </trkpt>
      <trkpt lat="45.59033" lon="2.81396">
        <ele>1044.26</ele>
        <time>2015-05-14T14:03:14Z</time>
      </trkpt>
      <trkpt lat="45.59017" lon="2.81382">
        <ele>1042.62</ele>
        <time>2015-05-14T14:03:53Z</time>
      </trkpt>
      <trkpt lat="45.59001" lon="2.81365">
        <ele>1043.85</ele>
        <time>2015-05-14T14:04:03Z</time>
      </trkpt>
      <trkpt lat="45.58983" lon="2.81352">
        <ele>1046.29</ele>
        <time>2015-05-14T14:04:12Z</time>
      </trkpt>
      <trkpt lat="45.58966" lon="2.81363">
        <ele>1048.77</ele>
        <time>2015-05-14T14:04:24Z</time>
      </trkpt>
      <trkpt lat="45.5895" lon="2.81376">
        <ele>1049.37</ele>
        <time>2015-05-14T14:04:40Z</time>
      </trkpt>
      <trkpt lat="45.58931" lon="2.81371">
        <ele>1049.16</ele>
        <time>2015-05-14T14:04:56Z</time>
      </trkpt>
      <trkpt lat="45.58913" lon="2.81377">
        <ele>1049.59</ele>
        <time>2015-05-14T14:05:14Z</time>
      </trkpt>
      <trkpt lat="45.58896" lon="2.8139">
        <ele>1050.13</ele>
        <time>2015-05-14T14:05:31Z</time>
      </trkpt>
      <trkpt lat="45.58884" lon="2.81412">
        <ele>1050.72</ele>
        <time>2015-05-14T14:05:42Z</time>
      </trkpt>
      <trkpt lat="45.58866" lon="2.81403">
        <ele>1052.94</ele>
        <time>2015-05-14T14:06:12Z</time>
      </trkpt>
      <trkpt lat="45.58851" lon="2.81388">
        <ele>1054.71</ele>
        <time>2015-05-14T14:06:32Z</time>
      </trkpt>
      <trkpt lat="45.58833" lon="2.81381">
        <ele>1054.2</ele>
        <time>2015-05-14T14:06:59Z</time>
      </trkpt>
      <trkpt lat="45.58815" lon="2.8139">
        <ele>1052.15</ele>
        <time>2015-05-14T14:07:16Z</time>
      </trkpt>
      <trkpt lat="45.58799" lon="2.81406">
        <ele>1050.01</ele>
        <time>2015-05-14T14:07:33Z</time>
      </trkpt>
      <trkpt lat="45.5879" lon="2.81429">
        <ele>1048.66</ele>
        <time>2015-05-14T14:07:52Z</time>
      </trkpt>
      <trkpt lat="45.58789" lon="2.81457">
        <ele>1051.57</ele>
        <time>2015-05-14T14:08:03Z</time>
      </trkpt>
      <trkpt lat="45.58792" lon="2.81483">
        <ele>1071.14</ele>
        <time>2015-05-14T14:08:40Z</time>
      </trkpt>
      <trkpt lat="45.58775" lon="2.81475">
        <ele>1091.47</ele>
        <time>2015-05-14T14:09:09Z</time>
      </trkpt>
      <trkpt lat="45.5879" lon="2.81452">
        <ele>1113.03</ele>
        <time>2015-05-14T14:10:47Z</time>
      </trkpt>
      <trkpt lat="45.58791" lon="2.81425">
        <ele>1105.8</ele>
        <time>2015-05-14T14:11:06Z</time>
      </trkpt>
      <trkpt lat="45.58779" lon="2.81404">
        <ele>1092.38</ele>
        <time>2015-05-14T14:11:58Z</time>
      </trkpt>
      <trkpt lat="45.58775" lon="2.81378">
        <ele>1083.8</ele>
        <time>2015-05-14T14:12:20Z</time>
      </trkpt>
      <trkpt lat="45.58769" lon="2.81354">
        <ele>1078.22</ele>
        <time>2015-05-14T14:12:47Z</time>
      </trkpt>
      <trkpt lat="45.58769" lon="2.81328">
        <ele>1076.36</ele>
        <time>2015-05-14T14:13:00Z</time>
      </trkpt>
      <trkpt lat="45.5878" lon="2.81307">
        <ele>1072.7</ele>
        <time>2015-05-14T14:13:25Z</time>
      </trkpt>
      <trkpt lat="45.5879" lon="2.81285">
        <ele>1071.31</ele>
        <time>2015-05-14T14:13:39Z</time>
      </trkpt>
      <trkpt lat="45.58796" lon="2.81258">
        <ele>1072.39</ele>
        <time>2015-05-14T14:13:55Z</time>
      </trkpt>
      <trkpt lat="45.58798" lon="2.81231">
        <ele>1072.7</ele>
        <time>2015-05-14T14:14:12Z</time>
      </trkpt>
      <trkpt lat="45.58806" lon="2.81207">
        <ele>1069.82</ele>
        <time>2015-05-14T14:14:27Z</time>
      </trkpt>
      <trkpt lat="45.58811" lon="2.81182">
        <ele>1066.16</ele>
        <time>2015-05-14T14:14:37Z</time>
      </trkpt>
      <trkpt lat="45.58818" lon="2.81156">
        <ele>1062.79</ele>
        <time>2015-05-14T14:14:52Z</time>
      </trkpt>
      <trkpt lat="45.58818" lon="2.8113">
        <ele>1063.58</ele>
        <time>2015-05-14T14:15:02Z</time>
      </trkpt>
      <trkpt lat="45.58816" lon="2.81103">
        <ele>1066.21</ele>
        <time>2015-05-14T14:15:17Z</time>
      </trkpt>
      <trkpt lat="45.58824" lon="2.81076">
        <ele>1063.22</ele>
        <time>2015-05-14T14:15:36Z</time>
      </trkpt>
      <trkpt lat="45.58834" lon="2.81053">
        <ele>1060.79</ele>
        <time>2015-05-14T14:15:46Z</time>
      </trkpt>
      <trkpt lat="45.58842" lon="2.81026">
        <ele>1057.71</ele>
        <time>2015-05-14T14:15:56Z</time>
      </trkpt>
      <trkpt lat="45.58837" lon="2.81001">
        <ele>1055.46</ele>
        <time>2015-05-14T14:16:08Z</time>
      </trkpt>
      <trkpt lat="45.58828" lon="2.80977">
        <ele>1053.05</ele>
        <time>2015-05-14T14:16:22Z</time>
      </trkpt>
      <trkpt lat="45.58819" lon="2.80954">
        <ele>1050.97</ele>
        <time>2015-05-14T14:16:37Z</time>
      </trkpt>
      <trkpt lat="45.58812" lon="2.8093">
        <ele>1048.45</ele>
        <time>2015-05-14T14:16:54Z</time>
      </trkpt>
      <trkpt lat="45.58826" lon="2.80911">
        <ele>1045.69</ele>
        <time>2015-05-14T14:17:08Z</time>
      </trkpt>
      <trkpt lat="45.58842" lon="2.80896">
        <ele>1045</ele>
        <time>2015-05-14T14:17:20Z</time>
      </trkpt>
      <trkpt lat="45.58854" lon="2.80875">
        <ele>1046.77</ele>
        <time>2015-05-14T14:17:35Z</time>
      </trkpt>
      <trkpt lat="45.58858" lon="2.8085">
        <ele>1047.67</ele>
        <time>2015-05-14T14:17:49Z</time>
      </trkpt>
      <trkpt lat="45.58862" lon="2.80824">
        <ele>1047.98</ele>
        <time>2015-05-14T14:18:04Z</time>
      </trkpt>
      <trkpt lat="45.58862" lon="2.80796">
        <ele>1047.83</ele>
        <time>2015-05-14T14:18:18Z</time>
      </trkpt>
      <trkpt lat="45.5886" lon="2.80771">
        <ele>1047.16</ele>
        <time>2015-05-14T14:18:32Z</time>
      </trkpt>
      <trkpt lat="45.58859" lon="2.80744">
        <ele>1045.84</ele>
        <time>2015-05-14T14:18:48Z</time>
      </trkpt>
      <trkpt lat="45.58859" lon="2.80717">
        <ele>1041.23</ele>
        <time>2015-05-14T14:19:12Z</time>
      </trkpt>
      <trkpt lat="45.58857" lon="2.80691">
        <ele>1037.87</ele>
        <time>2015-05-14T14:19:34Z</time>
      </trkpt>
      <trkpt lat="45.58846" lon="2.80669">
        <ele>1037.18</ele>
        <time>2015-05-14T14:19:45Z</time>
      </trkpt>
      <trkpt lat="45.58839" lon="2.80643">
        <ele>1037.61</ele>
        <time>2015-05-14T14:19:55Z</time>
      </trkpt>
      <trkpt lat="45.58836" lon="2.80617">
        <ele>1038.39</ele>
        <time>2015-05-14T14:20:05Z</time>
      </trkpt>
      <trkpt lat="45.58831" lon="2.8059">
        <ele>1039.08</ele>
        <time>2015-05-14T14:20:21Z</time>
      </trkpt>
      <trkpt lat="45.58834" lon="2.80563">
        <ele>1038.83</ele>
        <time>2015-05-14T14:20:33Z</time>
      </trkpt>
      <trkpt lat="45.58835" lon="2.80535">
        <ele>1034.59</ele>
        <time>2015-05-14T14:20:47Z</time>
      </trkpt>
      <trkpt lat="45.58835" lon="2.80508">
        <ele>1032.19</ele>
        <time>2015-05-14T14:21:01Z</time>
      </trkpt>
      <trkpt lat="45.58832" lon="2.80481">
        <ele>1029.16</ele>
        <time>2015-05-14T14:21:16Z</time>
      </trkpt>
      <trkpt lat="45.58828" lon="2.80454">
        <ele>1027.93</ele>
        <time>2015-05-14T14:21:30Z</time>
      </trkpt>
      <trkpt lat="45.58824" lon="2.80429">
        <ele>1026.69</ele>
        <time>2015-05-14T14:21:44Z</time>
      </trkpt>
      <trkpt lat="45.5882" lon="2.80402">
        <ele>1025.28</ele>
        <time>2015-05-14T14:21:58Z</time>
      </trkpt>
      <trkpt lat="45.58821" lon="2.80377">
        <ele>1024.24</ele>
        <time>2015-05-14T14:22:11Z</time>
      </trkpt>
      <trkpt lat="45.58829" lon="2.80353">
        <ele>1022.51</ele>
        <time>2015-05-14T14:22:27Z</time>
      </trkpt>
      <trkpt lat="45.58824" lon="2.80327">
        <ele>1021.07</ele>
        <time>2015-05-14T14:22:39Z</time>
      </trkpt>
      <trkpt lat="45.5882" lon="2.80302">
        <ele>1019.28</ele>
        <time>2015-05-14T14:22:53Z</time>
      </trkpt>
      <trkpt lat="45.58814" lon="2.80278">
        <ele>1018.74</ele>
        <time>2015-05-14T14:23:06Z</time>
      </trkpt>
      <trkpt lat="45.58808" lon="2.80253">
        <ele>1018.33</ele>
        <time>2015-05-14T14:23:25Z</time>
      </trkpt>
      <trkpt lat="45.58797" lon="2.80231">
        <ele>1017.33</ele>
        <time>2015-05-14T14:23:38Z</time>
      </trkpt>
      <trkpt lat="45.58783" lon="2.80213">
        <ele>1017.05</ele>
        <time>2015-05-14T14:23:51Z</time>
      </trkpt>
      <trkpt lat="45.5877" lon="2.80193">
        <ele>1016.52</ele>
        <time>2015-05-14T14:24:05Z</time>
      </trkpt>
      <trkpt lat="45.58757" lon="2.80174">
        <ele>1015.91</ele>
        <time>2015-05-14T14:24:18Z</time>
      </trkpt>
      <trkpt lat="45.5874" lon="2.80162">
        <ele>1015.7</ele>
        <time>2015-05-14T14:24:30Z</time>
      </trkpt>
      <trkpt lat="45.58722" lon="2.80161">
        <ele>1014.54</ele>
        <time>2015-05-14T14:24:45Z</time>
      </trkpt>
      <trkpt lat="45.58704" lon="2.80161">
        <ele>1013.44</ele>
        <time>2015-05-14T14:24:59Z</time>
      </trkpt>
      <trkpt lat="45.58685" lon="2.80158">
        <ele>1010.49</ele>
        <time>2015-05-14T14:25:14Z</time>
      </trkpt>
      <trkpt lat="45.58667" lon="2.80161">
        <ele>1005.67</ele>
        <time>2015-05-14T14:25:32Z</time>
      </trkpt>
      <trkpt lat="45.58648" lon="2.80165">
        <ele>1003.87</ele>
        <time>2015-05-14T14:25:44Z</time>
      </trkpt>
      <trkpt lat="45.58629" lon="2.80173">
        <ele>1002.63</ele>
        <time>2015-05-14T14:25:57Z</time>
      </trkpt>
      <trkpt lat="45.58611" lon="2.80177">
        <ele>1004.15</ele>
        <time>2015-05-14T14:26:12Z</time>
      </trkpt>
      <trkpt lat="45.58593" lon="2.80185">
        <ele>1005.26</ele>
        <time>2015-05-14T14:26:26Z</time>
      </trkpt>
      <trkpt lat="45.58579" lon="2.80201">
        <ele>1004.76</ele>
        <time>2015-05-14T14:26:40Z</time>
      </trkpt>
      <trkpt lat="45.58564" lon="2.80216">
        <ele>1003.65</ele>
        <time>2015-05-14T14:26:52Z</time>
      </trkpt>
      <trkpt lat="45.58549" lon="2.80229">
        <ele>1002.59</ele>
        <time>2015-05-14T14:27:05Z</time>
      </trkpt>
      <trkpt lat="45.58531" lon="2.8024">
        <ele>1002.74</ele>
        <time>2015-05-14T14:27:21Z</time>
      </trkpt>
      <trkpt lat="45.58514" lon="2.80252">
        <ele>1001.61</ele>
        <time>2015-05-14T14:27:34Z</time>
      </trkpt>
      <trkpt lat="45.58498" lon="2.80264">
        <ele>1000.94</ele>
        <time>2015-05-14T14:27:47Z</time>
      </trkpt>
      <trkpt lat="45.58481" lon="2.80276">
        <ele>1001.79</ele>
        <time>2015-05-14T14:28:02Z</time>
      </trkpt>
      <trkpt lat="45.58463" lon="2.80285">
        <ele>1001.97</ele>
        <time>2015-05-14T14:28:16Z</time>
      </trkpt>
      <trkpt lat="45.58447" lon="2.80298">
        <ele>1000.77</ele>
        <time>2015-05-14T14:28:32Z</time>
      </trkpt>
      <trkpt lat="45.5843" lon="2.8031">
        <ele>1000.27</ele>
        <time>2015-05-14T14:28:45Z</time>
      </trkpt>
      <trkpt lat="45.58414" lon="2.80321">
        <ele>1000.43</ele>
        <time>2015-05-14T14:28:58Z</time>
      </trkpt>
      <trkpt lat="45.58396" lon="2.80329">
        <ele>1001.67</ele>
        <time>2015-05-14T14:29:13Z</time>
      </trkpt>
      <trkpt lat="45.5838" lon="2.80343">
        <ele>1001.99</ele>
        <time>2015-05-14T14:29:28Z</time>
      </trkpt>
      <trkpt lat="45.58362" lon="2.80351">
        <ele>999.77</ele>
        <time>2015-05-14T14:30:06Z</time>
      </trkpt>
      <trkpt lat="45.58346" lon="2.80364">
        <ele>998.21</ele>
        <time>2015-05-14T14:30:19Z</time>
      </trkpt>
      <trkpt lat="45.58328" lon="2.80371">
        <ele>996.97</ele>
        <time>2015-05-14T14:30:33Z</time>
      </trkpt>
      <trkpt lat="45.5831" lon="2.80376">
        <ele>996.23</ele>
        <time>2015-05-14T14:30:47Z</time>
      </trkpt>
      <trkpt lat="45.58295" lon="2.80393">
        <ele>996.48</ele>
        <time>2015-05-14T14:31:02Z</time>
      </trkpt>
      <trkpt lat="45.5828" lon="2.80408">
        <ele>995.84</ele>
        <time>2015-05-14T14:31:17Z</time>
      </trkpt>
      <trkpt lat="45.58267" lon="2.80426">
        <ele>995.53</ele>
        <time>2015-05-14T14:31:33Z</time>
      </trkpt>
      <trkpt lat="45.58253" lon="2.80444">
        <ele>995.34</ele>
        <time>2015-05-14T14:31:51Z</time>
      </trkpt>
      <trkpt lat="45.58241" lon="2.80464">
        <ele>996.26</ele>
        <time>2015-05-14T14:32:04Z</time>
      </trkpt>
      <trkpt lat="45.58227" lon="2.8048">
        <ele>996.64</ele>
        <time>2015-05-14T14:32:19Z</time>
      </trkpt>
      <trkpt lat="45.58213" lon="2.80498">
        <ele>997.19</ele>
        <time>2015-05-14T14:32:35Z</time>
      </trkpt>
      <trkpt lat="45.58201" lon="2.80518">
        <ele>996.98</ele>
        <time>2015-05-14T14:32:51Z</time>
      </trkpt>
      <trkpt lat="45.58186" lon="2.80534">
        <ele>997.61</ele>
        <time>2015-05-14T14:33:07Z</time>
      </trkpt>
      <trkpt lat="45.58172" lon="2.80552">
        <ele>997.14</ele>
        <time>2015-05-14T14:33:23Z</time>
      </trkpt>
      <trkpt lat="45.58156" lon="2.80567">
        <ele>997.7</ele>
        <time>2015-05-14T14:33:40Z</time>
      </trkpt>
      <trkpt lat="45.5814" lon="2.8058">
        <ele>1000.34</ele>
        <time>2015-05-14T14:33:56Z</time>
      </trkpt>
      <trkpt lat="45.58124" lon="2.80593">
        <ele>1001.12</ele>
        <time>2015-05-14T14:34:11Z</time>
      </trkpt>
      <trkpt lat="45.58108" lon="2.80607">
        <ele>1002.24</ele>
        <time>2015-05-14T14:34:24Z</time>
      </trkpt>
      <trkpt lat="45.5809" lon="2.80615">
        <ele>1003.31</ele>
        <time>2015-05-14T14:34:41Z</time>
      </trkpt>
      <trkpt lat="45.58073" lon="2.80628">
        <ele>1005.34</ele>
        <time>2015-05-14T14:34:57Z</time>
      </trkpt>
      <trkpt lat="45.58058" lon="2.80642">
        <ele>1005.68</ele>
        <time>2015-05-14T14:35:10Z</time>
      </trkpt>
      <trkpt lat="45.58043" lon="2.80657">
        <ele>1007.23</ele>
        <time>2015-05-14T14:35:25Z</time>
      </trkpt>
      <trkpt lat="45.58025" lon="2.80668">
        <ele>1008.52</ele>
        <time>2015-05-14T14:35:41Z</time>
      </trkpt>
      <trkpt lat="45.58009" lon="2.8068">
        <ele>1008.59</ele>
        <time>2015-05-14T14:35:57Z</time>
      </trkpt>
      <trkpt lat="45.57991" lon="2.80685">
        <ele>1008.61</ele>
        <time>2015-05-14T14:36:11Z</time>
      </trkpt>
      <trkpt lat="45.57973" lon="2.80691">
        <ele>1009.59</ele>
        <time>2015-05-14T14:36:26Z</time>
      </trkpt>
      <trkpt lat="45.57956" lon="2.80698">
        <ele>1011.29</ele>
        <time>2015-05-14T14:36:44Z</time>
      </trkpt>
      <trkpt lat="45.57938" lon="2.80702">
        <ele>1012.8</ele>
        <time>2015-05-14T14:37:07Z</time>
      </trkpt>
      <trkpt lat="45.57921" lon="2.80712">
        <ele>1013.39</ele>
        <time>2015-05-14T14:37:22Z</time>
      </trkpt>
      <trkpt lat="45.57902" lon="2.80711">
        <ele>1013.66</ele>
        <time>2015-05-14T14:37:50Z</time>
      </trkpt>
      <trkpt lat="45.57884" lon="2.80723">
        <ele>1012.91</ele>
        <time>2015-05-14T14:38:03Z</time>
      </trkpt>
      <trkpt lat="45.57867" lon="2.80733">
        <ele>1013.93</ele>
        <time>2015-05-14T14:38:18Z</time>
      </trkpt>
      <trkpt lat="45.5785" lon="2.80744">
        <ele>1014.52</ele>
        <time>2015-05-14T14:38:35Z</time>
      </trkpt>
      <trkpt lat="45.57836" lon="2.80761">
        <ele>1016.48</ele>
        <time>2015-05-14T14:38:51Z</time>
      </trkpt>
      <trkpt lat="45.57821" lon="2.80777">
        <ele>1017.25</ele>
        <time>2015-05-14T14:39:08Z</time>
      </trkpt>
      <trkpt lat="45.57805" lon="2.80791">
        <ele>1015.84</ele>
        <time>2015-05-14T14:39:27Z</time>
      </trkpt>
      <trkpt lat="45.57794" lon="2.80771">
        <ele>1014.87</ele>
        <time>2015-05-14T14:39:42Z</time>
      </trkpt>
      <trkpt lat="45.57786" lon="2.80746">
        <ele>1015.98</ele>
        <time>2015-05-14T14:39:56Z</time>
      </trkpt>
      <trkpt lat="45.57777" lon="2.80722">
        <ele>1016.96</ele>
        <time>2015-05-14T14:40:09Z</time>
      </trkpt>
      <trkpt lat="45.57768" lon="2.80698">
        <ele>1017.97</ele>
        <time>2015-05-14T14:40:22Z</time>
      </trkpt>
      <trkpt lat="45.57759" lon="2.80674">
        <ele>1017.97</ele>
        <time>2015-05-14T14:40:37Z</time>
      </trkpt>
      <trkpt lat="45.57741" lon="2.80685">
        <ele>1017.61</ele>
        <time>2015-05-14T14:40:50Z</time>
      </trkpt>
      <trkpt lat="45.57727" lon="2.80701">
        <ele>1016.33</ele>
        <time>2015-05-14T14:41:04Z</time>
      </trkpt>
      <trkpt lat="45.57712" lon="2.80715">
        <ele>1015.46</ele>
        <time>2015-05-14T14:41:18Z</time>
      </trkpt>
      <trkpt lat="45.57696" lon="2.80729">
        <ele>1016.71</ele>
        <time>2015-05-14T14:41:31Z</time>
      </trkpt>
      <trkpt lat="45.57682" lon="2.80745">
        <ele>1017.97</ele>
        <time>2015-05-14T14:41:47Z</time>
      </trkpt>
      <trkpt lat="45.57667" lon="2.80761">
        <ele>1018.12</ele>
        <time>2015-05-14T14:42:01Z</time>
      </trkpt>
      <trkpt lat="45.57652" lon="2.80777">
        <ele>1019.02</ele>
        <time>2015-05-14T14:42:16Z</time>
      </trkpt>
      <trkpt lat="45.57638" lon="2.80793">
        <ele>1021.39</ele>
        <time>2015-05-14T14:42:30Z</time>
      </trkpt>
      <trkpt lat="45.57621" lon="2.80807">
        <ele>1022.87</ele>
        <time>2015-05-14T14:42:45Z</time>
      </trkpt>
      <trkpt lat="45.57606" lon="2.80823">
        <ele>1021.49</ele>
        <time>2015-05-14T14:43:02Z</time>
      </trkpt>
      <trkpt lat="45.57591" lon="2.80841">
        <ele>1018.73</ele>
        <time>2015-05-14T14:43:16Z</time>
      </trkpt>
      <trkpt lat="45.57576" lon="2.80857">
        <ele>1019.12</ele>
        <time>2015-05-14T14:43:31Z</time>
      </trkpt>
      <trkpt lat="45.5756" lon="2.80873">
        <ele>1019.27</ele>
        <time>2015-05-14T14:43:48Z</time>
      </trkpt>
      <trkpt lat="45.57542" lon="2.8088">
        <ele>1020.18</ele>
        <time>2015-05-14T14:44:03Z</time>
      </trkpt>
      <trkpt lat="45.57526" lon="2.80895">
        <ele>1020.35</ele>
        <time>2015-05-14T14:44:21Z</time>
      </trkpt>
      <trkpt lat="45.57507" lon="2.80896">
        <ele>1021.79</ele>
        <time>2015-05-14T14:44:33Z</time>
      </trkpt>
      <trkpt lat="45.57489" lon="2.80902">
        <ele>1025.81</ele>
        <time>2015-05-14T14:44:47Z</time>
      </trkpt>
      <trkpt lat="45.57472" lon="2.80911">
        <ele>1031.5</ele>
        <time>2015-05-14T14:45:06Z</time>
      </trkpt>
      <trkpt lat="45.57468" lon="2.80937">
        <ele>1034.69</ele>
        <time>2015-05-14T14:45:22Z</time>
      </trkpt>
      <trkpt lat="45.57454" lon="2.80954">
        <ele>1036.99</ele>
        <time>2015-05-14T14:45:38Z</time>
      </trkpt>
      <trkpt lat="45.57439" lon="2.80969">
        <ele>1035.49</ele>
        <time>2015-05-14T14:46:05Z</time>
      </trkpt>
      <trkpt lat="45.57422" lon="2.80962">
        <ele>1034.8</ele>
        <time>2015-05-14T14:46:31Z</time>
      </trkpt>
      <trkpt lat="45.57408" lon="2.80944">
        <ele>1034.21</ele>
        <time>2015-05-14T14:46:57Z</time>
      </trkpt>
      <trkpt lat="45.5739" lon="2.80951">
        <ele>1035.52</ele>
        <time>2015-05-14T14:47:13Z</time>
      </trkpt>
      <trkpt lat="45.57373" lon="2.80959">
        <ele>1037.11</ele>
        <time>2015-05-14T14:47:30Z</time>
      </trkpt>
      <trkpt lat="45.57355" lon="2.80966">
        <ele>1038.41</ele>
        <time>2015-05-14T14:47:45Z</time>
      </trkpt>
      <trkpt lat="45.57339" lon="2.8098">
        <ele>1038.18</ele>
        <time>2015-05-14T14:48:03Z</time>
      </trkpt>
      <trkpt lat="45.57323" lon="2.80992">
        <ele>1040.06</ele>
        <time>2015-05-14T14:48:32Z</time>
      </trkpt>
      <trkpt lat="45.57306" lon="2.81004">
        <ele>1039.21</ele>
        <time>2015-05-14T14:50:01Z</time>
      </trkpt>
      <trkpt lat="45.57291" lon="2.81017">
        <ele>1038.3</ele>
        <time>2015-05-14T14:50:17Z</time>
      </trkpt>
      <trkpt lat="45.57273" lon="2.81024">
        <ele>1039.11</ele>
        <time>2015-05-14T14:50:36Z</time>
      </trkpt>
      <trkpt lat="45.57255" lon="2.81033">
        <ele>1040.22</ele>
        <time>2015-05-14T14:50:54Z</time>
      </trkpt>
      <trkpt lat="45.57238" lon="2.81042">
        <ele>1041.72</ele>
        <time>2015-05-14T14:51:11Z</time>
      </trkpt>
      <trkpt lat="45.5722" lon="2.81049">
        <ele>1044.19</ele>
        <time>2015-05-14T14:51:32Z</time>
      </trkpt>
      <trkpt lat="45.57201" lon="2.81051">
        <ele>1046.61</ele>
        <time>2015-05-14T14:52:01Z</time>
      </trkpt>
      <trkpt lat="45.57183" lon="2.81063">
        <ele>1047.47</ele>
        <time>2015-05-14T14:52:14Z</time>
      </trkpt>
      <trkpt lat="45.57166" lon="2.8107">
        <ele>1049.21</ele>
        <time>2015-05-14T14:52:28Z</time>
      </trkpt>
      <trkpt lat="45.5715" lon="2.81084">
        <ele>1048.54</ele>
        <time>2015-05-14T14:52:44Z</time>
      </trkpt>
      <trkpt lat="45.57133" lon="2.81094">
        <ele>1048.55</ele>
        <time>2015-05-14T14:53:00Z</time>
      </trkpt>
      <trkpt lat="45.57115" lon="2.81099">
        <ele>1049.48</ele>
        <time>2015-05-14T14:53:15Z</time>
      </trkpt>
      <trkpt lat="45.57099" lon="2.81111">
        <ele>1051.07</ele>
        <time>2015-05-14T14:53:31Z</time>
      </trkpt>
      <trkpt lat="45.57082" lon="2.81121">
        <ele>1051.38</ele>
        <time>2015-05-14T14:53:46Z</time>
      </trkpt>
      <trkpt lat="45.57063" lon="2.8113">
        <ele>1051.89</ele>
        <time>2015-05-14T14:54:00Z</time>
      </trkpt>
      <trkpt lat="45.57045" lon="2.81128">
        <ele>1051.8</ele>
        <time>2015-05-14T14:54:18Z</time>
      </trkpt>
      <trkpt lat="45.57027" lon="2.81129">
        <ele>1052</ele>
        <time>2015-05-14T14:54:33Z</time>
      </trkpt>
    </trkseg>
  </trk>
</gpx>